Time,TemperatureF,DewpointF,PressureIn,WindDirection,WindDirectionDegrees,WindSpeedMPH,WindSpeedGustMPH,Humidity,HourlyPrecipIn,Conditions,Clouds,dailyrainin,SoftwareType,DateUTC
2013-03-18 00:00:00,56.8,48.6,29.70,North,5,0.0,3.0,74,0.00,,---,0.00,VWS V14.01,2013-03-18 05:00:00,
2013-03-18 00:01:00,56.9,48.3,29.71,North,5,3.0,4.0,73,0.00,,---,0.00,VWS V14.01,2013-03-18 05:01:00,
2013-03-18 00:03:00,56.9,48.7,29.70,North,5,0.0,3.0,74,0.00,,---,0.00,VWS V14.01,2013-03-18 05:03:00,
2013-03-18 00:04:00,56.8,48.6,29.70,North,5,2.0,3.0,74,0.00,,---,0.00,VWS V14.01,2013-03-18 05:04:00,
2013-03-18 00:05:00,56.7,48.5,29.70,North,5,0.0,2.0,74,0.00,,---,0.00,VWS V14.01,2013-03-18 05:05:00,
2013-03-18 00:06:00,56.8,48.6,29.70,North,5,0.0,3.0,74,0.00,,---,0.00,VWS V14.01,2013-03-18 05:06:00,
2013-03-18 00:07:00,56.7,48.5,29.70,North,5,0.0,3.0,74,0.00,,---,0.00,VWS V14.01,2013-03-18 05:07:00,
2013-03-18 00:08:00,56.7,48.5,29.70,North,5,0.0,3.0,74,0.00,,---,0.00,VWS V14.01,2013-03-18 05:08:00,
2013-03-18 00:10:00,56.6,48.8,29.70,North,5,0.0,3.0,75,0.00,,---,0.00,VWS V14.01,2013-03-18 05:10:00,
2013-03-18 00:12:00,56.7,48.5,29.70,North,5,0.0,3.0,74,0.00,,---,0.00,VWS V14.01,2013-03-18 05:12:00,
2013-03-18 00:13:00,56.7,48.9,29.70,North,5,0.0,3.0,75,0.00,,---,0.00,VWS V14.01,2013-03-18 05:13:00,
2013-03-18 00:14:00,56.6,48.8,29.70,North,5,0.0,3.0,75,0.00,,---,0.00,VWS V14.01,2013-03-18 05:14:00,
2013-03-18 00:15:00,56.6,48.8,29.69,North,5,0.0,0.0,75,0.00,,---,0.00,VWS V14.01,2013-03-18 05:15:00,
2013-03-18 00:16:00,56.6,48.8,29.70,North,5,0.0,0.0,75,0.00,,---,0.00,VWS V14.01,2013-03-18 05:16:00,
2013-03-18 00:17:00,56.6,48.8,29.70,North,5,0.0,0.0,75,0.00,,---,0.00,VWS V14.01,2013-03-18 05:17:00,
2013-03-18 00:20:00,56.4,48.6,29.68,North,5,0.0,0.0,75,0.00,,---,0.00,VWS V14.01,2013-03-18 05:20:00,
2013-03-18 00:21:00,56.5,48.7,29.69,North,5,0.0,0.0,75,0.00,,---,0.00,VWS V14.01,2013-03-18 05:21:00,
2013-03-18 00:22:00,56.5,48.7,29.68,North,5,0.0,0.0,75,0.00,,---,0.00,VWS V14.01,2013-03-18 05:22:00,
2013-03-18 00:23:00,56.5,48.7,29.68,North,5,0.0,0.0,75,0.00,,---,0.00,VWS V14.01,2013-03-18 05:23:00,
2013-03-18 00:25:00,56.3,48.5,29.68,North,5,0.0,0.0,75,0.00,,---,0.00,VWS V14.01,2013-03-18 05:25:00,
2013-03-18 00:26:00,56.4,48.6,29.68,North,5,0.0,0.0,75,0.00,,---,0.00,VWS V14.01,2013-03-18 05:26:00,
2013-03-18 00:28:00,56.4,48.6,29.68,North,5,0.0,0.0,75,0.00,,---,0.00,VWS V14.01,2013-03-18 05:28:00,
2013-03-18 00:29:00,56.4,48.6,29.68,North,5,0.0,0.0,75,0.00,,---,0.00,VWS V14.01,2013-03-18 05:29:00,
2013-03-18 00:30:00,56.2,48.4,29.67,North,5,0.0,0.0,75,0.00,,---,0.00,VWS V14.01,2013-03-18 05:30:00,
2013-03-18 00:31:00,56.3,48.5,29.68,North,5,0.0,0.0,75,0.00,,---,0.00,VWS V14.01,2013-03-18 05:31:00,
2013-03-18 00:32:00,56.3,48.5,29.67,North,5,0.0,0.0,75,0.00,,---,0.00,VWS V14.01,2013-03-18 05:32:00,
2013-03-18 00:33:00,56.2,48.4,29.67,North,5,0.0,0.0,75,0.00,,---,0.00,VWS V14.01,2013-03-18 05:33:00,
2013-03-18 00:34:00,56.2,48.4,29.67,North,5,0.0,0.0,75,0.00,,---,0.00,VWS V14.01,2013-03-18 05:34:00,
2013-03-18 00:35:00,56.0,48.5,29.67,North,5,0.0,0.0,76,0.00,,---,0.00,VWS V14.01,2013-03-18 05:35:00,
2013-03-18 00:38:00,56.1,48.3,29.67,North,5,0.0,0.0,75,0.00,,---,0.00,VWS V14.01,2013-03-18 05:38:00,
2013-03-18 00:40:00,55.9,48.5,29.66,North,5,0.0,0.0,76,0.00,,---,0.00,VWS V14.01,2013-03-18 05:40:00,
2013-03-18 00:42:00,56.0,48.5,29.67,North,5,0.0,0.0,76,0.00,,---,0.00,VWS V14.01,2013-03-18 05:42:00,
2013-03-18 00:44:00,56.0,48.5,29.66,North,5,0.0,0.0,76,0.00,,---,0.00,VWS V14.01,2013-03-18 05:44:00,
2013-03-18 00:45:00,55.8,48.4,29.66,North,5,0.0,0.0,76,0.00,,---,0.00,VWS V14.01,2013-03-18 05:45:00,
2013-03-18 00:48:00,55.9,48.5,29.66,North,5,0.0,0.0,76,0.00,,---,0.00,VWS V14.01,2013-03-18 05:48:00,
2013-03-18 00:49:00,55.9,48.5,29.66,North,5,0.0,0.0,76,0.00,,---,0.00,VWS V14.01,2013-03-18 05:49:00,
2013-03-18 00:50:00,55.8,48.4,29.66,North,5,0.0,0.0,76,0.00,,---,0.00,VWS V14.01,2013-03-18 05:50:00,
2013-03-18 00:51:00,55.7,48.3,29.66,North,5,0.0,0.0,76,0.00,,---,0.00,VWS V14.01,2013-03-18 05:51:00,
2013-03-18 00:53:00,55.8,48.4,29.65,North,5,0.0,0.0,76,0.00,,---,0.00,VWS V14.01,2013-03-18 05:53:00,
2013-03-18 00:55:00,55.7,48.3,29.66,North,5,0.0,0.0,76,0.00,,---,0.00,VWS V14.01,2013-03-18 05:55:00,
2013-03-18 00:56:00,55.6,48.5,29.67,North,5,0.0,0.0,77,0.00,,---,0.00,VWS V14.01,2013-03-18 05:56:00,
2013-03-18 00:57:00,55.7,48.6,29.65,North,5,0.0,0.0,77,0.00,,---,0.00,VWS V14.01,2013-03-18 05:57:00,
2013-03-18 00:58:00,55.7,48.6,29.65,North,5,0.0,0.0,77,0.00,,---,0.00,VWS V14.01,2013-03-18 05:58:00,
2013-03-18 00:59:00,55.7,48.6,29.66,North,5,0.0,0.0,77,0.00,,---,0.00,VWS V14.01,2013-03-18 05:59:00,
2013-03-18 01:00:00,55.6,48.5,29.67,North,5,0.0,0.0,77,0.00,,---,0.00,VWS V14.01,2013-03-18 06:00:00,
2013-03-18 01:01:00,55.6,48.9,29.66,North,5,0.0,0.0,78,0.00,,---,0.00,VWS V14.01,2013-03-18 06:01:00,
2013-03-18 01:02:00,55.6,48.5,29.66,North,5,0.0,0.0,77,0.00,,---,0.00,VWS V14.01,2013-03-18 06:02:00,
2013-03-18 01:04:00,55.6,48.5,29.65,North,5,0.0,0.0,77,0.00,,---,0.00,VWS V14.01,2013-03-18 06:04:00,
2013-03-18 01:05:00,55.6,48.5,29.66,North,5,0.0,0.0,77,0.00,,---,0.00,VWS V14.01,2013-03-18 06:05:00,
2013-03-18 01:06:00,55.5,48.8,29.66,North,5,0.0,0.0,78,0.00,,---,0.00,VWS V14.01,2013-03-18 06:06:00,
2013-03-18 01:08:00,55.5,48.8,29.66,North,5,0.0,0.0,78,0.00,,---,0.00,VWS V14.01,2013-03-18 06:08:00,
2013-03-18 01:10:00,55.5,48.4,29.66,North,5,0.0,0.0,77,0.00,,---,0.00,VWS V14.01,2013-03-18 06:10:00,
2013-03-18 01:11:00,55.4,48.7,29.67,North,5,0.0,1.0,78,0.00,,---,0.00,VWS V14.01,2013-03-18 06:11:00,
2013-03-18 01:13:00,55.5,48.8,29.66,North,5,0.0,1.0,78,0.00,,---,0.00,VWS V14.01,2013-03-18 06:13:00,
2013-03-18 01:14:00,55.5,48.8,29.67,North,5,0.0,1.0,78,0.00,,---,0.00,VWS V14.01,2013-03-18 06:14:00,
2013-03-18 01:15:00,55.4,48.7,29.67,North,5,0.0,1.0,78,0.00,,---,0.00,VWS V14.01,2013-03-18 06:15:00,
2013-03-18 01:16:00,55.4,49.0,29.67,North,5,0.0,4.0,79,0.00,,---,0.00,VWS V14.01,2013-03-18 06:16:00,
2013-03-18 01:17:00,55.4,48.7,29.67,North,5,3.0,4.0,78,0.00,,---,0.00,VWS V14.01,2013-03-18 06:17:00,
2013-03-18 01:19:00,55.4,49.0,29.67,North,5,0.0,4.0,79,0.00,,---,0.00,VWS V14.01,2013-03-18 06:19:00,
2013-03-18 01:20:00,55.4,49.0,29.67,North,5,0.0,4.0,79,0.00,,---,0.00,VWS V14.01,2013-03-18 06:20:00,
2013-03-18 01:21:00,55.4,49.0,29.69,North,5,0.0,0.0,79,0.00,,---,0.00,VWS V14.01,2013-03-18 06:21:00,
2013-03-18 01:22:00,55.4,49.0,29.67,North,5,0.0,3.0,79,0.00,,---,0.00,VWS V14.01,2013-03-18 06:22:00,
2013-03-18 01:23:00,55.4,49.0,29.68,North,5,0.0,3.0,79,0.00,,---,0.00,VWS V14.01,2013-03-18 06:23:00,
2013-03-18 01:24:00,55.4,49.0,29.68,North,5,0.0,0.0,79,0.00,,---,0.00,VWS V14.01,2013-03-18 06:24:00,
2013-03-18 01:25:00,55.4,49.0,29.68,North,5,0.0,0.0,79,0.00,,---,0.00,VWS V14.01,2013-03-18 06:25:00,
2013-03-18 01:26:00,55.4,49.0,29.68,North,5,0.0,1.0,79,0.00,,---,0.00,VWS V14.01,2013-03-18 06:26:00,
2013-03-18 01:27:00,55.4,49.0,29.69,North,5,0.0,0.0,79,0.00,,---,0.00,VWS V14.01,2013-03-18 06:27:00,
2013-03-18 01:28:00,55.4,49.0,29.69,North,5,0.0,0.0,79,0.00,,---,0.00,VWS V14.01,2013-03-18 06:28:00,
2013-03-18 01:30:00,55.4,49.0,29.69,North,5,0.0,1.0,79,0.00,,---,0.00,VWS V14.01,2013-03-18 06:30:00,
2013-03-18 01:31:00,55.5,48.8,29.65,North,10,0.0,4.0,78,0.00,,---,0.00,VWS V14.01,2013-03-18 06:31:00,
2013-03-18 01:32:00,55.4,49.0,29.67,North,5,4.0,4.0,79,0.00,,---,0.00,VWS V14.01,2013-03-18 06:32:00,
2013-03-18 01:33:00,55.5,49.1,29.67,North,9,0.0,4.0,79,0.00,,---,0.00,VWS V14.01,2013-03-18 06:33:00,
2013-03-18 01:34:00,55.4,49.0,29.65,North,9,0.0,4.0,79,0.00,,---,0.00,VWS V14.01,2013-03-18 06:34:00,
2013-03-18 01:36:00,55.7,49.0,29.65,SSE,155,3.0,6.0,78,0.00,,---,0.00,VWS V14.01,2013-03-18 06:36:00,
2013-03-18 01:38:00,55.5,48.8,29.65,NNE,13,0.0,3.0,78,0.00,,---,0.00,VWS V14.01,2013-03-18 06:38:00,
2013-03-18 01:41:00,56.1,49.3,29.65,SSE,163,0.0,8.0,78,0.00,,---,0.00,VWS V14.01,2013-03-18 06:41:00,
2013-03-18 01:42:00,55.8,49.0,29.65,SSE,157,0.0,6.0,78,0.00,,---,0.00,VWS V14.01,2013-03-18 06:42:00,
2013-03-18 01:43:00,55.8,49.0,29.65,SSE,160,3.0,6.0,78,0.00,,---,0.00,VWS V14.01,2013-03-18 06:43:00,
2013-03-18 01:45:00,56.0,49.2,29.65,SSE,166,7.0,8.0,78,0.00,,---,0.00,VWS V14.01,2013-03-18 06:45:00,
2013-03-18 01:46:00,56.1,49.3,29.65,SSE,163,0.0,8.0,78,0.00,,---,0.00,VWS V14.01,2013-03-18 06:46:00,
2013-03-18 01:47:00,56.6,49.5,29.66,South,182,6.0,12.0,77,0.00,,---,0.00,VWS V14.01,2013-03-18 06:47:00,
2013-03-18 01:48:00,56.3,49.2,29.65,South,176,7.0,12.0,77,0.00,,---,0.00,VWS V14.01,2013-03-18 06:48:00,
2013-03-18 01:50:00,56.5,49.4,29.65,South,181,5.0,12.0,77,0.00,,---,0.00,VWS V14.01,2013-03-18 06:50:00,
2013-03-18 01:51:00,56.6,49.5,29.65,South,181,7.0,12.0,77,0.00,,---,0.00,VWS V14.01,2013-03-18 06:51:00,
2013-03-18 01:52:00,56.9,49.4,29.65,South,177,5.0,9.0,76,0.00,,---,0.00,VWS V14.01,2013-03-18 06:52:00,
2013-03-18 01:54:00,56.8,49.7,29.65,South,177,2.0,9.0,77,0.00,,---,0.00,VWS V14.01,2013-03-18 06:54:00,
2013-03-18 01:56:00,56.9,49.4,29.65,South,176,5.0,9.0,76,0.00,,---,0.00,VWS V14.01,2013-03-18 06:56:00,
2013-03-18 01:57:00,57.2,49.4,29.64,South,169,0.0,6.0,75,0.00,,---,0.00,VWS V14.01,2013-03-18 06:57:00,
2013-03-18 01:58:00,57.0,49.9,29.66,South,179,3.0,6.0,77,0.00,,---,0.00,VWS V14.01,2013-03-18 06:58:00,
2013-03-18 01:59:00,57.1,49.6,29.65,South,178,4.0,6.0,76,0.00,,---,0.00,VWS V14.01,2013-03-18 06:59:00,
2013-03-18 02:01:00,57.2,49.4,29.64,South,169,0.0,6.0,75,0.00,,---,0.00,VWS V14.01,2013-03-18 07:01:00,
2013-03-18 02:02:00,57.6,49.8,29.65,SSE,149,0.0,6.0,75,0.00,,---,0.00,VWS V14.01,2013-03-18 07:02:00,
2013-03-18 02:03:00,57.3,49.5,29.64,South,169,0.0,6.0,75,0.00,,---,0.00,VWS V14.01,2013-03-18 07:03:00,
2013-03-18 02:04:00,57.3,49.5,29.65,South,169,3.0,5.0,75,0.00,,---,0.00,VWS V14.01,2013-03-18 07:04:00,
2013-03-18 02:05:00,57.4,49.5,29.66,South,174,4.0,6.0,75,0.00,,---,0.00,VWS V14.01,2013-03-18 07:05:00,
2013-03-18 02:06:00,57.5,49.7,29.65,SSE,149,3.0,6.0,75,0.00,,---,0.00,VWS V14.01,2013-03-18 07:06:00,
2013-03-18 02:07:00,58.4,49.8,29.64,SSE,148,3.0,7.0,73,0.00,,---,0.00,VWS V14.01,2013-03-18 07:07:00,
2013-03-18 02:09:00,58.0,49.4,29.64,SE,138,2.0,7.0,73,0.00,,---,0.00,VWS V14.01,2013-03-18 07:09:00,
2013-03-18 02:10:00,58.1,49.5,29.64,SE,144,2.0,7.0,73,0.00,,---,0.00,VWS V14.01,2013-03-18 07:10:00,
2013-03-18 02:11:00,58.3,49.7,29.64,SE,146,0.0,7.0,73,0.00,,---,0.00,VWS V14.01,2013-03-18 07:11:00,
2013-03-18 02:12:00,58.9,49.9,29.63,SSE,164,4.0,6.0,72,0.00,,---,0.00,VWS V14.01,2013-03-18 07:12:00,
2013-03-18 02:13:00,58.5,49.5,29.64,SSE,156,0.0,7.0,72,0.00,,---,0.00,VWS V14.01,2013-03-18 07:13:00,
2013-03-18 02:14:00,58.6,49.6,29.64,SSE,157,1.0,6.0,72,0.00,,---,0.00,VWS V14.01,2013-03-18 07:14:00,
2013-03-18 02:15:00,58.7,49.7,29.64,SSE,159,5.0,6.0,72,0.00,,---,0.00,VWS V14.01,2013-03-18 07:15:00,
2013-03-18 02:16:00,58.8,49.8,29.64,SSE,161,2.0,6.0,72,0.00,,---,0.00,VWS V14.01,2013-03-18 07:16:00,
2013-03-18 02:17:00,59.4,50.0,29.64,SSE,163,3.0,13.0,71,0.00,,---,0.00,VWS V14.01,2013-03-18 07:17:00,
2013-03-18 02:18:00,59.0,50.0,29.64,SSE,167,7.0,10.0,72,0.00,,---,0.00,VWS V14.01,2013-03-18 07:18:00,
2013-03-18 02:19:00,59.1,49.7,29.64,South,172,8.0,13.0,71,0.00,,---,0.00,VWS V14.01,2013-03-18 07:19:00,
2013-03-18 02:20:00,59.2,49.8,29.64,SSE,157,5.0,13.0,71,0.00,,---,0.00,VWS V14.01,2013-03-18 07:20:00,
2013-03-18 02:21:00,59.3,49.9,29.64,SSE,163,5.0,13.0,71,0.00,,---,0.00,VWS V14.01,2013-03-18 07:21:00,
2013-03-18 02:22:00,59.8,50.0,29.64,SSE,163,1.0,7.0,70,0.00,,---,0.00,VWS V14.01,2013-03-18 07:22:00,
2013-03-18 02:23:00,59.5,49.7,29.63,SSE,164,6.0,13.0,70,0.00,,---,0.00,VWS V14.01,2013-03-18 07:23:00,
2013-03-18 02:25:00,59.7,49.9,29.64,SSE,164,0.0,9.0,70,0.00,,---,0.00,VWS V14.01,2013-03-18 07:25:00,
2013-03-18 02:26:00,59.8,50.0,29.64,SSE,164,0.0,7.0,70,0.00,,---,0.00,VWS V14.01,2013-03-18 07:26:00,
2013-03-18 02:27:00,60.0,49.8,29.64,SSE,155,0.0,4.0,69,0.00,,---,0.00,VWS V14.01,2013-03-18 07:27:00,
2013-03-18 02:28:00,59.9,50.1,29.63,SSE,156,3.0,7.0,70,0.00,,---,0.00,VWS V14.01,2013-03-18 07:28:00,
2013-03-18 02:29:00,59.9,50.1,29.63,SSE,156,2.0,5.0,70,0.00,,---,0.00,VWS V14.01,2013-03-18 07:29:00,
2013-03-18 02:30:00,60.0,49.8,29.63,SSE,156,0.0,4.0,69,0.00,,---,0.00,VWS V14.01,2013-03-18 07:30:00,
2013-03-18 02:32:00,60.2,50.0,29.63,SSE,154,0.0,4.0,69,0.00,,---,0.00,VWS V14.01,2013-03-18 07:32:00,
2013-03-18 02:33:00,60.1,49.9,29.64,SSE,156,0.0,3.0,69,0.00,,---,0.00,VWS V14.01,2013-03-18 07:33:00,
2013-03-18 02:34:00,60.1,49.9,29.63,SSE,154,0.0,4.0,69,0.00,,---,0.00,VWS V14.01,2013-03-18 07:34:00,
2013-03-18 02:35:00,60.2,50.0,29.63,SSE,154,0.0,4.0,69,0.00,,---,0.00,VWS V14.01,2013-03-18 07:35:00,
2013-03-18 02:36:00,60.2,50.0,29.63,SSE,154,0.0,4.0,69,0.00,,---,0.00,VWS V14.01,2013-03-18 07:36:00,
2013-03-18 02:37:00,60.2,50.0,29.64,SSE,154,0.0,0.0,69,0.00,,---,0.00,VWS V14.01,2013-03-18 07:37:00,
2013-03-18 02:38:00,60.2,50.0,29.63,SSE,154,0.0,4.0,69,0.00,,---,0.00,VWS V14.01,2013-03-18 07:38:00,
2013-03-18 02:39:00,60.2,50.0,29.64,SSE,154,0.0,1.0,69,0.00,,---,0.00,VWS V14.01,2013-03-18 07:39:00,
2013-03-18 02:40:00,60.2,50.0,29.64,SSE,154,0.0,0.0,69,0.00,,---,0.00,VWS V14.01,2013-03-18 07:40:00,
2013-03-18 02:42:00,60.1,49.9,29.64,SSE,154,0.0,0.0,69,0.00,,---,0.00,VWS V14.01,2013-03-18 07:42:00,
2013-03-18 02:43:00,60.2,50.0,29.64,SSE,154,0.0,0.0,69,0.00,,---,0.00,VWS V14.01,2013-03-18 07:43:00,
2013-03-18 02:44:00,60.2,50.0,29.64,SSE,154,0.0,0.0,69,0.00,,---,0.00,VWS V14.01,2013-03-18 07:44:00,
2013-03-18 02:45:00,60.2,50.0,29.64,SSE,154,0.0,0.0,69,0.00,,---,0.00,VWS V14.01,2013-03-18 07:45:00,
2013-03-18 02:47:00,59.8,50.0,29.64,SSE,154,0.0,1.0,70,0.00,,---,0.00,VWS V14.01,2013-03-18 07:47:00,
2013-03-18 02:48:00,60.1,49.9,29.64,SSE,154,0.0,0.0,69,0.00,,---,0.00,VWS V14.01,2013-03-18 07:48:00,
2013-03-18 02:50:00,60.0,49.8,29.64,SSE,154,0.0,1.0,69,0.00,,---,0.00,VWS V14.01,2013-03-18 07:50:00,
2013-03-18 02:51:00,59.9,50.1,29.64,SSE,154,0.0,1.0,70,0.00,,---,0.00,VWS V14.01,2013-03-18 07:51:00,
2013-03-18 02:52:00,59.6,49.8,29.64,SSE,157,2.0,6.0,70,0.00,,---,0.00,VWS V14.01,2013-03-18 07:52:00,
2013-03-18 02:53:00,59.8,50.0,29.64,SSE,154,3.0,5.0,70,0.00,,---,0.00,VWS V14.01,2013-03-18 07:53:00,
2013-03-18 02:54:00,59.8,50.0,29.64,SSE,157,4.0,6.0,70,0.00,,---,0.00,VWS V14.01,2013-03-18 07:54:00,
2013-03-18 02:55:00,59.7,50.7,29.64,SSE,156,2.0,6.0,72,0.00,,---,0.00,VWS V14.01,2013-03-18 07:55:00,
2013-03-18 02:56:00,59.7,49.9,29.64,SSE,157,0.0,6.0,70,0.00,,---,0.00,VWS V14.01,2013-03-18 07:56:00,
2013-03-18 02:57:00,59.4,50.0,29.64,SSE,158,0.0,5.0,71,0.00,,---,0.00,VWS V14.01,2013-03-18 07:57:00,
2013-03-18 02:58:00,59.6,50.2,29.64,SSE,157,3.0,6.0,71,0.00,,---,0.00,VWS V14.01,2013-03-18 07:58:00,
2013-03-18 02:59:00,59.6,50.2,29.64,SSE,157,0.0,5.0,71,0.00,,---,0.00,VWS V14.01,2013-03-18 07:59:00,
2013-03-18 03:00:00,59.5,50.1,29.64,SSE,158,3.0,5.0,71,0.00,,---,0.00,VWS V14.01,2013-03-18 08:00:00,
2013-03-18 03:01:00,59.5,50.1,29.64,SSE,158,0.0,5.0,71,0.00,,---,0.00,VWS V14.01,2013-03-18 08:01:00,
2013-03-18 03:02:00,59.3,50.3,29.64,SSE,157,6.0,6.0,72,0.00,,---,0.00,VWS V14.01,2013-03-18 08:02:00,
2013-03-18 03:03:00,59.4,50.0,29.64,SSE,158,1.0,5.0,71,0.00,,---,0.00,VWS V14.01,2013-03-18 08:03:00,
2013-03-18 03:07:00,59.2,50.2,29.64,SSE,166,4.0,7.0,72,0.00,,---,0.00,VWS V14.01,2013-03-18 08:07:00,
2013-03-18 03:10:00,59.3,50.3,29.64,SSE,163,5.0,6.0,72,0.00,,---,0.00,VWS V14.01,2013-03-18 08:10:00,
2013-03-18 03:12:00,59.2,50.2,29.64,SSE,165,3.0,4.0,72,0.00,,---,0.00,VWS V14.01,2013-03-18 08:12:00,
2013-03-18 03:13:00,59.2,50.2,29.64,SSE,165,2.0,7.0,72,0.00,,---,0.00,VWS V14.01,2013-03-18 08:13:00,
2013-03-18 03:14:00,59.2,50.2,29.64,SSE,165,0.0,7.0,72,0.00,,---,0.00,VWS V14.01,2013-03-18 08:14:00,
2013-03-18 03:15:00,59.2,50.2,29.64,SSE,165,2.0,7.0,72,0.00,,---,0.00,VWS V14.01,2013-03-18 08:15:00,
2013-03-18 03:17:00,59.1,49.7,29.65,SSE,165,3.0,5.0,71,0.00,,---,0.00,VWS V14.01,2013-03-18 08:17:00,
2013-03-18 03:18:00,59.1,50.1,29.64,SSE,165,4.0,4.0,72,0.00,,---,0.00,VWS V14.01,2013-03-18 08:18:00,
2013-03-18 03:19:00,59.1,50.1,29.64,SSE,165,1.0,4.0,72,0.00,,---,0.00,VWS V14.01,2013-03-18 08:19:00,
2013-03-18 03:21:00,59.1,49.7,29.64,SSE,165,0.0,5.0,71,0.00,,---,0.00,VWS V14.01,2013-03-18 08:21:00,
2013-03-18 03:22:00,58.8,49.8,29.65,SSE,167,1.0,4.0,72,0.00,,---,0.00,VWS V14.01,2013-03-18 08:22:00,
2013-03-18 03:23:00,59.0,49.6,29.65,SSE,165,3.0,5.0,71,0.00,,---,0.00,VWS V14.01,2013-03-18 08:23:00,
2013-03-18 03:24:00,59.0,49.6,29.65,SSE,165,3.0,5.0,71,0.00,,---,0.00,VWS V14.01,2013-03-18 08:24:00,
2013-03-18 03:25:00,58.9,49.5,29.64,SSE,166,3.0,5.0,71,0.00,,---,0.00,VWS V14.01,2013-03-18 08:25:00,
2013-03-18 03:26:00,58.9,49.9,29.65,SSE,166,3.0,4.0,72,0.00,,---,0.00,VWS V14.01,2013-03-18 08:26:00,
2013-03-18 03:27:00,58.6,50.0,29.65,South,169,0.0,5.0,73,0.00,,---,0.00,VWS V14.01,2013-03-18 08:27:00,
2013-03-18 03:29:00,58.7,49.7,29.65,SSE,167,4.0,5.0,72,0.00,,---,0.00,VWS V14.01,2013-03-18 08:29:00,
2013-03-18 03:30:00,58.6,49.6,29.65,South,169,2.0,5.0,72,0.00,,---,0.00,VWS V14.01,2013-03-18 08:30:00,
2013-03-18 03:31:00,58.6,49.6,29.65,South,169,1.0,5.0,72,0.00,,---,0.00,VWS V14.01,2013-03-18 08:31:00,
2013-03-18 03:32:00,58.4,49.8,29.65,South,169,6.0,6.0,73,0.00,,---,0.00,VWS V14.01,2013-03-18 08:32:00,
2013-03-18 03:33:00,58.5,49.9,29.65,South,169,3.0,5.0,73,0.00,,---,0.00,VWS V14.01,2013-03-18 08:33:00,
2013-03-18 03:35:00,58.5,49.9,29.65,South,169,3.0,4.0,73,0.00,,---,0.00,VWS V14.01,2013-03-18 08:35:00,
2013-03-18 03:36:00,58.4,49.8,29.65,South,169,4.0,5.0,73,0.00,,---,0.00,VWS V14.01,2013-03-18 08:36:00,
2013-03-18 03:37:00,58.3,50.1,29.65,South,173,5.0,6.0,74,0.00,,---,0.00,VWS V14.01,2013-03-18 08:37:00,
2013-03-18 03:38:00,58.4,49.8,29.65,South,169,6.0,6.0,73,0.00,,---,0.00,VWS V14.01,2013-03-18 08:38:00,
2013-03-18 03:39:00,58.3,50.1,29.65,South,170,5.0,6.0,74,0.00,,---,0.00,VWS V14.01,2013-03-18 08:39:00,
2013-03-18 03:40:00,58.3,50.1,29.65,South,170,5.0,6.0,74,0.00,,---,0.00,VWS V14.01,2013-03-18 08:40:00,
2013-03-18 03:41:00,58.3,50.1,29.65,South,170,4.0,6.0,74,0.00,,---,0.00,VWS V14.01,2013-03-18 08:41:00,
2013-03-18 03:42:00,58.3,50.1,29.65,South,171,5.0,5.0,74,0.00,,---,0.00,VWS V14.01,2013-03-18 08:42:00,
2013-03-18 03:44:00,58.3,50.1,29.65,South,173,5.0,6.0,74,0.00,,---,0.00,VWS V14.01,2013-03-18 08:44:00,
2013-03-18 03:45:00,58.2,50.0,29.65,South,173,2.0,6.0,74,0.00,,---,0.00,VWS V14.01,2013-03-18 08:45:00,
2013-03-18 03:46:00,58.3,50.1,29.65,South,172,5.0,6.0,74,0.00,,---,0.00,VWS V14.01,2013-03-18 08:46:00,
2013-03-18 03:47:00,58.4,50.2,29.65,SSE,163,0.0,6.0,74,0.00,,---,0.00,VWS V14.01,2013-03-18 08:47:00,
2013-03-18 03:48:00,58.3,50.1,29.65,South,171,4.0,5.0,74,0.00,,---,0.00,VWS V14.01,2013-03-18 08:48:00,
2013-03-18 03:49:00,58.3,50.1,29.65,SSE,167,3.0,5.0,74,0.00,,---,0.00,VWS V14.01,2013-03-18 08:49:00,
2013-03-18 03:50:00,58.3,50.1,29.65,SSE,165,4.0,5.0,74,0.00,,---,0.00,VWS V14.01,2013-03-18 08:50:00,
2013-03-18 03:51:00,58.3,50.1,29.65,SSE,163,3.0,6.0,74,0.00,,---,0.00,VWS V14.01,2013-03-18 08:51:00,
2013-03-18 03:52:00,58.5,50.2,29.64,SSE,163,4.0,7.0,74,0.00,,---,0.00,VWS V14.01,2013-03-18 08:52:00,
2013-03-18 03:53:00,58.4,50.2,29.65,SSE,163,2.0,7.0,74,0.00,,---,0.00,VWS V14.01,2013-03-18 08:53:00,
2013-03-18 03:55:00,58.5,50.2,29.64,SSE,163,0.0,7.0,74,0.00,,---,0.00,VWS V14.01,2013-03-18 08:55:00,
2013-03-18 03:56:00,58.5,50.2,29.64,SSE,163,4.0,7.0,74,0.00,,---,0.00,VWS V14.01,2013-03-18 08:56:00,
2013-03-18 03:57:00,58.6,50.3,29.64,SSE,163,3.0,6.0,74,0.00,,---,0.00,VWS V14.01,2013-03-18 08:57:00,
2013-03-18 03:58:00,58.6,50.3,29.64,SSE,163,3.0,6.0,74,0.00,,---,0.00,VWS V14.01,2013-03-18 08:58:00,
2013-03-18 03:59:00,58.6,50.0,29.64,SSE,162,3.0,6.0,73,0.00,,---,0.00,VWS V14.01,2013-03-18 08:59:00,
2013-03-18 04:00:00,58.6,50.0,29.65,SSE,162,5.0,6.0,73,0.00,,---,0.00,VWS V14.01,2013-03-18 09:00:00,
2013-03-18 04:01:00,58.6,50.3,29.64,SSE,162,3.0,6.0,74,0.00,,---,0.00,VWS V14.01,2013-03-18 09:01:00,
2013-03-18 04:02:00,58.5,50.2,29.64,SSE,163,4.0,6.0,74,0.00,,---,0.00,VWS V14.01,2013-03-18 09:02:00,
2013-03-18 04:03:00,58.6,50.0,29.64,SSE,162,0.0,6.0,73,0.00,,---,0.00,VWS V14.01,2013-03-18 09:03:00,
2013-03-18 04:04:00,58.6,50.0,29.64,SSE,163,2.0,5.0,73,0.00,,---,0.00,VWS V14.01,2013-03-18 09:04:00,
2013-03-18 04:05:00,58.5,49.9,29.64,SSE,163,5.0,6.0,73,0.00,,---,0.00,VWS V14.01,2013-03-18 09:05:00,
2013-03-18 04:06:00,58.5,49.9,29.64,SSE,163,2.0,6.0,73,0.00,,---,0.00,VWS V14.01,2013-03-18 09:06:00,
2013-03-18 04:07:00,58.3,50.1,29.64,SSE,163,3.0,5.0,74,0.00,,---,0.00,VWS V14.01,2013-03-18 09:07:00,
2013-03-18 04:08:00,58.4,50.2,29.64,SSE,163,4.0,6.0,74,0.00,,---,0.00,VWS V14.01,2013-03-18 09:08:00,
2013-03-18 04:09:00,58.4,50.2,29.64,SSE,163,2.0,6.0,74,0.00,,---,0.00,VWS V14.01,2013-03-18 09:09:00,
2013-03-18 04:10:00,58.4,50.2,29.64,SSE,163,1.0,5.0,74,0.00,,---,0.00,VWS V14.01,2013-03-18 09:10:00,
2013-03-18 04:11:00,58.3,50.1,29.64,SSE,163,0.0,5.0,74,0.00,,---,0.00,VWS V14.01,2013-03-18 09:11:00,
2013-03-18 04:12:00,58.2,50.0,29.64,SSE,163,3.0,5.0,74,0.00,,---,0.00,VWS V14.01,2013-03-18 09:12:00,
2013-03-18 04:13:00,58.2,50.0,29.64,SSE,163,3.0,5.0,74,0.00,,---,0.00,VWS V14.01,2013-03-18 09:13:00,
2013-03-18 04:14:00,58.2,50.0,29.64,SSE,163,0.0,5.0,74,0.00,,---,0.00,VWS V14.01,2013-03-18 09:14:00,
2013-03-18 04:15:00,58.2,50.3,29.64,SSE,163,2.0,5.0,75,0.00,,---,0.00,VWS V14.01,2013-03-18 09:15:00,
2013-03-18 04:16:00,58.2,50.0,29.64,SSE,163,3.0,5.0,74,0.00,,---,0.00,VWS V14.01,2013-03-18 09:16:00,
2013-03-18 04:17:00,58.2,50.3,29.64,SSE,163,0.0,5.0,75,0.00,,---,0.00,VWS V14.01,2013-03-18 09:17:00,
2013-03-18 04:18:00,58.1,49.9,29.64,SSE,163,3.0,5.0,74,0.00,,---,0.00,VWS V14.01,2013-03-18 09:18:00,
2013-03-18 04:19:00,58.1,50.2,29.64,SSE,162,0.0,5.0,75,0.00,,---,0.00,VWS V14.01,2013-03-18 09:19:00,
2013-03-18 04:20:00,58.2,50.3,29.64,SSE,162,3.0,5.0,75,0.00,,---,0.00,VWS V14.01,2013-03-18 09:20:00,
2013-03-18 04:21:00,58.1,50.2,29.64,SSE,163,2.0,5.0,75,0.00,,---,0.00,VWS V14.01,2013-03-18 09:21:00,
2013-03-18 04:22:00,58.2,50.3,29.63,SSE,163,2.0,5.0,75,0.00,,---,0.00,VWS V14.01,2013-03-18 09:22:00,
2013-03-18 04:23:00,58.2,50.3,29.64,SSE,163,3.0,5.0,75,0.00,,---,0.00,VWS V14.01,2013-03-18 09:23:00,
2013-03-18 04:24:00,58.2,50.3,29.63,SSE,163,0.0,5.0,75,0.00,,---,0.00,VWS V14.01,2013-03-18 09:24:00,
2013-03-18 04:25:00,58.2,50.3,29.64,SSE,162,5.0,5.0,75,0.00,,---,0.00,VWS V14.01,2013-03-18 09:25:00,
2013-03-18 04:26:00,58.2,50.3,29.64,SSE,163,2.0,5.0,75,0.00,,---,0.00,VWS V14.01,2013-03-18 09:26:00,
2013-03-18 04:27:00,58.2,50.3,29.63,SSE,161,4.0,6.0,75,0.00,,---,0.00,VWS V14.01,2013-03-18 09:27:00,
2013-03-18 04:28:00,58.2,50.3,29.63,SSE,163,1.0,5.0,75,0.00,,---,0.00,VWS V14.01,2013-03-18 09:28:00,
2013-03-18 04:29:00,58.2,50.3,29.63,SSE,162,6.0,6.0,75,0.00,,---,0.00,VWS V14.01,2013-03-18 09:29:00,
2013-03-18 04:30:00,58.2,50.3,29.63,SSE,163,3.0,6.0,75,0.00,,---,0.00,VWS V14.01,2013-03-18 09:30:00,
2013-03-18 04:31:00,58.2,50.3,29.63,SSE,161,1.0,6.0,75,0.00,,---,0.00,VWS V14.01,2013-03-18 09:31:00,
2013-03-18 04:32:00,58.2,50.3,29.63,SSE,158,3.0,6.0,75,0.00,,---,0.00,VWS V14.01,2013-03-18 09:32:00,
2013-03-18 04:33:00,58.2,50.3,29.63,SSE,159,3.0,6.0,75,0.00,,---,0.00,VWS V14.01,2013-03-18 09:33:00,
2013-03-18 04:34:00,58.2,50.3,29.63,SSE,158,3.0,6.0,75,0.00,,---,0.00,VWS V14.01,2013-03-18 09:34:00,
2013-03-18 04:35:00,58.2,50.3,29.63,SSE,157,3.0,6.0,75,0.00,,---,0.00,VWS V14.01,2013-03-18 09:35:00,
2013-03-18 04:36:00,58.2,50.3,29.63,SSE,157,2.0,6.0,75,0.00,,---,0.00,VWS V14.01,2013-03-18 09:36:00,
2013-03-18 04:37:00,58.1,50.2,29.63,SSE,159,3.0,5.0,75,0.00,,---,0.00,VWS V14.01,2013-03-18 09:37:00,
2013-03-18 04:38:00,58.2,50.3,29.63,SSE,158,0.0,6.0,75,0.00,,---,0.00,VWS V14.01,2013-03-18 09:38:00,
2013-03-18 04:39:00,58.2,50.3,29.63,SSE,158,4.0,6.0,75,0.00,,---,0.00,VWS V14.01,2013-03-18 09:39:00,
2013-03-18 04:40:00,58.2,50.3,29.63,SSE,158,4.0,6.0,75,0.00,,---,0.00,VWS V14.01,2013-03-18 09:40:00,
2013-03-18 04:41:00,58.1,50.2,29.63,SSE,159,3.0,5.0,75,0.00,,---,0.00,VWS V14.01,2013-03-18 09:41:00,
2013-03-18 04:42:00,57.9,50.0,29.62,SSE,159,0.0,4.0,75,0.00,,---,0.00,VWS V14.01,2013-03-18 09:42:00,
2013-03-18 04:43:00,58.1,50.2,29.63,SSE,159,0.0,5.0,75,0.00,,---,0.00,VWS V14.01,2013-03-18 09:43:00,
2013-03-18 04:44:00,58.0,50.1,29.63,SSE,159,2.0,5.0,75,0.00,,---,0.00,VWS V14.01,2013-03-18 09:44:00,
2013-03-18 04:45:00,58.0,50.1,29.63,SSE,159,2.0,5.0,75,0.00,,---,0.00,VWS V14.01,2013-03-18 09:45:00,
2013-03-18 04:46:00,57.9,50.0,29.62,SSE,159,2.0,5.0,75,0.00,,---,0.00,VWS V14.01,2013-03-18 09:46:00,
2013-03-18 04:47:00,57.6,50.1,29.62,SSE,159,2.0,5.0,76,0.00,,---,0.00,VWS V14.01,2013-03-18 09:47:00,
2013-03-18 04:48:00,57.8,49.9,29.62,SSE,159,2.0,4.0,75,0.00,,---,0.00,VWS V14.01,2013-03-18 09:48:00,
2013-03-18 04:49:00,57.8,49.9,29.62,SSE,159,3.0,4.0,75,0.00,,---,0.00,VWS V14.01,2013-03-18 09:49:00,
2013-03-18 04:50:00,57.7,50.2,29.62,SSE,159,4.0,4.0,76,0.00,,---,0.00,VWS V14.01,2013-03-18 09:50:00,
2013-03-18 04:51:00,57.7,50.2,29.62,SSE,159,5.0,5.0,76,0.00,,---,0.00,VWS V14.01,2013-03-18 09:51:00,
2013-03-18 04:52:00,57.4,50.3,29.62,SSE,160,4.0,6.0,77,0.00,,---,0.00,VWS V14.01,2013-03-18 09:52:00,
2013-03-18 04:53:00,57.6,50.1,29.62,SSE,159,2.0,5.0,76,0.00,,---,0.00,VWS V14.01,2013-03-18 09:53:00,
2013-03-18 04:54:00,57.5,50.0,29.62,SSE,159,4.0,5.0,76,0.00,,---,0.00,VWS V14.01,2013-03-18 09:54:00,
2013-03-18 04:55:00,57.5,50.0,29.62,SSE,160,6.0,6.0,76,0.00,,---,0.00,VWS V14.01,2013-03-18 09:55:00,
2013-03-18 04:56:00,57.5,50.4,29.62,SSE,160,4.0,6.0,77,0.00,,---,0.00,VWS V14.01,2013-03-18 09:56:00,
2013-03-18 04:57:00,57.2,50.4,29.62,SSE,160,1.0,5.0,78,0.00,,---,0.00,VWS V14.01,2013-03-18 09:57:00,
2013-03-18 04:58:00,57.3,50.2,29.62,SSE,160,5.0,6.0,77,0.00,,---,0.00,VWS V14.01,2013-03-18 09:58:00,
2013-03-18 04:59:00,57.3,50.2,29.62,SSE,160,5.0,6.0,77,0.00,,---,0.00,VWS V14.01,2013-03-18 09:59:00,
2013-03-18 05:00:00,57.3,50.2,29.62,SSE,160,3.0,6.0,77,0.00,,---,0.00,VWS V14.01,2013-03-18 10:00:00,
2013-03-18 05:01:00,57.2,50.1,29.62,SSE,160,1.0,5.0,77,0.00,,---,0.00,VWS V14.01,2013-03-18 10:01:00,
2013-03-18 05:02:00,57.2,50.4,29.62,SSE,159,3.0,6.0,78,0.00,,---,0.00,VWS V14.01,2013-03-18 10:02:00,
2013-03-18 05:03:00,57.2,50.4,29.62,SSE,160,3.0,5.0,78,0.00,,---,0.00,VWS V14.01,2013-03-18 10:03:00,
2013-03-18 05:04:00,57.2,50.4,29.62,SSE,158,2.0,5.0,78,0.00,,---,0.00,VWS V14.01,2013-03-18 10:04:00,
2013-03-18 05:05:00,57.2,50.4,29.62,SSE,158,5.0,5.0,78,0.00,,---,0.00,VWS V14.01,2013-03-18 10:05:00,
2013-03-18 05:06:00,57.2,50.4,29.62,SSE,159,5.0,5.0,78,0.00,,---,0.00,VWS V14.01,2013-03-18 10:06:00,
2013-03-18 05:07:00,57.2,50.4,29.62,SSE,160,4.0,5.0,78,0.00,,---,0.00,VWS V14.01,2013-03-18 10:07:00,
2013-03-18 05:08:00,57.2,50.4,29.62,SSE,160,3.0,6.0,78,0.00,,---,0.00,VWS V14.01,2013-03-18 10:08:00,
2013-03-18 05:10:00,57.2,50.4,29.62,SSE,160,2.0,6.0,78,0.00,,---,0.00,VWS V14.01,2013-03-18 10:10:00,
2013-03-18 05:11:00,57.2,50.4,29.62,SSE,160,3.0,6.0,78,0.00,,---,0.00,VWS V14.01,2013-03-18 10:11:00,
2013-03-18 05:12:00,57.1,50.3,29.62,SSE,161,5.0,6.0,78,0.00,,---,0.00,VWS V14.01,2013-03-18 10:12:00,
2013-03-18 05:13:00,57.2,50.4,29.62,SSE,160,2.0,5.0,78,0.00,,---,0.00,VWS V14.01,2013-03-18 10:13:00,
2013-03-18 05:14:00,57.2,50.4,29.62,SSE,160,3.0,5.0,78,0.00,,---,0.00,VWS V14.01,2013-03-18 10:14:00,
2013-03-18 05:15:00,57.1,50.3,29.62,SSE,160,2.0,5.0,78,0.00,,---,0.00,VWS V14.01,2013-03-18 10:15:00,
2013-03-18 05:16:00,57.1,50.3,29.62,SSE,161,2.0,6.0,78,0.00,,---,0.00,VWS V14.01,2013-03-18 10:16:00,
2013-03-18 05:17:00,57.1,50.7,29.62,SSE,161,5.0,6.0,79,0.00,,---,0.00,VWS V14.01,2013-03-18 10:17:00,
2013-03-18 05:18:00,57.1,50.7,29.62,SSE,161,5.0,6.0,79,0.00,,---,0.00,VWS V14.01,2013-03-18 10:18:00,
2013-03-18 05:19:00,57.1,50.7,29.62,SSE,161,5.0,6.0,79,0.00,,---,0.00,VWS V14.01,2013-03-18 10:19:00,
2013-03-18 05:20:00,57.1,50.7,29.62,SSE,161,4.0,6.0,79,0.00,,---,0.00,VWS V14.01,2013-03-18 10:20:00,
2013-03-18 05:21:00,57.1,50.7,29.62,SSE,161,4.0,6.0,79,0.00,,---,0.00,VWS V14.01,2013-03-18 10:21:00,
2013-03-18 05:22:00,57.0,50.6,29.62,SSE,162,4.0,6.0,79,0.00,,---,0.00,VWS V14.01,2013-03-18 10:22:00,
2013-03-18 05:23:00,57.1,50.7,29.62,SSE,161,5.0,6.0,79,0.00,,---,0.00,VWS V14.01,2013-03-18 10:23:00,
2013-03-18 05:24:00,57.1,50.7,29.62,SSE,161,5.0,6.0,79,0.00,,---,0.00,VWS V14.01,2013-03-18 10:24:00,
2013-03-18 05:25:00,57.0,50.6,29.62,SSE,161,5.0,6.0,79,0.00,,---,0.00,VWS V14.01,2013-03-18 10:25:00,
2013-03-18 05:26:00,57.1,50.7,29.62,SSE,161,2.0,6.0,79,0.00,,---,0.00,VWS V14.01,2013-03-18 10:26:00,
2013-03-18 05:27:00,57.0,50.6,29.62,SSE,164,7.0,7.0,79,0.00,,---,0.00,VWS V14.01,2013-03-18 10:27:00,
2013-03-18 05:28:00,57.0,50.6,29.62,SSE,162,4.0,6.0,79,0.00,,---,0.00,VWS V14.01,2013-03-18 10:28:00,
2013-03-18 05:29:00,57.0,50.6,29.62,SSE,163,5.0,6.0,79,0.00,,---,0.00,VWS V14.01,2013-03-18 10:29:00,
2013-03-18 05:30:00,57.0,50.6,29.61,SSE,162,4.0,6.0,79,0.00,,---,0.00,VWS V14.01,2013-03-18 10:30:00,
2013-03-18 05:31:00,57.0,50.6,29.62,SSE,163,6.0,6.0,79,0.00,,---,0.00,VWS V14.01,2013-03-18 10:31:00,
2013-03-18 05:32:00,57.2,51.1,29.61,SSE,167,7.0,9.0,80,0.00,,---,0.00,VWS V14.01,2013-03-18 10:32:00,
2013-03-18 05:33:00,57.1,51.0,29.62,SSE,164,5.0,7.0,80,0.00,,---,0.00,VWS V14.01,2013-03-18 10:33:00,
2013-03-18 05:36:00,57.1,51.0,29.62,SSE,165,5.0,7.0,80,0.00,,---,0.00,VWS V14.01,2013-03-18 10:36:00,
2013-03-18 05:37:00,57.4,51.3,29.61,South,171,5.0,9.0,80,0.00,,---,0.00,VWS V14.01,2013-03-18 10:37:00,
2013-03-18 05:38:00,57.2,51.1,29.61,SSE,163,6.0,9.0,80,0.00,,---,0.00,VWS V14.01,2013-03-18 10:38:00,
2013-03-18 05:39:00,57.3,51.2,29.62,SSE,163,4.0,9.0,80,0.00,,---,0.00,VWS V14.01,2013-03-18 10:39:00,
2013-03-18 05:40:00,57.3,51.2,29.61,SSE,166,7.0,9.0,80,0.00,,---,0.00,VWS V14.01,2013-03-18 10:40:00,
2013-03-18 05:41:00,57.3,51.2,29.62,South,169,7.0,9.0,80,0.00,,---,0.00,VWS V14.01,2013-03-18 10:41:00,
2013-03-18 05:43:00,57.8,52.0,29.62,South,171,8.0,11.0,81,0.00,,---,0.00,VWS V14.01,2013-03-18 10:43:00,
2013-03-18 05:44:00,57.5,51.7,29.61,South,169,7.0,11.0,81,0.00,,---,0.00,VWS V14.01,2013-03-18 10:44:00,
2013-03-18 05:45:00,57.6,51.8,29.62,South,169,5.0,11.0,81,0.00,,---,0.00,VWS V14.01,2013-03-18 10:45:00,
2013-03-18 05:46:00,57.7,51.9,29.62,South,172,6.0,11.0,81,0.00,,---,0.00,VWS V14.01,2013-03-18 10:46:00,
2013-03-18 05:47:00,57.7,51.9,29.62,South,171,7.0,11.0,81,0.00,,---,0.00,VWS V14.01,2013-03-18 10:47:00,
2013-03-18 05:48:00,58.0,52.2,29.62,South,171,6.0,11.0,81,0.00,,---,0.00,VWS V14.01,2013-03-18 10:48:00,
2013-03-18 05:49:00,57.9,52.1,29.62,South,171,6.0,10.0,81,0.00,,---,0.00,VWS V14.01,2013-03-18 10:49:00,
2013-03-18 05:50:00,57.9,52.1,29.62,South,172,7.0,10.0,81,0.00,,---,0.00,VWS V14.01,2013-03-18 10:50:00,
2013-03-18 05:51:00,58.0,52.2,29.62,South,170,9.0,9.0,81,0.00,,---,0.00,VWS V14.01,2013-03-18 10:51:00,
2013-03-18 05:53:00,58.3,52.8,29.62,South,173,6.0,9.0,82,0.00,,---,0.00,VWS V14.01,2013-03-18 10:53:00,
2013-03-18 05:54:00,58.1,52.3,29.62,South,171,5.0,11.0,81,0.00,,---,0.00,VWS V14.01,2013-03-18 10:54:00,
2013-03-18 05:55:00,58.2,52.7,29.62,South,175,4.0,11.0,82,0.00,,---,0.00,VWS V14.01,2013-03-18 10:55:00,
2013-03-18 05:56:00,58.2,52.7,29.62,South,173,8.0,11.0,82,0.00,,---,0.00,VWS V14.01,2013-03-18 10:56:00,
2013-03-18 05:57:00,58.3,52.8,29.62,South,173,6.0,9.0,82,0.00,,---,0.00,VWS V14.01,2013-03-18 10:57:00,
2013-03-18 05:58:00,58.5,53.0,29.62,South,172,6.0,9.0,82,0.00,,---,0.00,VWS V14.01,2013-03-18 10:58:00,
2013-03-18 05:59:00,58.4,52.9,29.62,South,173,6.0,8.0,82,0.00,,---,0.00,VWS V14.01,2013-03-18 10:59:00,
2013-03-18 06:00:00,58.4,52.9,29.62,South,173,5.0,8.0,82,0.00,,---,0.00,VWS V14.01,2013-03-18 11:00:00,
2013-03-18 06:01:00,58.4,52.9,29.62,South,173,6.0,8.0,82,0.00,,---,0.00,VWS V14.01,2013-03-18 11:01:00,
2013-03-18 06:02:00,58.5,53.0,29.62,South,172,5.0,9.0,82,0.00,,---,0.00,VWS V14.01,2013-03-18 11:02:00,
2013-03-18 06:03:00,58.5,53.0,29.62,South,172,5.0,7.0,82,0.00,,---,0.00,VWS V14.01,2013-03-18 11:03:00,
2013-03-18 06:04:00,58.5,53.0,29.62,South,172,5.0,9.0,82,0.00,,---,0.00,VWS V14.01,2013-03-18 11:04:00,
2013-03-18 06:05:00,58.5,53.0,29.62,South,172,4.0,9.0,82,0.00,,---,0.00,VWS V14.01,2013-03-18 11:05:00,
2013-03-18 06:07:00,58.5,53.0,29.62,South,172,6.0,7.0,82,0.00,,---,0.00,VWS V14.01,2013-03-18 11:07:00,
2013-03-18 06:08:00,58.6,53.8,29.61,South,175,7.0,7.0,84,0.00,,---,0.00,VWS V14.01,2013-03-18 11:08:00,
2013-03-18 06:09:00,58.5,53.4,29.61,South,175,6.0,7.0,83,0.00,,---,0.00,VWS V14.01,2013-03-18 11:09:00,
2013-03-18 06:10:00,58.5,53.4,29.61,South,174,5.0,7.0,83,0.00,,---,0.00,VWS V14.01,2013-03-18 11:10:00,
2013-03-18 06:11:00,58.5,53.4,29.62,South,174,4.0,7.0,83,0.00,,---,0.00,VWS V14.01,2013-03-18 11:11:00,
2013-03-18 06:12:00,58.6,53.8,29.62,South,176,6.0,7.0,84,0.00,,---,0.00,VWS V14.01,2013-03-18 11:12:00,
2013-03-18 06:13:00,58.8,54.3,29.61,South,173,9.0,11.0,85,0.00,,---,0.00,VWS V14.01,2013-03-18 11:13:00,
2013-03-18 06:15:00,58.7,54.5,29.62,South,178,4.0,10.0,86,0.00,,---,0.00,VWS V14.01,2013-03-18 11:15:00,
2013-03-18 06:16:00,58.8,54.3,29.62,South,177,5.0,10.0,85,0.00,,---,0.00,VWS V14.01,2013-03-18 11:16:00,
2013-03-18 06:17:00,58.8,54.3,29.62,South,173,5.0,11.0,85,0.00,,---,0.00,VWS V14.01,2013-03-18 11:17:00,
2013-03-18 06:18:00,59.1,54.9,29.61,South,177,4.0,10.0,86,0.00,,---,0.00,VWS V14.01,2013-03-18 11:18:00,
2013-03-18 06:19:00,58.9,54.4,29.61,South,173,6.0,11.0,85,0.00,,---,0.00,VWS V14.01,2013-03-18 11:19:00,
2013-03-18 06:20:00,58.9,54.4,29.62,South,175,10.0,11.0,85,0.00,,---,0.00,VWS V14.01,2013-03-18 11:20:00,
2013-03-18 06:21:00,59.0,54.8,29.61,South,176,4.0,11.0,86,0.00,,---,0.00,VWS V14.01,2013-03-18 11:21:00,
2013-03-18 06:22:00,59.1,54.9,29.61,South,176,6.0,10.0,86,0.00,,---,0.00,VWS V14.01,2013-03-18 11:22:00,
2013-03-18 06:23:00,59.3,55.1,29.62,South,177,3.0,6.0,86,0.00,,---,0.00,VWS V14.01,2013-03-18 11:23:00,
2013-03-18 06:24:00,59.1,54.9,29.61,South,176,5.0,10.0,86,0.00,,---,0.00,VWS V14.01,2013-03-18 11:24:00,
2013-03-18 06:25:00,59.2,55.0,29.61,South,176,5.0,10.0,86,0.00,,---,0.00,VWS V14.01,2013-03-18 11:25:00,
2013-03-18 06:26:00,59.2,55.0,29.61,South,177,6.0,6.0,86,0.00,,---,0.00,VWS V14.01,2013-03-18 11:26:00,
2013-03-18 06:27:00,59.3,55.1,29.61,South,177,4.0,6.0,86,0.00,,---,0.00,VWS V14.01,2013-03-18 11:27:00,
2013-03-18 06:28:00,59.3,55.1,29.61,South,178,4.0,6.0,86,0.00,,---,0.00,VWS V14.01,2013-03-18 11:28:00,
2013-03-18 06:29:00,59.3,55.1,29.62,South,178,4.0,6.0,86,0.00,,---,0.00,VWS V14.01,2013-03-18 11:29:00,
2013-03-18 06:30:00,59.3,55.1,29.62,South,178,3.0,6.0,86,0.00,,---,0.00,VWS V14.01,2013-03-18 11:30:00,
2013-03-18 06:31:00,59.3,55.1,29.62,South,178,4.0,5.0,86,0.00,,---,0.00,VWS V14.01,2013-03-18 11:31:00,
2013-03-18 06:32:00,59.3,55.1,29.61,South,178,6.0,6.0,86,0.00,,---,0.00,VWS V14.01,2013-03-18 11:32:00,
2013-03-18 06:33:00,59.4,55.5,29.63,South,183,5.0,6.0,87,0.00,,---,0.00,VWS V14.01,2013-03-18 11:33:00,
2013-03-18 06:34:00,59.4,55.2,29.62,South,180,5.0,6.0,86,0.00,,---,0.00,VWS V14.01,2013-03-18 11:34:00,
2013-03-18 06:35:00,59.4,55.5,29.62,South,181,4.0,6.0,87,0.00,,---,0.00,VWS V14.01,2013-03-18 11:35:00,
2013-03-18 06:36:00,59.4,55.5,29.62,South,181,3.0,6.0,87,0.00,,---,0.00,VWS V14.01,2013-03-18 11:36:00,
2013-03-18 06:37:00,59.5,55.6,29.62,South,182,4.0,6.0,87,0.00,,---,0.00,VWS V14.01,2013-03-18 11:37:00,
2013-03-18 06:38:00,59.5,55.6,29.63,South,188,4.0,6.0,87,0.00,,---,0.00,VWS V14.01,2013-03-18 11:38:00,
2013-03-18 06:39:00,59.5,56.0,29.63,South,185,5.0,6.0,88,0.00,,---,0.00,VWS V14.01,2013-03-18 11:39:00,
2013-03-18 06:40:00,59.5,56.0,29.63,South,186,5.0,6.0,88,0.00,,---,0.00,VWS V14.01,2013-03-18 11:40:00,
2013-03-18 06:41:00,59.5,55.6,29.63,South,187,5.0,6.0,87,0.00,,---,0.00,VWS V14.01,2013-03-18 11:41:00,
2013-03-18 06:42:00,59.5,55.6,29.63,South,187,5.0,6.0,87,0.00,,---,0.00,VWS V14.01,2013-03-18 11:42:00,
2013-03-18 06:43:00,59.5,56.0,29.63,South,188,4.0,5.0,88,0.00,,---,0.00,VWS V14.01,2013-03-18 11:43:00,
2013-03-18 06:44:00,59.5,56.0,29.63,South,188,2.0,6.0,88,0.00,,---,0.00,VWS V14.01,2013-03-18 11:44:00,
2013-03-18 06:45:00,59.5,56.0,29.63,South,188,3.0,6.0,88,0.00,,---,0.00,VWS V14.01,2013-03-18 11:45:00,
2013-03-18 06:46:00,59.5,56.0,29.63,South,188,4.0,6.0,88,0.00,,---,0.00,VWS V14.01,2013-03-18 11:46:00,
2013-03-18 06:47:00,59.6,56.0,29.63,South,188,3.0,6.0,88,0.00,,---,0.00,VWS V14.01,2013-03-18 11:47:00,
2013-03-18 06:48:00,59.6,56.4,29.63,South,189,6.0,8.0,89,0.00,,---,0.00,VWS V14.01,2013-03-18 11:48:00,
2013-03-18 06:49:00,59.6,56.0,29.63,South,189,3.0,8.0,88,0.00,,---,0.00,VWS V14.01,2013-03-18 11:49:00,
2013-03-18 06:50:00,59.6,56.0,29.63,South,190,5.0,8.0,88,0.00,,---,0.00,VWS V14.01,2013-03-18 11:50:00,
2013-03-18 06:51:00,59.6,56.4,29.63,South,189,5.0,8.0,89,0.00,,---,0.00,VWS V14.01,2013-03-18 11:51:00,
2013-03-18 06:52:00,59.6,56.4,29.63,South,189,3.0,8.0,89,0.00,,---,0.00,VWS V14.01,2013-03-18 11:52:00,
2013-03-18 06:53:00,60.0,57.1,29.65,South,190,5.0,8.0,90,0.00,,---,0.00,VWS V14.01,2013-03-18 11:53:00,
2013-03-18 06:54:00,59.7,56.5,29.64,South,190,8.0,8.0,89,0.00,,---,0.00,VWS V14.01,2013-03-18 11:54:00,
2013-03-18 06:55:00,59.8,56.9,29.64,South,190,2.0,8.0,90,0.00,,---,0.00,VWS V14.01,2013-03-18 11:55:00,
2013-03-18 06:56:00,59.9,57.0,29.65,South,190,3.0,8.0,90,0.00,,---,0.00,VWS V14.01,2013-03-18 11:56:00,
2013-03-18 06:57:00,60.0,57.1,29.65,South,190,5.0,8.0,90,0.00,,---,0.00,VWS V14.01,2013-03-18 11:57:00,
2013-03-18 06:58:00,60.4,57.5,29.64,South,184,6.0,9.0,90,0.00,,---,0.00,VWS V14.01,2013-03-18 11:58:00,
2013-03-18 06:59:00,60.1,57.2,29.65,South,190,4.0,8.0,90,0.00,,---,0.00,VWS V14.01,2013-03-18 11:59:00,
2013-03-18 07:00:00,60.2,57.3,29.65,South,189,5.0,7.0,90,0.00,,---,0.00,VWS V14.01,2013-03-18 12:00:00,
2013-03-18 07:01:00,60.3,57.4,29.65,South,188,6.0,7.0,90,0.00,,---,0.00,VWS V14.01,2013-03-18 12:01:00,
2013-03-18 07:02:00,60.3,57.4,29.65,South,186,6.0,9.0,90,0.00,,---,0.00,VWS V14.01,2013-03-18 12:02:00,
2013-03-18 07:03:00,60.9,58.3,29.65,South,188,11.0,11.0,91,0.00,,---,0.00,VWS V14.01,2013-03-18 12:03:00,
2013-03-18 07:04:00,60.5,57.9,29.65,South,184,7.0,9.0,91,0.00,,---,0.00,VWS V14.01,2013-03-18 12:04:00,
2013-03-18 07:05:00,60.7,58.1,29.65,South,182,5.0,10.0,91,0.00,,---,0.00,VWS V14.01,2013-03-18 12:05:00,
2013-03-18 07:06:00,60.7,58.1,29.64,South,182,6.0,10.0,91,0.00,,---,0.00,VWS V14.01,2013-03-18 12:06:00,
2013-03-18 07:07:00,60.8,58.2,29.64,South,178,6.0,10.0,91,0.00,,---,0.00,VWS V14.01,2013-03-18 12:07:00,
2013-03-18 07:08:00,61.4,58.8,29.65,South,191,8.0,14.0,91,0.00,,---,0.00,VWS V14.01,2013-03-18 12:08:00,
2013-03-18 07:09:00,61.0,58.4,29.65,South,184,10.0,14.0,91,0.00,,---,0.00,VWS V14.01,2013-03-18 12:09:00,
2013-03-18 07:10:00,61.1,58.5,29.65,South,185,9.0,14.0,91,0.00,,---,0.00,VWS V14.01,2013-03-18 12:10:00,
2013-03-18 07:11:00,61.3,58.7,29.66,South,188,7.0,14.0,91,0.00,,---,0.00,VWS V14.01,2013-03-18 12:11:00,
2013-03-18 07:12:00,61.3,58.7,29.65,South,184,5.0,14.0,91,0.00,,---,0.00,VWS V14.01,2013-03-18 12:12:00,
2013-03-18 07:13:00,61.6,59.0,29.66,SSW,193,6.0,11.0,91,0.00,,---,0.00,VWS V14.01,2013-03-18 12:13:00,
2013-03-18 07:14:00,61.4,58.8,29.66,SSW,192,6.0,10.0,91,0.00,,---,0.00,VWS V14.01,2013-03-18 12:14:00,
2013-03-18 07:15:00,61.4,58.8,29.66,South,190,7.0,9.0,91,0.00,,---,0.00,VWS V14.01,2013-03-18 12:15:00,
2013-03-18 07:16:00,61.5,58.8,29.66,South,183,9.0,9.0,91,0.00,,---,0.00,VWS V14.01,2013-03-18 12:16:00,
2013-03-18 07:17:00,61.5,58.8,29.66,South,189,4.0,11.0,91,0.00,,---,0.00,VWS V14.01,2013-03-18 12:17:00,
2013-03-18 07:18:00,61.8,58.8,29.67,South,188,6.0,10.0,90,0.00,,---,0.00,VWS V14.01,2013-03-18 12:18:00,
2013-03-18 07:19:00,61.6,59.0,29.67,South,183,3.0,11.0,91,0.00,,---,0.00,VWS V14.01,2013-03-18 12:19:00,
2013-03-18 07:20:00,61.7,59.0,29.67,South,185,5.0,11.0,91,0.00,,---,0.00,VWS V14.01,2013-03-18 12:20:00,
2013-03-18 07:21:00,61.8,59.2,29.67,South,186,5.0,11.0,91,0.00,,---,0.00,VWS V14.01,2013-03-18 12:21:00,
2013-03-18 07:22:00,61.8,58.8,29.67,South,188,5.0,10.0,90,0.00,,---,0.00,VWS V14.01,2013-03-18 12:22:00,
2013-03-18 07:23:00,61.8,58.8,29.69,South,189,3.0,6.0,90,0.00,,---,0.00,VWS V14.01,2013-03-18 12:23:00,
2013-03-18 07:24:00,61.8,58.8,29.67,South,188,2.0,6.0,90,0.00,,---,0.00,VWS V14.01,2013-03-18 12:24:00,
2013-03-18 07:25:00,61.8,58.8,29.67,South,189,3.0,6.0,90,0.00,,---,0.00,VWS V14.01,2013-03-18 12:25:00,
2013-03-18 07:26:00,61.8,58.8,29.67,South,189,0.0,6.0,90,0.00,,---,0.00,VWS V14.01,2013-03-18 12:26:00,
2013-03-18 07:28:00,61.5,57.9,29.70,North,355,2.0,12.0,88,0.00,,---,0.00,VWS V14.01,2013-03-18 12:28:00,
2013-03-18 07:29:00,61.7,58.7,29.70,NNW,340,1.0,4.0,90,0.00,,---,0.00,VWS V14.01,2013-03-18 12:29:00,
2013-03-18 07:30:00,61.8,58.8,29.70,NE,42,7.0,9.0,90,0.00,,---,0.00,VWS V14.01,2013-03-18 12:30:00,
2013-03-18 07:31:00,61.7,58.7,29.70,NNW,336,4.0,12.0,90,0.00,,---,0.00,VWS V14.01,2013-03-18 12:31:00,
2013-03-18 07:32:00,61.6,58.3,29.70,NNE,22,9.0,12.0,89,0.00,,---,0.00,VWS V14.01,2013-03-18 12:32:00,
2013-03-18 07:33:00,61.1,57.2,29.72,NNW,340,0.0,5.0,87,0.00,,---,0.00,VWS V14.01,2013-03-18 12:33:00,
2013-03-18 07:34:00,61.4,57.5,29.70,NNW,342,2.0,12.0,87,0.00,,---,0.00,VWS V14.01,2013-03-18 12:34:00,
2013-03-18 07:35:00,61.3,57.4,29.71,NNW,344,5.0,12.0,87,0.00,,---,0.00,VWS V14.01,2013-03-18 12:35:00,
2013-03-18 07:36:00,61.2,57.3,29.71,NNW,344,3.0,9.0,87,0.00,,---,0.00,VWS V14.01,2013-03-18 12:36:00,
2013-03-18 07:37:00,61.2,57.3,29.72,NNW,342,0.0,9.0,87,0.00,,---,0.00,VWS V14.01,2013-03-18 12:37:00,
2013-03-18 07:38:00,60.8,56.6,29.72,North,5,2.0,11.0,86,0.00,,---,0.00,VWS V14.01,2013-03-18 12:38:00,
2013-03-18 07:39:00,61.0,56.8,29.72,North,11,6.0,6.0,86,0.00,,---,0.00,VWS V14.01,2013-03-18 12:39:00,
2013-03-18 07:40:00,61.0,56.8,29.72,NNE,15,5.0,7.0,86,0.00,,---,0.00,VWS V14.01,2013-03-18 12:40:00,
2013-03-18 07:41:00,60.9,56.7,29.72,North,5,4.0,11.0,86,0.00,,---,0.00,VWS V14.01,2013-03-18 12:41:00,
2013-03-18 07:42:00,60.9,56.7,29.72,North,5,2.0,11.0,86,0.00,,---,0.00,VWS V14.01,2013-03-18 12:42:00,
2013-03-18 07:43:00,60.6,56.1,29.75,NNE,12,5.0,9.0,85,0.00,,---,0.00,VWS V14.01,2013-03-18 12:43:00,
2013-03-18 07:44:00,60.8,56.3,29.72,North,5,0.0,11.0,85,0.00,,---,0.00,VWS V14.01,2013-03-18 12:44:00,
2013-03-18 07:45:00,60.7,56.2,29.72,North,5,0.0,11.0,85,0.00,,---,0.00,VWS V14.01,2013-03-18 12:45:00,
2013-03-18 07:46:00,60.7,56.2,29.73,NNE,13,4.0,9.0,85,0.00,,---,0.00,VWS V14.01,2013-03-18 12:46:00,
2013-03-18 07:47:00,60.6,56.1,29.74,NNW,343,4.0,9.0,85,0.00,,---,0.00,VWS V14.01,2013-03-18 12:47:00,
2013-03-18 07:48:00,60.2,54.7,29.76,North,350,5.0,12.0,82,0.00,,---,0.00,VWS V14.01,2013-03-18 12:48:00,
2013-03-18 07:49:00,60.5,56.0,29.75,NNW,345,2.0,11.0,85,0.00,,---,0.00,VWS V14.01,2013-03-18 12:49:00,
2013-03-18 07:50:00,60.5,56.0,29.76,NNW,327,9.0,12.0,85,0.00,,---,0.00,VWS V14.01,2013-03-18 12:50:00,
2013-03-18 07:51:00,60.4,55.2,29.76,North,10,6.0,12.0,83,0.00,,---,0.00,VWS V14.01,2013-03-18 12:51:00,
2013-03-18 07:52:00,60.3,54.8,29.75,NNW,334,3.0,12.0,82,0.00,,---,0.00,VWS V14.01,2013-03-18 12:52:00,
2013-03-18 07:53:00,59.6,53.8,29.75,NNE,23,3.0,11.0,81,0.00,,---,0.00,VWS V14.01,2013-03-18 12:53:00,
2013-03-18 07:54:00,60.0,54.5,29.76,North,350,5.0,12.0,82,0.00,,---,0.00,VWS V14.01,2013-03-18 12:54:00,
2013-03-18 07:55:00,59.9,54.4,29.76,North,360,3.0,12.0,82,0.00,,---,0.00,VWS V14.01,2013-03-18 12:55:00,
2013-03-18 07:56:00,59.8,54.3,29.76,NNW,336,2.0,12.0,82,0.00,,---,0.00,VWS V14.01,2013-03-18 12:56:00,
2013-03-18 07:57:00,59.7,53.9,29.75,NE,34,7.0,12.0,81,0.00,,---,0.00,VWS V14.01,2013-03-18 12:57:00,
2013-03-18 07:58:00,59.4,53.9,29.74,North,5,3.0,5.0,82,0.00,,---,0.00,VWS V14.01,2013-03-18 12:58:00,
2013-03-18 07:59:00,59.6,53.8,29.74,NNE,19,0.0,11.0,81,0.00,,---,0.00,VWS V14.01,2013-03-18 12:59:00,
2013-03-18 08:00:00,59.5,54.0,29.74,NNE,14,2.0,11.0,82,0.00,,---,0.00,VWS V14.01,2013-03-18 13:00:00,
2013-03-18 08:01:00,59.5,54.0,29.73,NNE,12,3.0,9.0,82,0.00,,---,0.00,VWS V14.01,2013-03-18 13:01:00,
2013-03-18 08:02:00,59.5,54.0,29.74,NNE,13,1.0,9.0,82,0.00,,---,0.00,VWS V14.01,2013-03-18 13:02:00,
2013-03-18 08:03:00,59.3,53.8,29.76,NNW,347,5.0,6.0,82,0.00,,---,0.00,VWS V14.01,2013-03-18 13:03:00,
2013-03-18 08:04:00,59.4,53.9,29.74,North,5,0.0,5.0,82,0.00,,---,0.00,VWS V14.01,2013-03-18 13:04:00,
2013-03-18 08:05:00,59.4,53.9,29.75,North,360,2.0,5.0,82,0.00,,---,0.00,VWS V14.01,2013-03-18 13:05:00,
2013-03-18 08:06:00,59.3,53.8,29.75,North,360,0.0,5.0,82,0.00,,---,0.00,VWS V14.01,2013-03-18 13:06:00,
2013-03-18 08:07:00,59.3,53.8,29.75,North,355,1.0,4.0,82,0.00,,---,0.00,VWS V14.01,2013-03-18 13:07:00,
2013-03-18 08:08:00,59.1,53.3,29.75,NE,43,3.0,10.0,81,0.00,,---,0.00,VWS V14.01,2013-03-18 13:08:00,
2013-03-18 08:09:00,59.3,53.8,29.76,North,360,5.0,6.0,82,0.00,,---,0.00,VWS V14.01,2013-03-18 13:09:00,
2013-03-18 08:10:00,59.2,53.4,29.76,NNE,12,5.0,6.0,81,0.00,,---,0.00,VWS V14.01,2013-03-18 13:10:00,
2013-03-18 08:11:00,59.2,53.4,29.76,NNE,14,1.0,7.0,81,0.00,,---,0.00,VWS V14.01,2013-03-18 13:11:00,
2013-03-18 08:12:00,59.2,53.4,29.76,NE,34,10.0,10.0,81,0.00,,---,0.00,VWS V14.01,2013-03-18 13:12:00,
2013-03-18 08:13:00,59.1,53.3,29.76,NNW,338,2.0,6.0,81,0.00,,---,0.00,VWS V14.01,2013-03-18 13:13:00,
2013-03-18 08:14:00,59.2,53.4,29.75,North,355,0.0,10.0,81,0.00,,---,0.00,VWS V14.01,2013-03-18 13:14:00,
2013-03-18 08:15:00,59.1,53.3,29.75,North,355,0.0,10.0,81,0.00,,---,0.00,VWS V14.01,2013-03-18 13:15:00,
2013-03-18 08:16:00,59.1,53.3,29.76,North,355,3.0,10.0,81,0.00,,---,0.00,VWS V14.01,2013-03-18 13:16:00,
2013-03-18 08:17:00,59.1,53.3,29.76,North,9,3.0,8.0,81,0.00,,---,0.00,VWS V14.01,2013-03-18 13:17:00,
2013-03-18 08:18:00,59.0,52.8,29.76,NNE,32,6.0,9.0,80,0.00,,---,0.00,VWS V14.01,2013-03-18 13:18:00,
2013-03-18 08:19:00,59.1,53.3,29.76,NNE,28,0.0,6.0,81,0.00,,---,0.00,VWS V14.01,2013-03-18 13:19:00,
2013-03-18 08:20:00,59.1,53.3,29.76,NE,38,0.0,9.0,81,0.00,,---,0.00,VWS V14.01,2013-03-18 13:20:00,
2013-03-18 08:21:00,59.1,53.3,29.76,NE,36,3.0,9.0,81,0.00,,---,0.00,VWS V14.01,2013-03-18 13:21:00,
2013-03-18 08:22:00,59.0,52.8,29.75,NE,38,4.0,9.0,80,0.00,,---,0.00,VWS V14.01,2013-03-18 13:22:00,
2013-03-18 08:23:00,58.9,52.8,29.78,NE,37,1.0,12.0,80,0.00,,---,0.00,VWS V14.01,2013-03-18 13:23:00,
2013-03-18 08:26:00,58.9,52.8,29.78,NNE,30,6.0,10.0,80,0.00,,---,0.00,VWS V14.01,2013-03-18 13:26:00,
2013-03-18 08:27:00,58.9,52.8,29.78,NE,55,4.0,12.0,80,0.00,,---,0.00,VWS V14.01,2013-03-18 13:27:00,
2013-03-18 08:28:00,58.4,51.9,29.77,NE,44,2.0,15.0,79,0.00,,---,0.00,VWS V14.01,2013-03-18 13:28:00,
2013-03-18 08:30:00,58.7,51.9,29.77,NE,41,4.0,15.0,78,0.00,,---,0.00,VWS V14.01,2013-03-18 13:30:00,
2013-03-18 08:31:00,58.6,51.8,29.78,NE,51,4.0,15.0,78,0.00,,---,0.00,VWS V14.01,2013-03-18 13:31:00,
2013-03-18 08:32:00,58.5,52.0,29.78,NE,44,0.0,15.0,79,0.00,,---,0.00,VWS V14.01,2013-03-18 13:32:00,
2013-03-18 08:33:00,58.1,51.6,29.78,NE,38,6.0,13.0,79,0.00,,---,0.00,VWS V14.01,2013-03-18 13:33:00,
2013-03-18 08:34:00,58.3,51.8,29.77,NE,49,5.0,10.0,79,0.00,,---,0.00,VWS V14.01,2013-03-18 13:34:00,
2013-03-18 08:35:00,58.2,51.4,29.77,NE,36,6.0,10.0,78,0.00,,---,0.00,VWS V14.01,2013-03-18 13:35:00,
2013-03-18 08:36:00,58.2,51.7,29.78,NNE,22,7.0,9.0,79,0.00,,---,0.00,VWS V14.01,2013-03-18 13:36:00,
2013-03-18 08:37:00,58.1,51.6,29.78,NE,34,12.0,13.0,79,0.00,,---,0.00,VWS V14.01,2013-03-18 13:37:00,
2013-03-18 08:38:00,57.7,50.5,29.79,NNE,31,9.0,13.0,77,0.00,,---,0.00,VWS V14.01,2013-03-18 13:38:00,
2013-03-18 08:39:00,58.0,51.2,29.78,NE,47,4.0,13.0,78,0.00,,---,0.00,VWS V14.01,2013-03-18 13:39:00,
2013-03-18 08:40:00,57.9,51.4,29.78,NNE,32,7.0,13.0,79,0.00,,---,0.00,VWS V14.01,2013-03-18 13:40:00,
2013-03-18 08:41:00,57.8,51.0,29.78,NNW,329,9.0,13.0,78,0.00,,---,0.00,VWS V14.01,2013-03-18 13:41:00,
2013-03-18 08:42:00,57.8,51.0,29.78,NW,318,4.0,11.0,78,0.00,,---,0.00,VWS V14.01,2013-03-18 13:42:00,
2013-03-18 08:43:00,57.2,50.1,29.79,NNW,332,4.0,11.0,77,0.00,,---,0.00,VWS V14.01,2013-03-18 13:43:00,
2013-03-18 08:44:00,57.6,50.5,29.79,North,355,4.0,13.0,77,0.00,,---,0.00,VWS V14.01,2013-03-18 13:44:00,
2013-03-18 08:45:00,57.5,50.4,29.78,NNE,15,6.0,13.0,77,0.00,,---,0.00,VWS V14.01,2013-03-18 13:45:00,
2013-03-18 08:46:00,57.4,50.3,29.78,NNE,19,7.0,13.0,77,0.00,,---,0.00,VWS V14.01,2013-03-18 13:46:00,
2013-03-18 08:47:00,57.3,50.2,29.78,NE,38,7.0,13.0,77,0.00,,---,0.00,VWS V14.01,2013-03-18 13:47:00,
2013-03-18 08:48:00,56.8,49.7,29.79,North,351,3.0,11.0,77,0.00,,---,0.00,VWS V14.01,2013-03-18 13:48:00,
2013-03-18 08:49:00,57.1,50.0,29.79,NW,319,5.0,11.0,77,0.00,,---,0.00,VWS V14.01,2013-03-18 13:49:00,
2013-03-18 08:50:00,57.0,49.9,29.79,NNW,333,5.0,11.0,77,0.00,,---,0.00,VWS V14.01,2013-03-18 13:50:00,
2013-03-18 08:51:00,57.0,49.9,29.78,North,360,2.0,11.0,77,0.00,,---,0.00,VWS V14.01,2013-03-18 13:51:00,
2013-03-18 08:52:00,56.9,49.8,29.77,NNE,33,9.0,11.0,77,0.00,,---,0.00,VWS V14.01,2013-03-18 13:52:00,
2013-03-18 08:53:00,56.4,49.3,29.78,NNW,348,5.0,13.0,77,0.00,,---,0.00,VWS V14.01,2013-03-18 13:53:00,
2013-03-18 08:54:00,56.7,49.9,29.79,NNW,327,3.0,10.0,78,0.00,,---,0.00,VWS V14.01,2013-03-18 13:54:00,
2013-03-18 08:55:00,56.7,49.9,29.80,NW,324,4.0,10.0,78,0.00,,---,0.00,VWS V14.01,2013-03-18 13:55:00,
2013-03-18 08:56:00,56.6,49.8,29.79,NE,39,9.0,10.0,78,0.00,,---,0.00,VWS V14.01,2013-03-18 13:56:00,
2013-03-18 08:57:00,56.5,49.4,29.79,NE,44,6.0,10.0,77,0.00,,---,0.00,VWS V14.01,2013-03-18 13:57:00,
2013-03-18 08:58:00,56.3,49.5,29.78,NE,54,2.0,11.0,78,0.00,,---,0.00,VWS V14.01,2013-03-18 13:58:00,
2013-03-18 08:59:00,56.4,49.3,29.78,North,355,4.0,13.0,77,0.00,,---,0.00,VWS V14.01,2013-03-18 13:59:00,
2013-03-18 09:00:00,56.4,49.6,29.79,NNW,343,4.0,13.0,78,0.00,,---,0.00,VWS V14.01,2013-03-18 14:00:00,
2013-03-18 09:01:00,56.4,49.6,29.80,NNE,28,10.0,13.0,78,0.00,,---,0.00,VWS V14.01,2013-03-18 14:01:00,
2013-03-18 09:02:00,56.3,49.5,29.79,NE,44,2.0,13.0,78,0.00,,---,0.00,VWS V14.01,2013-03-18 14:02:00,
2013-03-18 09:03:00,56.3,49.5,29.80,NNW,344,4.0,19.0,78,0.00,,---,0.00,VWS V14.01,2013-03-18 14:03:00,
2013-03-18 09:04:00,56.3,49.5,29.78,NE,44,19.0,19.0,78,0.00,,---,0.00,VWS V14.01,2013-03-18 14:04:00,
2013-03-18 09:05:00,56.3,49.2,29.79,NE,56,3.0,19.0,77,0.00,,---,0.00,VWS V14.01,2013-03-18 14:05:00,
2013-03-18 09:06:00,56.3,49.2,29.79,ENE,62,0.0,19.0,77,0.00,,---,0.00,VWS V14.01,2013-03-18 14:06:00,
2013-03-18 09:07:00,56.3,49.2,29.79,NNE,24,1.0,19.0,77,0.00,,---,0.00,VWS V14.01,2013-03-18 14:07:00,
2013-03-18 09:08:00,56.6,48.8,29.80,NE,49,0.0,14.0,75,0.00,,---,0.00,VWS V14.01,2013-03-18 14:08:00,
2013-03-18 09:09:00,56.3,49.5,29.80,WNW,287,4.0,19.0,78,0.00,,---,0.00,VWS V14.01,2013-03-18 14:09:00,
2013-03-18 09:10:00,56.4,49.3,29.80,NNE,22,5.0,12.0,77,0.00,,---,0.00,VWS V14.01,2013-03-18 14:10:00,
2013-03-18 09:11:00,56.4,49.3,29.79,NE,34,14.0,14.0,77,0.00,,---,0.00,VWS V14.01,2013-03-18 14:11:00,
2013-03-18 09:12:00,56.5,49.4,29.81,North,9,5.0,14.0,77,0.00,,---,0.00,VWS V14.01,2013-03-18 14:12:00,
2013-03-18 09:13:00,56.4,48.6,29.81,NE,44,9.0,15.0,75,0.00,,---,0.00,VWS V14.01,2013-03-18 14:13:00,
2013-03-18 09:14:00,56.6,48.8,29.80,NE,55,0.0,14.0,75,0.00,,---,0.00,VWS V14.01,2013-03-18 14:14:00,
2013-03-18 09:15:00,56.6,48.8,29.81,NNE,32,9.0,14.0,75,0.00,,---,0.00,VWS V14.01,2013-03-18 14:15:00,
2013-03-18 09:16:00,56.6,48.8,29.81,NE,54,8.0,14.0,75,0.00,,---,0.00,VWS V14.01,2013-03-18 14:16:00,
2013-03-18 09:17:00,56.5,48.7,29.81,NE,53,2.0,14.0,75,0.00,,---,0.00,VWS V14.01,2013-03-18 14:17:00,
2013-03-18 09:18:00,56.2,48.0,29.81,NNE,17,9.0,15.0,74,0.00,,---,0.00,VWS V14.01,2013-03-18 14:18:00,
2013-03-18 09:19:00,56.4,48.6,29.81,NE,40,4.0,15.0,75,0.00,,---,0.00,VWS V14.01,2013-03-18 14:19:00,
2013-03-18 09:20:00,56.4,48.2,29.81,NE,51,5.0,15.0,74,0.00,,---,0.00,VWS V14.01,2013-03-18 14:20:00,
2013-03-18 09:21:00,56.3,48.1,29.81,NE,40,12.0,15.0,74,0.00,,---,0.00,VWS V14.01,2013-03-18 14:21:00,
2013-03-18 09:22:00,56.2,48.0,29.81,North,11,10.0,15.0,74,0.00,,---,0.00,VWS V14.01,2013-03-18 14:22:00,
2013-03-18 09:23:00,56.1,47.9,29.82,NE,39,6.0,13.0,74,0.00,,---,0.00,VWS V14.01,2013-03-18 14:23:00,
2013-03-18 09:24:00,56.2,48.0,29.81,NE,48,11.0,15.0,74,0.00,,---,0.00,VWS V14.01,2013-03-18 14:24:00,
2013-03-18 09:25:00,56.2,48.0,29.82,North,355,5.0,15.0,74,0.00,,---,0.00,VWS V14.01,2013-03-18 14:25:00,
2013-03-18 09:26:00,56.1,47.9,29.82,NNE,26,5.0,15.0,74,0.00,,---,0.00,VWS V14.01,2013-03-18 14:26:00,
2013-03-18 09:27:00,56.1,47.9,29.82,NNE,19,9.0,15.0,74,0.00,,---,0.00,VWS V14.01,2013-03-18 14:27:00,
2013-03-18 09:28:00,56.3,48.5,29.82,NE,40,3.0,15.0,75,0.00,,---,0.00,VWS V14.01,2013-03-18 14:28:00,
2013-03-18 09:29:00,56.1,47.9,29.82,NE,41,5.0,13.0,74,0.00,,---,0.00,VWS V14.01,2013-03-18 14:29:00,
2013-03-18 09:30:00,56.1,47.9,29.82,NE,34,5.0,15.0,74,0.00,,---,0.00,VWS V14.01,2013-03-18 14:30:00,
2013-03-18 09:31:00,56.2,48.4,29.82,NNE,31,4.0,15.0,75,0.00,,---,0.00,VWS V14.01,2013-03-18 14:31:00,
2013-03-18 09:32:00,56.2,48.4,29.82,North,350,5.0,15.0,75,0.00,,---,0.00,VWS V14.01,2013-03-18 14:32:00,
2013-03-18 09:33:00,56.3,48.5,29.82,NE,36,6.0,15.0,75,0.00,,---,0.00,VWS V14.01,2013-03-18 14:33:00,
2013-03-18 09:34:00,56.8,48.6,29.82,NNW,327,1.0,9.0,74,0.00,,---,0.00,VWS V14.01,2013-03-18 14:34:00,
2013-03-18 09:35:00,56.5,48.7,29.82,NE,45,4.0,13.0,75,0.00,,---,0.00,VWS V14.01,2013-03-18 14:35:00,
2013-03-18 09:36:00,56.5,48.3,29.82,NNE,15,4.0,13.0,74,0.00,,---,0.00,VWS V14.01,2013-03-18 14:36:00,
2013-03-18 09:37:00,56.6,48.8,29.82,NE,39,8.0,13.0,75,0.00,,---,0.00,VWS V14.01,2013-03-18 14:37:00,
2013-03-18 09:38:00,56.8,48.6,29.82,NNW,329,5.0,9.0,74,0.00,,---,0.00,VWS V14.01,2013-03-18 14:38:00,
2013-03-18 09:39:00,57.3,48.7,29.82,NNW,332,7.0,13.0,73,0.00,,---,0.00,VWS V14.01,2013-03-18 14:39:00,
2013-03-18 09:40:00,57.0,48.8,29.82,NE,55,2.0,13.0,74,0.00,,---,0.00,VWS V14.01,2013-03-18 14:40:00,
2013-03-18 09:41:00,57.1,48.9,29.83,North,355,5.0,13.0,74,0.00,,---,0.00,VWS V14.01,2013-03-18 14:41:00,
2013-03-18 09:42:00,57.2,48.6,29.82,NNE,29,8.0,13.0,73,0.00,,---,0.00,VWS V14.01,2013-03-18 14:42:00,
2013-03-18 09:43:00,57.3,48.7,29.82,NE,41,13.0,13.0,73,0.00,,---,0.00,VWS V14.01,2013-03-18 14:43:00,
2013-03-18 09:44:00,58.0,49.0,29.83,NNW,338,3.0,12.0,72,0.00,,---,0.00,VWS V14.01,2013-03-18 14:44:00,
2013-03-18 09:45:00,57.5,48.6,29.82,NNE,26,7.0,13.0,72,0.00,,---,0.00,VWS V14.01,2013-03-18 14:45:00,
2013-03-18 09:46:00,57.6,48.7,29.83,NNE,19,6.0,13.0,72,0.00,,---,0.00,VWS V14.01,2013-03-18 14:46:00,
2013-03-18 09:47:00,57.8,48.8,29.82,NNE,18,2.0,13.0,72,0.00,,---,0.00,VWS V14.01,2013-03-18 14:47:00,
2013-03-18 09:48:00,57.9,48.9,29.82,NNE,13,3.0,13.0,72,0.00,,---,0.00,VWS V14.01,2013-03-18 14:48:00,
2013-03-18 09:49:00,58.5,49.1,29.83,NNE,25,6.0,14.0,71,0.00,,---,0.00,VWS V14.01,2013-03-18 14:49:00,
2013-03-18 09:50:00,58.2,48.8,29.82,North,5,9.0,11.0,71,0.00,,---,0.00,VWS V14.01,2013-03-18 14:50:00,
2013-03-18 09:51:00,58.3,49.0,29.83,NNE,17,0.0,11.0,71,0.00,,---,0.00,VWS V14.01,2013-03-18 14:51:00,
2013-03-18 09:52:00,58.4,49.0,29.83,NE,34,10.0,11.0,71,0.00,,---,0.00,VWS V14.01,2013-03-18 14:52:00,
2013-03-18 09:53:00,58.4,49.0,29.82,NNE,23,9.0,11.0,71,0.00,,---,0.00,VWS V14.01,2013-03-18 14:53:00,
2013-03-18 09:54:00,58.8,49.0,29.83,NE,34,7.0,13.0,70,0.00,,---,0.00,VWS V14.01,2013-03-18 14:54:00,
2013-03-18 09:55:00,58.5,48.8,29.83,NNE,30,11.0,14.0,70,0.00,,---,0.00,VWS V14.01,2013-03-18 14:55:00,
2013-03-18 09:56:00,58.6,48.9,29.83,North,350,3.0,14.0,70,0.00,,---,0.00,VWS V14.01,2013-03-18 14:56:00,
2013-03-18 09:57:00,58.6,49.2,29.83,North,9,3.0,14.0,71,0.00,,---,0.00,VWS V14.01,2013-03-18 14:57:00,
2013-03-18 09:58:00,58.7,49.0,29.83,NE,38,6.0,14.0,70,0.00,,---,0.00,VWS V14.01,2013-03-18 14:58:00,
2013-03-18 09:59:00,59.2,49.0,29.83,NNW,327,4.0,10.0,69,0.00,,---,0.00,VWS V14.01,2013-03-18 14:59:00,
2013-03-18 10:00:00,58.9,48.8,29.83,NNE,30,3.0,11.0,69,0.00,,---,0.00,VWS V14.01,2013-03-18 15:00:00,
2013-03-18 10:01:00,59.0,49.2,29.83,NNE,32,7.0,10.0,70,0.00,,---,0.00,VWS V14.01,2013-03-18 15:01:00,
2013-03-18 10:02:00,59.1,49.0,29.83,NNE,17,5.0,10.0,69,0.00,,---,0.00,VWS V14.01,2013-03-18 15:02:00,
2013-03-18 10:03:00,59.2,49.0,29.83,NNE,15,10.0,10.0,69,0.00,,---,0.00,VWS V14.01,2013-03-18 15:03:00,
2013-03-18 10:04:00,59.5,49.3,29.83,NNW,337,3.0,13.0,69,0.00,,---,0.00,VWS V14.01,2013-03-18 15:04:00,
2013-03-18 10:05:00,59.3,49.1,29.83,North,355,2.0,10.0,69,0.00,,---,0.00,VWS V14.01,2013-03-18 15:05:00,
2013-03-18 10:06:00,59.4,49.2,29.84,NE,40,10.0,10.0,69,0.00,,---,0.00,VWS V14.01,2013-03-18 15:06:00,
2013-03-18 10:07:00,59.4,48.8,29.83,NW,307,3.0,13.0,68,0.00,,---,0.00,VWS V14.01,2013-03-18 15:07:00,
2013-03-18 10:08:00,59.5,49.3,29.83,NNW,338,6.0,13.0,69,0.00,,---,0.00,VWS V14.01,2013-03-18 15:08:00,
2013-03-18 10:09:00,60.1,49.5,29.84,NE,49,4.0,11.0,68,0.00,,---,0.00,VWS V14.01,2013-03-18 15:09:00,
2013-03-18 10:10:00,59.6,49.0,29.83,NNE,17,3.0,13.0,68,0.00,,---,0.00,VWS V14.01,2013-03-18 15:10:00,
2013-03-18 10:11:00,59.7,49.5,29.83,North,349,4.0,13.0,69,0.00,,---,0.00,VWS V14.01,2013-03-18 15:11:00,
2013-03-18 10:12:00,59.9,48.9,29.84,North,355,5.0,11.0,67,0.00,,---,0.00,VWS V14.01,2013-03-18 15:12:00,
2013-03-18 10:13:00,60.0,49.4,29.84,NE,34,11.0,11.0,68,0.00,,---,0.00,VWS V14.01,2013-03-18 15:13:00,
2013-03-18 10:14:00,60.7,49.3,29.84,North,10,2.0,9.0,66,0.00,,---,0.00,VWS V14.01,2013-03-18 15:14:00,
2013-03-18 10:15:00,60.3,49.3,29.84,NNE,32,2.0,11.0,67,0.00,,---,0.00,VWS V14.01,2013-03-18 15:15:00,
2013-03-18 10:16:00,60.5,49.5,29.84,North,349,3.0,11.0,67,0.00,,---,0.00,VWS V14.01,2013-03-18 15:16:00,
2013-03-18 10:17:00,60.5,49.1,29.84,North,349,5.0,11.0,66,0.00,,---,0.00,VWS V14.01,2013-03-18 15:17:00,
2013-03-18 10:19:00,61.0,48.8,29.84,NE,38,7.0,14.0,64,0.00,,---,0.00,VWS V14.01,2013-03-18 15:19:00,
2013-03-18 10:20:00,60.9,49.5,29.84,North,355,3.0,12.0,66,0.00,,---,0.00,VWS V14.01,2013-03-18 15:20:00,
2013-03-18 10:21:00,60.9,49.5,29.84,NE,40,9.0,12.0,66,0.00,,---,0.00,VWS V14.01,2013-03-18 15:21:00,
2013-03-18 10:22:00,61.0,49.6,29.84,North,355,10.0,12.0,66,0.00,,---,0.00,VWS V14.01,2013-03-18 15:22:00,
2013-03-18 10:23:00,61.0,48.8,29.84,NE,51,9.0,14.0,64,0.00,,---,0.00,VWS V14.01,2013-03-18 15:23:00,
2013-03-18 10:24:00,61.1,48.8,29.85,North,11,3.0,14.0,64,0.00,,---,0.00,VWS V14.01,2013-03-18 15:24:00,
2013-03-18 10:25:00,61.1,48.8,29.84,NE,43,2.0,14.0,64,0.00,,---,0.00,VWS V14.01,2013-03-18 15:25:00,
2013-03-18 10:26:00,61.1,48.8,29.84,North,5,7.0,14.0,64,0.00,,---,0.00,VWS V14.01,2013-03-18 15:26:00,
2013-03-18 10:27:00,61.1,48.8,29.85,NNW,338,2.0,14.0,64,0.00,,---,0.00,VWS V14.01,2013-03-18 15:27:00,
2013-03-18 10:28:00,61.1,48.8,29.85,NNW,346,8.0,14.0,64,0.00,,---,0.00,VWS V14.01,2013-03-18 15:28:00,
2013-03-18 10:29:00,61.1,48.8,29.85,North,351,6.0,15.0,64,0.00,,---,0.00,VWS V14.01,2013-03-18 15:29:00,
2013-03-18 10:30:00,61.1,48.8,29.85,North,350,4.0,15.0,64,0.00,,---,0.00,VWS V14.01,2013-03-18 15:30:00,
2013-03-18 10:31:00,61.1,48.8,29.85,NNW,342,8.0,15.0,64,0.00,,---,0.00,VWS V14.01,2013-03-18 15:31:00,
2013-03-18 10:32:00,61.1,48.8,29.85,NNE,26,5.0,15.0,64,0.00,,---,0.00,VWS V14.01,2013-03-18 15:32:00,
2013-03-18 10:33:00,61.1,48.8,29.85,NNE,26,7.0,15.0,64,0.00,,---,0.00,VWS V14.01,2013-03-18 15:33:00,
2013-03-18 10:34:00,61.4,49.1,29.85,NNE,26,6.0,19.0,64,0.00,,---,0.00,VWS V14.01,2013-03-18 15:34:00,
2013-03-18 10:35:00,61.2,49.3,29.85,NNW,338,4.0,14.0,65,0.00,,---,0.00,VWS V14.01,2013-03-18 15:35:00,
2013-03-18 10:36:00,61.3,49.5,29.85,NNE,32,10.0,11.0,65,0.00,,---,0.00,VWS V14.01,2013-03-18 15:36:00,
2013-03-18 10:37:00,61.3,49.0,29.85,NE,35,8.0,20.0,64,0.00,,---,0.00,VWS V14.01,2013-03-18 15:37:00,
2013-03-18 10:38:00,61.4,48.7,29.85,North,355,6.0,19.0,63,0.00,,---,0.00,VWS V14.01,2013-03-18 15:38:00,
2013-03-18 10:39:00,61.8,49.1,29.85,NW,326,9.0,13.0,63,0.00,,---,0.00,VWS V14.01,2013-03-18 15:39:00,
2013-03-18 10:40:00,61.5,49.2,29.85,North,355,9.0,19.0,64,0.00,,---,0.00,VWS V14.01,2013-03-18 15:40:00,
2013-03-18 10:41:00,61.6,48.9,29.85,North,5,3.0,19.0,63,0.00,,---,0.00,VWS V14.01,2013-03-18 15:41:00,
2013-03-18 10:42:00,61.7,49.0,29.85,North,360,4.0,13.0,63,0.00,,---,0.00,VWS V14.01,2013-03-18 15:42:00,
2013-03-18 10:44:00,62.3,49.1,29.85,NNE,20,9.0,16.0,62,0.00,,---,0.00,VWS V14.01,2013-03-18 15:44:00,
2013-03-18 10:45:00,61.9,49.2,29.85,NNE,13,4.0,12.0,63,0.00,,---,0.00,VWS V14.01,2013-03-18 15:45:00,
2013-03-18 10:47:00,62.1,49.4,29.85,NNE,15,5.0,16.0,63,0.00,,---,0.00,VWS V14.01,2013-03-18 15:47:00,
2013-03-18 10:48:00,62.2,49.5,29.85,NNE,27,11.0,16.0,63,0.00,,---,0.00,VWS V14.01,2013-03-18 15:48:00,
2013-03-18 10:49:00,62.7,49.1,29.86,NE,44,5.0,18.0,61,0.00,,---,0.00,VWS V14.01,2013-03-18 15:49:00,
2013-03-18 10:50:00,62.4,49.2,29.85,NNE,16,0.0,16.0,62,0.00,,---,0.00,VWS V14.01,2013-03-18 15:50:00,
2013-03-18 10:52:00,62.6,49.0,29.85,NE,35,9.0,18.0,61,0.00,,---,0.00,VWS V14.01,2013-03-18 15:52:00,
2013-03-18 10:53:00,62.7,49.1,29.85,NNE,26,5.0,18.0,61,0.00,,---,0.00,VWS V14.01,2013-03-18 15:53:00,
2013-03-18 10:54:00,63.1,49.9,29.86,North,10,9.0,12.0,62,0.00,,---,0.00,VWS V14.01,2013-03-18 15:54:00,
2013-03-18 10:55:00,62.8,49.2,29.85,NE,43,6.0,18.0,61,0.00,,---,0.00,VWS V14.01,2013-03-18 15:55:00,
2013-03-18 10:56:00,62.8,49.2,29.85,NNE,30,5.0,17.0,61,0.00,,---,0.00,VWS V14.01,2013-03-18 15:56:00,
2013-03-18 10:57:00,62.9,49.7,29.85,NNE,19,6.0,17.0,62,0.00,,---,0.00,VWS V14.01,2013-03-18 15:57:00,
2013-03-18 10:58:00,63.0,49.8,29.86,NNE,26,5.0,12.0,62,0.00,,---,0.00,VWS V14.01,2013-03-18 15:58:00,
2013-03-18 10:59:00,63.6,49.5,29.86,NE,38,6.0,12.0,60,0.00,,---,0.00,VWS V14.01,2013-03-18 15:59:00,
2013-03-18 11:00:00,63.3,49.2,29.86,NW,315,4.0,12.0,60,0.00,,---,0.00,VWS V14.01,2013-03-18 16:00:00,
2013-03-18 11:04:00,64.3,50.1,29.85,NE,50,0.0,8.0,60,0.00,,---,0.00,VWS V14.01,2013-03-18 16:04:00,
2013-03-18 11:06:00,63.9,50.2,29.86,NNW,336,2.0,12.0,61,0.00,,---,0.00,VWS V14.01,2013-03-18 16:06:00,
2013-03-18 11:07:00,64.1,50.0,29.86,North,355,2.0,11.0,60,0.00,,---,0.00,VWS V14.01,2013-03-18 16:07:00,
2013-03-18 11:09:00,64.5,49.9,29.85,NNW,333,5.0,11.0,59,0.00,,---,0.00,VWS V14.01,2013-03-18 16:09:00,
2013-03-18 11:11:00,64.4,49.8,29.85,NW,321,7.0,11.0,59,0.00,,---,0.00,VWS V14.01,2013-03-18 16:11:00,
2013-03-18 11:13:00,64.5,49.9,29.85,NNW,330,2.0,11.0,59,0.00,,---,0.00,VWS V14.01,2013-03-18 16:13:00,
2013-03-18 11:14:00,64.9,49.8,29.86,NE,39,17.0,18.0,58,0.00,,---,0.00,VWS V14.01,2013-03-18 16:14:00,
2013-03-18 11:15:00,64.5,49.9,29.85,NNW,332,6.0,11.0,59,0.00,,---,0.00,VWS V14.01,2013-03-18 16:15:00,
2013-03-18 11:19:00,65.4,50.2,29.86,NE,42,2.0,20.0,58,0.00,,---,0.00,VWS V14.01,2013-03-18 16:19:00,
2013-03-18 11:21:00,65.1,50.0,29.85,NNE,29,7.0,18.0,58,0.00,,---,0.00,VWS V14.01,2013-03-18 16:21:00,
2013-03-18 11:22:00,65.2,50.1,29.85,NNE,29,10.0,18.0,58,0.00,,---,0.00,VWS V14.01,2013-03-18 16:22:00,
2013-03-18 11:24:00,66.0,49.9,29.86,NE,40,12.0,13.0,56,0.00,,---,0.00,VWS V14.01,2013-03-18 16:24:00,
2013-03-18 11:26:00,65.7,50.5,29.86,North,5,5.0,20.0,58,0.00,,---,0.00,VWS V14.01,2013-03-18 16:26:00,
2013-03-18 11:27:00,65.8,50.2,29.86,NNE,28,10.0,20.0,57,0.00,,---,0.00,VWS V14.01,2013-03-18 16:27:00,
2013-03-18 11:28:00,65.9,49.8,29.86,NNW,340,5.0,15.0,56,0.00,,---,0.00,VWS V14.01,2013-03-18 16:28:00,
2013-03-18 11:29:00,66.3,50.2,29.86,NNW,340,4.0,14.0,56,0.00,,---,0.00,VWS V14.01,2013-03-18 16:29:00,
2013-03-18 11:34:00,66.4,49.8,29.86,NW,319,5.0,14.0,55,0.00,,---,0.00,VWS V14.01,2013-03-18 16:34:00,
2013-03-18 11:35:00,66.3,50.2,29.86,NNE,33,10.0,14.0,56,0.00,,---,0.00,VWS V14.01,2013-03-18 16:35:00,
2013-03-18 11:36:00,66.4,49.8,29.86,NNW,343,3.0,14.0,55,0.00,,---,0.00,VWS V14.01,2013-03-18 16:36:00,
2013-03-18 11:39:00,66.1,49.5,29.87,NNE,29,1.0,14.0,55,0.00,,---,0.00,VWS V14.01,2013-03-18 16:39:00,
2013-03-18 11:40:00,66.3,50.2,29.86,NE,40,6.0,14.0,56,0.00,,---,0.00,VWS V14.01,2013-03-18 16:40:00,
2013-03-18 11:41:00,66.2,49.6,29.87,NE,35,9.0,14.0,55,0.00,,---,0.00,VWS V14.01,2013-03-18 16:41:00,
2013-03-18 11:42:00,66.1,49.5,29.87,NNW,347,11.0,14.0,55,0.00,,---,0.00,VWS V14.01,2013-03-18 16:42:00,
2013-03-18 11:43:00,66.1,49.5,29.87,NNW,348,4.0,14.0,55,0.00,,---,0.00,VWS V14.01,2013-03-18 16:43:00,
2013-03-18 11:44:00,66.0,49.4,29.87,NNE,30,10.0,13.0,55,0.00,,---,0.00,VWS V14.01,2013-03-18 16:44:00,
2013-03-18 11:45:00,66.1,49.5,29.87,NW,321,2.0,14.0,55,0.00,,---,0.00,VWS V14.01,2013-03-18 16:45:00,
2013-03-18 11:46:00,66.1,49.5,29.88,NNW,337,4.0,13.0,55,0.00,,---,0.00,VWS V14.01,2013-03-18 16:46:00,
2013-03-18 11:47:00,66.1,49.5,29.88,NNE,23,7.0,13.0,55,0.00,,---,0.00,VWS V14.01,2013-03-18 16:47:00,
2013-03-18 11:48:00,66.1,49.5,29.88,NNE,30,13.0,13.0,55,0.00,,---,0.00,VWS V14.01,2013-03-18 16:48:00,
2013-03-18 11:49:00,66.5,49.4,29.87,NNW,335,1.0,15.0,54,0.00,,---,0.00,VWS V14.01,2013-03-18 16:49:00,
2013-03-18 11:50:00,66.1,49.5,29.88,North,5,6.0,15.0,55,0.00,,---,0.00,VWS V14.01,2013-03-18 16:50:00,
2013-03-18 11:51:00,66.2,49.6,29.88,NNW,344,1.0,15.0,55,0.00,,---,0.00,VWS V14.01,2013-03-18 16:51:00,
2013-03-18 11:52:00,66.2,50.1,29.87,North,355,1.0,15.0,56,0.00,,---,0.00,VWS V14.01,2013-03-18 16:52:00,
2013-03-18 11:53:00,66.3,49.7,29.88,NE,53,5.0,15.0,55,0.00,,---,0.00,VWS V14.01,2013-03-18 16:53:00,
2013-03-18 11:54:00,66.7,49.5,29.88,NW,319,0.0,8.0,54,0.00,,---,0.00,VWS V14.01,2013-03-18 16:54:00,
2013-03-18 11:55:00,66.5,49.8,29.87,NNW,338,4.0,15.0,55,0.00,,---,0.00,VWS V14.01,2013-03-18 16:55:00,
2013-03-18 11:56:00,66.6,49.5,29.87,NNE,19,2.0,15.0,54,0.00,,---,0.00,VWS V14.01,2013-03-18 16:56:00,
2013-03-18 11:59:00,66.6,49.5,29.88,North,355,6.0,14.0,54,0.00,,---,0.00,VWS V14.01,2013-03-18 16:59:00,
2013-03-18 12:00:00,66.7,49.5,29.88,NE,42,2.0,8.0,54,0.00,,---,0.00,VWS V14.01,2013-03-18 17:00:00,
2013-03-18 12:01:00,66.7,49.5,29.88,North,5,8.0,11.0,54,0.00,,---,0.00,VWS V14.01,2013-03-18 17:01:00,
2013-03-18 12:02:00,66.7,49.0,29.88,NE,34,7.0,14.0,53,0.00,,---,0.00,VWS V14.01,2013-03-18 17:02:00,
2013-03-18 12:03:00,66.6,49.5,29.88,NE,42,10.0,14.0,54,0.00,,---,0.00,VWS V14.01,2013-03-18 17:03:00,
2013-03-18 12:04:00,66.5,48.9,29.88,NE,38,5.0,13.0,53,0.00,,---,0.00,VWS V14.01,2013-03-18 17:04:00,
2013-03-18 12:05:00,66.6,49.0,29.88,NW,323,3.0,14.0,53,0.00,,---,0.00,VWS V14.01,2013-03-18 17:05:00,
2013-03-18 12:06:00,66.6,49.0,29.88,North,360,7.0,14.0,53,0.00,,---,0.00,VWS V14.01,2013-03-18 17:06:00,
2013-03-18 12:08:00,66.6,49.0,29.88,NNW,336,9.0,13.0,53,0.00,,---,0.00,VWS V14.01,2013-03-18 17:08:00,
2013-03-18 12:09:00,66.6,49.0,29.88,NW,326,5.0,12.0,53,0.00,,---,0.00,VWS V14.01,2013-03-18 17:09:00,
2013-03-18 12:11:00,66.5,48.3,29.88,NE,46,3.0,13.0,52,0.00,,---,0.00,VWS V14.01,2013-03-18 17:11:00,
2013-03-18 12:12:00,66.5,48.9,29.88,NW,308,10.0,13.0,53,0.00,,---,0.00,VWS V14.01,2013-03-18 17:12:00,
2013-03-18 12:13:00,66.6,49.0,29.88,NNW,336,7.0,12.0,53,0.00,,---,0.00,VWS V14.01,2013-03-18 17:13:00,
2013-03-18 12:14:00,66.6,47.9,29.88,NE,37,4.0,15.0,51,0.00,,---,0.00,VWS V14.01,2013-03-18 17:14:00,
2013-03-18 12:15:00,66.7,48.5,29.88,North,351,6.0,11.0,52,0.00,,---,0.00,VWS V14.01,2013-03-18 17:15:00,
2013-03-18 12:16:00,66.7,48.5,29.88,NNE,18,5.0,14.0,52,0.00,,---,0.00,VWS V14.01,2013-03-18 17:16:00,
2013-03-18 12:17:00,66.7,48.0,29.88,NNE,20,14.0,14.0,51,0.00,,---,0.00,VWS V14.01,2013-03-18 17:17:00,
2013-03-18 12:18:00,66.7,48.0,29.88,North,360,6.0,15.0,51,0.00,,---,0.00,VWS V14.01,2013-03-18 17:18:00,
2013-03-18 12:19:00,66.5,47.8,29.88,NNW,333,7.0,19.0,51,0.00,,---,0.00,VWS V14.01,2013-03-18 17:19:00,
2013-03-18 12:20:00,66.6,47.9,29.88,NE,36,3.0,15.0,51,0.00,,---,0.00,VWS V14.01,2013-03-18 17:20:00,
2013-03-18 12:21:00,66.6,47.9,29.88,NE,41,11.0,19.0,51,0.00,,---,0.00,VWS V14.01,2013-03-18 17:21:00,
2013-03-18 12:22:00,66.5,47.8,29.88,NE,34,8.0,19.0,51,0.00,,---,0.00,VWS V14.01,2013-03-18 17:22:00,
2013-03-18 12:24:00,66.6,48.4,29.88,NE,35,6.0,18.0,52,0.00,,---,0.00,VWS V14.01,2013-03-18 17:24:00,
2013-03-18 12:25:00,66.6,48.4,29.88,NNE,31,9.0,19.0,52,0.00,,---,0.00,VWS V14.01,2013-03-18 17:25:00,
2013-03-18 12:26:00,66.6,48.4,29.88,NE,38,13.0,15.0,52,0.00,,---,0.00,VWS V14.01,2013-03-18 17:26:00,
2013-03-18 12:27:00,66.6,47.9,29.88,North,5,0.0,15.0,51,0.00,,---,0.00,VWS V14.01,2013-03-18 17:27:00,
2013-03-18 12:29:00,66.7,48.5,29.88,NE,50,2.0,13.0,52,0.00,,---,0.00,VWS V14.01,2013-03-18 17:29:00,
2013-03-18 12:30:00,66.6,47.9,29.88,NNW,342,3.0,18.0,51,0.00,,---,0.00,VWS V14.01,2013-03-18 17:30:00,
2013-03-18 12:32:00,66.6,48.4,29.88,NNE,30,2.0,18.0,52,0.00,,---,0.00,VWS V14.01,2013-03-18 17:32:00,
2013-03-18 12:33:00,66.7,48.5,29.88,NE,47,4.0,18.0,52,0.00,,---,0.00,VWS V14.01,2013-03-18 17:33:00,
2013-03-18 12:34:00,66.6,49.0,29.88,NNE,28,7.0,13.0,53,0.00,,---,0.00,VWS V14.01,2013-03-18 17:34:00,
2013-03-18 12:36:00,66.7,48.5,29.88,North,360,11.0,13.0,52,0.00,,---,0.00,VWS V14.01,2013-03-18 17:36:00,
2013-03-18 12:37:00,66.6,48.4,29.88,NNE,16,6.0,13.0,52,0.00,,---,0.00,VWS V14.01,2013-03-18 17:37:00,
2013-03-18 12:39:00,66.6,48.4,29.88,NNW,330,6.0,14.0,52,0.00,,---,0.00,VWS V14.01,2013-03-18 17:39:00,
2013-03-18 12:42:00,66.6,48.4,29.88,NNE,24,11.0,14.0,52,0.00,,---,0.00,VWS V14.01,2013-03-18 17:42:00,
2013-03-18 12:43:00,66.6,48.4,29.88,NNE,25,3.0,14.0,52,0.00,,---,0.00,VWS V14.01,2013-03-18 17:43:00,
2013-03-18 12:44:00,66.9,48.2,29.88,NE,38,9.0,13.0,51,0.00,,---,0.00,VWS V14.01,2013-03-18 17:44:00,
2013-03-18 12:48:00,66.8,48.6,29.88,ENE,59,4.0,13.0,52,0.00,,---,0.00,VWS V14.01,2013-03-18 17:48:00,
2013-03-18 12:49:00,67.2,49.0,29.88,NE,39,4.0,13.0,52,0.00,,---,0.00,VWS V14.01,2013-03-18 17:49:00,
2013-03-18 12:50:00,66.9,48.7,29.88,NNE,23,6.0,13.0,52,0.00,,---,0.00,VWS V14.01,2013-03-18 17:50:00,
2013-03-18 12:51:00,67.0,48.8,29.88,NNE,25,12.0,13.0,52,0.00,,---,0.00,VWS V14.01,2013-03-18 17:51:00,
2013-03-18 12:52:00,67.1,48.4,29.88,NNE,32,0.0,13.0,51,0.00,,---,0.00,VWS V14.01,2013-03-18 17:52:00,
2013-03-18 12:53:00,67.2,49.0,29.88,NNW,336,2.0,13.0,52,0.00,,---,0.00,VWS V14.01,2013-03-18 17:53:00,
2013-03-18 12:54:00,67.4,49.2,29.88,NE,39,1.0,15.0,52,0.00,,---,0.00,VWS V14.01,2013-03-18 17:54:00,
2013-03-18 12:55:00,67.4,49.2,29.88,NNE,30,6.0,13.0,52,0.00,,---,0.00,VWS V14.01,2013-03-18 17:55:00,
2013-03-18 12:56:00,67.4,48.7,29.88,NNE,17,4.0,15.0,51,0.00,,---,0.00,VWS V14.01,2013-03-18 17:56:00,
2013-03-18 12:57:00,67.4,48.7,29.88,NNE,19,4.0,15.0,51,0.00,,---,0.00,VWS V14.01,2013-03-18 17:57:00,
2013-03-18 12:58:00,67.4,48.7,29.88,NNE,24,0.0,15.0,51,0.00,,---,0.00,VWS V14.01,2013-03-18 17:58:00,
2013-03-18 12:59:00,67.7,48.9,29.88,NNW,346,5.0,10.0,51,0.00,,---,0.00,VWS V14.01,2013-03-18 17:59:00,
2013-03-18 13:00:00,67.5,49.3,29.88,NW,326,0.0,15.0,52,0.00,,---,0.00,VWS V14.01,2013-03-18 18:00:00,
2013-03-18 13:01:00,67.6,49.4,29.88,NW,316,0.0,11.0,52,0.00,,---,0.00,VWS V14.01,2013-03-18 18:01:00,
2013-03-18 13:02:00,67.6,48.8,29.88,NW,326,4.0,9.0,51,0.00,,---,0.00,VWS V14.01,2013-03-18 18:02:00,
2013-03-18 13:03:00,67.7,48.9,29.88,NNE,13,9.0,10.0,51,0.00,,---,0.00,VWS V14.01,2013-03-18 18:03:00,
2013-03-18 13:04:00,67.8,49.0,29.89,NE,43,5.0,9.0,51,0.00,,---,0.00,VWS V14.01,2013-03-18 18:04:00,
2013-03-18 13:05:00,67.7,48.9,29.88,North,355,3.0,10.0,51,0.00,,---,0.00,VWS V14.01,2013-03-18 18:05:00,
2013-03-18 13:06:00,67.7,48.4,29.89,NNW,327,5.0,10.0,50,0.00,,---,0.00,VWS V14.01,2013-03-18 18:06:00,
2013-03-18 13:07:00,67.8,49.0,29.89,North,360,3.0,10.0,51,0.00,,---,0.00,VWS V14.01,2013-03-18 18:07:00,
2013-03-18 13:08:00,67.8,49.0,29.89,NE,47,4.0,10.0,51,0.00,,---,0.00,VWS V14.01,2013-03-18 18:08:00,
2013-03-18 13:09:00,68.0,49.2,29.89,NW,311,2.0,11.0,51,0.00,,---,0.00,VWS V14.01,2013-03-18 18:09:00,
2013-03-18 13:10:00,67.8,49.0,29.89,NNE,21,10.0,11.0,51,0.00,,---,0.00,VWS V14.01,2013-03-18 18:10:00,
2013-03-18 13:12:00,67.9,48.6,29.89,NNW,342,4.0,11.0,50,0.00,,---,0.00,VWS V14.01,2013-03-18 18:12:00,
2013-03-18 13:13:00,67.9,49.7,29.89,NNW,329,1.0,11.0,52,0.00,,---,0.00,VWS V14.01,2013-03-18 18:13:00,
2013-03-18 13:14:00,68.1,48.8,29.89,North,355,0.0,13.0,50,0.00,,---,0.00,VWS V14.01,2013-03-18 18:14:00,
2013-03-18 13:15:00,68.0,49.2,29.89,NNE,31,6.0,11.0,51,0.00,,---,0.00,VWS V14.01,2013-03-18 18:15:00,
2013-03-18 13:16:00,68.0,49.2,29.89,NE,47,4.0,11.0,51,0.00,,---,0.00,VWS V14.01,2013-03-18 18:16:00,
2013-03-18 13:17:00,68.1,49.3,29.89,NNE,17,1.0,13.0,51,0.00,,---,0.00,VWS V14.01,2013-03-18 18:17:00,
2013-03-18 13:18:00,68.1,48.8,29.89,NNW,337,7.0,13.0,50,0.00,,---,0.00,VWS V14.01,2013-03-18 18:18:00,
2013-03-18 13:19:00,67.6,48.3,29.88,North,5,5.0,17.0,50,0.00,,---,0.00,VWS V14.01,2013-03-18 18:19:00,
2013-03-18 13:20:00,68.1,48.8,29.89,North,355,5.0,13.0,50,0.00,,---,0.00,VWS V14.01,2013-03-18 18:20:00,
2013-03-18 13:21:00,68.1,48.8,29.89,NE,50,2.0,14.0,50,0.00,,---,0.00,VWS V14.01,2013-03-18 18:21:00,
2013-03-18 13:22:00,68.0,48.7,29.88,NNE,33,17.0,17.0,50,0.00,,---,0.00,VWS V14.01,2013-03-18 18:22:00,
2013-03-18 13:23:00,67.8,48.5,29.88,ENE,75,1.0,17.0,50,0.00,,---,0.00,VWS V14.01,2013-03-18 18:23:00,
2013-03-18 13:24:00,67.5,48.8,29.88,NNW,329,7.0,11.0,51,0.00,,---,0.00,VWS V14.01,2013-03-18 18:24:00,
2013-03-18 13:25:00,67.4,48.7,29.88,NNW,342,9.0,17.0,51,0.00,,---,0.00,VWS V14.01,2013-03-18 18:25:00,
2013-03-18 13:26:00,67.4,48.7,29.88,North,9,1.0,17.0,51,0.00,,---,0.00,VWS V14.01,2013-03-18 18:26:00,
2013-03-18 13:27:00,67.4,49.2,29.88,NNE,30,11.0,17.0,52,0.00,,---,0.00,VWS V14.01,2013-03-18 18:27:00,
2013-03-18 13:28:00,67.4,48.7,29.88,NNW,329,5.0,12.0,51,0.00,,---,0.00,VWS V14.01,2013-03-18 18:28:00,
2013-03-18 13:29:00,67.5,48.2,29.88,North,5,11.0,13.0,50,0.00,,---,0.00,VWS V14.01,2013-03-18 18:29:00,
2013-03-18 13:30:00,67.6,48.8,29.88,NE,36,13.0,13.0,51,0.00,,---,0.00,VWS V14.01,2013-03-18 18:30:00,
2013-03-18 13:31:00,67.5,48.2,29.88,NNE,14,7.0,13.0,50,0.00,,---,0.00,VWS V14.01,2013-03-18 18:31:00,
2013-03-18 13:32:00,67.5,48.2,29.88,North,355,5.0,13.0,50,0.00,,---,0.00,VWS V14.01,2013-03-18 18:32:00,
2013-03-18 13:33:00,67.6,48.8,29.88,North,355,4.0,13.0,51,0.00,,---,0.00,VWS V14.01,2013-03-18 18:33:00,
2013-03-18 13:34:00,67.6,48.3,29.88,ENE,60,3.0,18.0,50,0.00,,---,0.00,VWS V14.01,2013-03-18 18:34:00,
2013-03-18 13:35:00,67.5,48.8,29.88,NNW,333,1.0,13.0,51,0.00,,---,0.00,VWS V14.01,2013-03-18 18:35:00,
2013-03-18 13:36:00,67.5,48.8,29.88,NNE,20,0.0,11.0,51,0.00,,---,0.00,VWS V14.01,2013-03-18 18:36:00,
2013-03-18 13:37:00,67.6,48.8,29.87,NE,42,5.0,11.0,51,0.00,,---,0.00,VWS V14.01,2013-03-18 18:37:00,
2013-03-18 13:38:00,67.6,48.8,29.88,North,10,13.0,18.0,51,0.00,,---,0.00,VWS V14.01,2013-03-18 18:38:00,
2013-03-18 13:39:00,66.5,48.3,29.88,ENE,57,3.0,12.0,52,0.00,,---,0.00,VWS V14.01,2013-03-18 18:39:00,
2013-03-18 13:40:00,67.3,48.0,29.87,ENE,63,0.0,18.0,50,0.00,,---,0.00,VWS V14.01,2013-03-18 18:40:00,
2013-03-18 13:41:00,67.1,48.4,29.87,ENE,63,0.0,18.0,51,0.00,,---,0.00,VWS V14.01,2013-03-18 18:41:00,
2013-03-18 13:42:00,66.8,48.1,29.88,NNE,26,12.0,18.0,51,0.00,,---,0.00,VWS V14.01,2013-03-18 18:42:00,
2013-03-18 13:43:00,66.6,48.4,29.88,ENE,59,2.0,13.0,52,0.00,,---,0.00,VWS V14.01,2013-03-18 18:43:00,
2013-03-18 13:44:00,66.4,48.3,29.88,NE,52,7.0,13.0,52,0.00,,---,0.00,VWS V14.01,2013-03-18 18:44:00,
2013-03-18 13:45:00,66.4,48.3,29.88,ENE,57,2.0,12.0,52,0.00,,---,0.00,VWS V14.01,2013-03-18 18:45:00,
2013-03-18 13:46:00,66.3,48.2,29.88,NE,46,6.0,13.0,52,0.00,,---,0.00,VWS V14.01,2013-03-18 18:46:00,
2013-03-18 13:47:00,66.4,48.8,29.88,NE,55,3.0,13.0,53,0.00,,---,0.00,VWS V14.01,2013-03-18 18:47:00,
2013-03-18 13:48:00,66.4,48.3,29.88,ENE,59,4.0,13.0,52,0.00,,---,0.00,VWS V14.01,2013-03-18 18:48:00,
2013-03-18 13:49:00,66.5,48.9,29.88,NE,46,2.0,15.0,53,0.00,,---,0.00,VWS V14.01,2013-03-18 18:49:00,
2013-03-18 13:51:00,66.4,48.8,29.88,NE,34,6.0,12.0,53,0.00,,---,0.00,VWS V14.01,2013-03-18 18:51:00,
2013-03-18 13:53:00,66.4,48.8,29.88,NE,36,15.0,15.0,53,0.00,,---,0.00,VWS V14.01,2013-03-18 18:53:00,
2013-03-18 13:54:00,66.8,49.1,29.89,NE,46,5.0,11.0,53,0.00,,---,0.00,VWS V14.01,2013-03-18 18:54:00,
2013-03-18 13:55:00,66.5,48.9,29.89,NE,49,3.0,15.0,53,0.00,,---,0.00,VWS V14.01,2013-03-18 18:55:00,
2013-03-18 13:56:00,66.6,49.0,29.89,NE,38,1.0,15.0,53,0.00,,---,0.00,VWS V14.01,2013-03-18 18:56:00,
2013-03-18 13:57:00,66.7,49.5,29.89,NE,49,0.0,15.0,54,0.00,,---,0.00,VWS V14.01,2013-03-18 18:57:00,
2013-03-18 13:58:00,66.7,49.0,29.89,NE,40,7.0,15.0,53,0.00,,---,0.00,VWS V14.01,2013-03-18 18:58:00,
2013-03-18 13:59:00,67.1,48.9,29.88,NE,44,12.0,12.0,52,0.00,,---,0.00,VWS V14.01,2013-03-18 18:59:00,
2013-03-18 14:00:00,66.9,49.2,29.89,NE,39,1.0,11.0,53,0.00,,---,0.00,VWS V14.01,2013-03-18 19:00:00,
2013-03-18 14:01:00,66.9,49.7,29.89,NNE,32,1.0,11.0,54,0.00,,---,0.00,VWS V14.01,2013-03-18 19:01:00,
2013-03-18 14:02:00,67.0,49.3,29.89,NE,38,6.0,11.0,53,0.00,,---,0.00,VWS V14.01,2013-03-18 19:02:00,
2013-03-18 14:03:00,67.1,49.4,29.88,NE,51,2.0,11.0,53,0.00,,---,0.00,VWS V14.01,2013-03-18 19:03:00,
2013-03-18 14:04:00,67.0,48.8,29.88,NE,48,4.0,13.0,52,0.00,,---,0.00,VWS V14.01,2013-03-18 19:04:00,
2013-03-18 14:06:00,66.9,48.7,29.88,NE,55,2.0,12.0,52,0.00,,---,0.00,VWS V14.01,2013-03-18 19:06:00,
2013-03-18 14:07:00,66.9,48.7,29.88,NE,49,13.0,13.0,52,0.00,,---,0.00,VWS V14.01,2013-03-18 19:07:00,
2013-03-18 14:08:00,67.0,48.8,29.88,NE,37,5.0,13.0,52,0.00,,---,0.00,VWS V14.01,2013-03-18 19:08:00,
2013-03-18 14:09:00,67.1,49.4,29.88,NNE,27,2.0,11.0,53,0.00,,---,0.00,VWS V14.01,2013-03-18 19:09:00,
2013-03-18 14:10:00,67.0,48.8,29.88,ENE,63,1.0,13.0,52,0.00,,---,0.00,VWS V14.01,2013-03-18 19:10:00,
2013-03-18 14:11:00,67.0,48.8,29.89,ENE,57,4.0,13.0,52,0.00,,---,0.00,VWS V14.01,2013-03-18 19:11:00,
2013-03-18 14:12:00,67.0,48.8,29.89,North,5,2.0,13.0,52,0.00,,---,0.00,VWS V14.01,2013-03-18 19:12:00,
2013-03-18 14:13:00,67.0,48.8,29.88,North,10,4.0,11.0,52,0.00,,---,0.00,VWS V14.01,2013-03-18 19:13:00,
2013-03-18 14:14:00,67.5,48.2,29.88,ENE,63,0.0,14.0,50,0.00,,---,0.00,VWS V14.01,2013-03-18 19:14:00,
2013-03-18 14:15:00,67.2,49.5,29.88,NE,38,10.0,11.0,53,0.00,,---,0.00,VWS V14.01,2013-03-18 19:15:00,
2013-03-18 14:16:00,67.3,49.1,29.88,NE,36,6.0,11.0,52,0.00,,---,0.00,VWS V14.01,2013-03-18 19:16:00,
2013-03-18 14:17:00,67.5,48.8,29.88,NE,36,9.0,11.0,51,0.00,,---,0.00,VWS V14.01,2013-03-18 19:17:00,
2013-03-18 14:18:00,67.6,48.8,29.88,ENE,65,1.0,14.0,51,0.00,,---,0.00,VWS V14.01,2013-03-18 19:18:00,
2013-03-18 14:19:00,67.4,48.7,29.87,NE,56,1.0,10.0,51,0.00,,---,0.00,VWS V14.01,2013-03-18 19:19:00,
2013-03-18 14:20:00,67.5,48.8,29.88,NE,42,1.0,14.0,51,0.00,,---,0.00,VWS V14.01,2013-03-18 19:20:00,
2013-03-18 14:21:00,67.4,48.7,29.88,ENE,59,0.0,14.0,51,0.00,,---,0.00,VWS V14.01,2013-03-18 19:21:00,
2013-03-18 14:22:00,67.5,48.8,29.88,ENE,63,1.0,14.0,51,0.00,,---,0.00,VWS V14.01,2013-03-18 19:22:00,
2013-03-18 14:24:00,67.4,48.7,29.87,NNW,334,4.0,14.0,51,0.00,,---,0.00,VWS V14.01,2013-03-18 19:24:00,
2013-03-18 14:25:00,67.5,48.8,29.87,NE,34,6.0,10.0,51,0.00,,---,0.00,VWS V14.01,2013-03-18 19:25:00,
2013-03-18 14:26:00,67.4,48.7,29.87,NE,38,10.0,11.0,51,0.00,,---,0.00,VWS V14.01,2013-03-18 19:26:00,
2013-03-18 14:27:00,67.5,48.8,29.87,NE,50,0.0,14.0,51,0.00,,---,0.00,VWS V14.01,2013-03-18 19:27:00,
2013-03-18 14:28:00,67.5,48.8,29.87,ENE,63,2.0,14.0,51,0.00,,---,0.00,VWS V14.01,2013-03-18 19:28:00,
2013-03-18 14:29:00,67.8,49.0,29.87,NE,36,7.0,13.0,51,0.00,,---,0.00,VWS V14.01,2013-03-18 19:29:00,
2013-03-18 14:30:00,67.4,48.7,29.87,NNW,330,6.0,14.0,51,0.00,,---,0.00,VWS V14.01,2013-03-18 19:30:00,
2013-03-18 14:31:00,67.5,48.8,29.87,NE,35,2.0,14.0,51,0.00,,---,0.00,VWS V14.01,2013-03-18 19:31:00,
2013-03-18 14:32:00,67.6,48.8,29.87,NE,34,6.0,13.0,51,0.00,,---,0.00,VWS V14.01,2013-03-18 19:32:00,
2013-03-18 14:33:00,67.7,49.5,29.87,NE,41,10.0,13.0,52,0.00,,---,0.00,VWS V14.01,2013-03-18 19:33:00,
2013-03-18 14:34:00,67.9,48.6,29.87,NE,56,0.0,16.0,50,0.00,,---,0.00,VWS V14.01,2013-03-18 19:34:00,
2013-03-18 14:35:00,67.9,48.6,29.87,ENE,62,0.0,13.0,50,0.00,,---,0.00,VWS V14.01,2013-03-18 19:35:00,
2013-03-18 14:36:00,67.9,49.1,29.87,NE,43,0.0,13.0,51,0.00,,---,0.00,VWS V14.01,2013-03-18 19:36:00,
2013-03-18 14:37:00,67.9,49.1,29.87,NE,39,12.0,13.0,51,0.00,,---,0.00,VWS V14.01,2013-03-18 19:37:00,
2013-03-18 14:38:00,68.0,48.7,29.87,ENE,68,1.0,12.0,50,0.00,,---,0.00,VWS V14.01,2013-03-18 19:38:00,
2013-03-18 14:39:00,67.8,48.5,29.86,NE,42,0.0,14.0,50,0.00,,---,0.00,VWS V14.01,2013-03-18 19:39:00,
2013-03-18 14:40:00,67.9,48.6,29.87,NE,49,2.0,16.0,50,0.00,,---,0.00,VWS V14.01,2013-03-18 19:40:00,
2013-03-18 14:41:00,67.9,48.6,29.87,NE,48,2.0,16.0,50,0.00,,---,0.00,VWS V14.01,2013-03-18 19:41:00,
2013-03-18 14:42:00,67.8,48.5,29.87,NE,45,12.0,16.0,50,0.00,,---,0.00,VWS V14.01,2013-03-18 19:42:00,
2013-03-18 14:44:00,68.0,49.2,29.87,NE,36,6.0,16.0,51,0.00,,---,0.00,VWS V14.01,2013-03-18 19:44:00,
2013-03-18 14:46:00,67.8,48.5,29.86,NE,44,0.0,16.0,50,0.00,,---,0.00,VWS V14.01,2013-03-18 19:46:00,
2013-03-18 14:47:00,67.9,48.6,29.87,NE,35,9.0,16.0,50,0.00,,---,0.00,VWS V14.01,2013-03-18 19:47:00,
2013-03-18 14:48:00,67.9,48.6,29.86,NE,39,13.0,16.0,50,0.00,,---,0.00,VWS V14.01,2013-03-18 19:48:00,
2013-03-18 14:49:00,68.3,49.0,29.87,NNE,31,3.0,15.0,50,0.00,,---,0.00,VWS V14.01,2013-03-18 19:49:00,
2013-03-18 14:50:00,68.0,48.7,29.87,NE,51,0.0,16.0,50,0.00,,---,0.00,VWS V14.01,2013-03-18 19:50:00,
2013-03-18 14:51:00,68.0,48.7,29.86,NNE,28,5.0,13.0,50,0.00,,---,0.00,VWS V14.01,2013-03-18 19:51:00,
2013-03-18 14:52:00,68.1,49.3,29.87,ENE,59,6.0,15.0,51,0.00,,---,0.00,VWS V14.01,2013-03-18 19:52:00,
2013-03-18 14:53:00,68.2,48.9,29.87,NE,47,10.0,15.0,50,0.00,,---,0.00,VWS V14.01,2013-03-18 19:53:00,
2013-03-18 14:54:00,68.2,48.9,29.86,NE,43,11.0,13.0,50,0.00,,---,0.00,VWS V14.01,2013-03-18 19:54:00,
2013-03-18 14:55:00,68.3,49.0,29.87,NE,38,11.0,15.0,50,0.00,,---,0.00,VWS V14.01,2013-03-18 19:55:00,
2013-03-18 14:56:00,68.3,49.0,29.87,ENE,58,2.0,15.0,50,0.00,,---,0.00,VWS V14.01,2013-03-18 19:56:00,
2013-03-18 14:57:00,68.3,49.0,29.86,NE,49,9.0,13.0,50,0.00,,---,0.00,VWS V14.01,2013-03-18 19:57:00,
2013-03-18 14:58:00,68.3,49.0,29.87,NE,46,4.0,13.0,50,0.00,,---,0.00,VWS V14.01,2013-03-18 19:58:00,
2013-03-18 14:59:00,68.4,49.1,29.86,NNE,18,7.0,17.0,50,0.00,,---,0.00,VWS V14.01,2013-03-18 19:59:00,
2013-03-18 15:00:00,68.2,48.9,29.86,NE,49,8.0,15.0,50,0.00,,---,0.00,VWS V14.01,2013-03-18 20:00:00,
2013-03-18 15:01:00,68.3,49.0,29.86,NE,53,0.0,15.0,50,0.00,,---,0.00,VWS V14.01,2013-03-18 20:01:00,
2013-03-18 15:02:00,68.3,49.0,29.86,NE,53,9.0,15.0,50,0.00,,---,0.00,VWS V14.01,2013-03-18 20:02:00,
2013-03-18 15:03:00,68.3,49.0,29.86,ENE,57,1.0,15.0,50,0.00,,---,0.00,VWS V14.01,2013-03-18 20:03:00,
2013-03-18 15:04:00,68.8,49.4,29.86,NE,34,0.0,14.0,50,0.00,,---,0.00,VWS V14.01,2013-03-18 20:04:00,
2013-03-18 15:05:00,68.5,49.2,29.86,NW,325,4.0,17.0,50,0.00,,---,0.00,VWS V14.01,2013-03-18 20:05:00,
2013-03-18 15:06:00,68.6,49.2,29.87,NE,44,9.0,17.0,50,0.00,,---,0.00,VWS V14.01,2013-03-18 20:06:00,
2013-03-18 15:07:00,68.7,49.3,29.86,NE,40,1.0,17.0,50,0.00,,---,0.00,VWS V14.01,2013-03-18 20:07:00,
2013-03-18 15:08:00,68.8,49.4,29.86,NE,56,0.0,17.0,50,0.00,,---,0.00,VWS V14.01,2013-03-18 20:08:00,
2013-03-18 15:09:00,68.9,49.0,29.86,NNE,28,5.0,12.0,49,0.00,,---,0.00,VWS V14.01,2013-03-18 20:09:00,
2013-03-18 15:10:00,68.8,49.4,29.86,NNW,348,3.0,14.0,50,0.00,,---,0.00,VWS V14.01,2013-03-18 20:10:00,
2013-03-18 15:11:00,68.9,49.5,29.86,NNE,32,8.0,9.0,50,0.00,,---,0.00,VWS V14.01,2013-03-18 20:11:00,
2013-03-18 15:12:00,68.9,49.0,29.86,ENE,66,1.0,12.0,49,0.00,,---,0.00,VWS V14.01,2013-03-18 20:12:00,
2013-03-18 15:13:00,68.9,49.0,29.86,ENE,63,2.0,12.0,49,0.00,,---,0.00,VWS V14.01,2013-03-18 20:13:00,
2013-03-18 15:14:00,69.3,49.3,29.86,NE,51,2.0,6.0,49,0.00,,---,0.00,VWS V14.01,2013-03-18 20:14:00,
2013-03-18 15:15:00,68.9,49.5,29.86,North,9,2.0,12.0,50,0.00,,---,0.00,VWS V14.01,2013-03-18 20:15:00,
2013-03-18 15:16:00,69.0,49.6,29.86,NNW,341,0.0,12.0,50,0.00,,---,0.00,VWS V14.01,2013-03-18 20:16:00,
2013-03-18 15:17:00,69.1,49.7,29.86,NNW,341,0.0,10.0,50,0.00,,---,0.00,VWS V14.01,2013-03-18 20:17:00,
2013-03-18 15:18:00,69.2,49.8,29.86,NNW,342,1.0,10.0,50,0.00,,---,0.00,VWS V14.01,2013-03-18 20:18:00,
2013-03-18 15:19:00,69.6,49.6,29.87,NNE,22,4.0,11.0,49,0.00,,---,0.00,VWS V14.01,2013-03-18 20:19:00,
2013-03-18 15:20:00,69.4,49.4,29.86,NE,47,1.0,7.0,49,0.00,,---,0.00,VWS V14.01,2013-03-18 20:20:00,
2013-03-18 15:21:00,69.4,49.4,29.86,NE,52,0.0,7.0,49,0.00,,---,0.00,VWS V14.01,2013-03-18 20:21:00,
2013-03-18 15:22:00,69.5,49.0,29.87,NE,47,7.0,11.0,48,0.00,,---,0.00,VWS V14.01,2013-03-18 20:22:00,
2013-03-18 15:23:00,69.5,49.0,29.86,NE,51,3.0,11.0,48,0.00,,---,0.00,VWS V14.01,2013-03-18 20:23:00,
2013-03-18 15:24:00,69.8,49.2,29.86,NNE,15,2.0,11.0,48,0.00,,---,0.00,VWS V14.01,2013-03-18 20:24:00,
2013-03-18 15:25:00,69.7,49.2,29.87,NE,55,3.0,11.0,48,0.00,,---,0.00,VWS V14.01,2013-03-18 20:25:00,
2013-03-18 15:26:00,69.8,49.2,29.86,North,360,6.0,11.0,48,0.00,,---,0.00,VWS V14.01,2013-03-18 20:26:00,
2013-03-18 15:27:00,69.8,49.2,29.87,North,360,4.0,11.0,48,0.00,,---,0.00,VWS V14.01,2013-03-18 20:27:00,
2013-03-18 15:28:00,69.8,49.2,29.87,NNE,30,1.0,11.0,48,0.00,,---,0.00,VWS V14.01,2013-03-18 20:28:00,
2013-03-18 15:29:00,70.2,49.6,29.86,NE,46,1.0,10.0,48,0.00,,---,0.00,VWS V14.01,2013-03-18 20:29:00,
2013-03-18 15:31:00,69.9,49.9,29.86,NE,46,8.0,10.0,49,0.00,,---,0.00,VWS V14.01,2013-03-18 20:31:00,
2013-03-18 15:32:00,70.0,49.4,29.86,ENE,57,10.0,10.0,48,0.00,,---,0.00,VWS V14.01,2013-03-18 20:32:00,
2013-03-18 15:33:00,70.1,49.5,29.86,NE,46,4.0,10.0,48,0.00,,---,0.00,VWS V14.01,2013-03-18 20:33:00,
2013-03-18 15:34:00,69.6,48.5,29.86,NE,40,8.0,13.0,47,0.00,,---,0.00,VWS V14.01,2013-03-18 20:34:00,
2013-03-18 15:35:00,70.2,49.6,29.86,ENE,65,0.0,13.0,48,0.00,,---,0.00,VWS V14.01,2013-03-18 20:35:00,
2013-03-18 15:36:00,70.1,49.0,29.86,ENE,61,3.0,13.0,47,0.00,,---,0.00,VWS V14.01,2013-03-18 20:36:00,
2013-03-18 15:37:00,70.0,48.9,29.86,NNE,23,12.0,13.0,47,0.00,,---,0.00,VWS V14.01,2013-03-18 20:37:00,
2013-03-18 15:38:00,69.8,48.7,29.86,ENE,69,1.0,13.0,47,0.00,,---,0.00,VWS V14.01,2013-03-18 20:38:00,
2013-03-18 15:39:00,69.7,48.6,29.86,NE,54,0.0,13.0,47,0.00,,---,0.00,VWS V14.01,2013-03-18 20:39:00,
2013-03-18 15:40:00,69.6,48.5,29.86,NE,55,1.0,12.0,47,0.00,,---,0.00,VWS V14.01,2013-03-18 20:40:00,
2013-03-18 15:41:00,69.5,49.0,29.86,NNE,26,0.0,12.0,48,0.00,,---,0.00,VWS V14.01,2013-03-18 20:41:00,
2013-03-18 15:42:00,69.6,49.1,29.86,NE,43,10.0,12.0,48,0.00,,---,0.00,VWS V14.01,2013-03-18 20:42:00,
2013-03-18 15:43:00,69.7,49.2,29.86,ENE,65,0.0,12.0,48,0.00,,---,0.00,VWS V14.01,2013-03-18 20:43:00,
2013-03-18 15:44:00,69.6,48.5,29.86,NE,46,0.0,12.0,47,0.00,,---,0.00,VWS V14.01,2013-03-18 20:44:00,
2013-03-18 15:45:00,69.5,49.0,29.86,NE,34,9.0,14.0,48,0.00,,---,0.00,VWS V14.01,2013-03-18 20:45:00,
2013-03-18 15:46:00,69.5,49.0,29.86,North,5,5.0,14.0,48,0.00,,---,0.00,VWS V14.01,2013-03-18 20:46:00,
2013-03-18 15:48:00,69.5,49.0,29.86,ENE,60,0.0,14.0,48,0.00,,---,0.00,VWS V14.01,2013-03-18 20:48:00,
2013-03-18 15:49:00,69.5,49.0,29.86,NE,50,2.0,14.0,48,0.00,,---,0.00,VWS V14.01,2013-03-18 20:49:00,
2013-03-18 15:50:00,69.5,48.4,29.86,ENE,63,0.0,13.0,47,0.00,,---,0.00,VWS V14.01,2013-03-18 20:50:00,
2013-03-18 15:51:00,69.5,49.0,29.86,North,5,3.0,13.0,48,0.00,,---,0.00,VWS V14.01,2013-03-18 20:51:00,
2013-03-18 15:52:00,69.5,49.0,29.86,NE,56,0.0,13.0,48,0.00,,---,0.00,VWS V14.01,2013-03-18 20:52:00,
2013-03-18 15:53:00,69.6,48.5,29.86,ENE,57,0.0,13.0,47,0.00,,---,0.00,VWS V14.01,2013-03-18 20:53:00,
2013-03-18 15:54:00,69.6,48.5,29.86,ENE,64,0.0,13.0,47,0.00,,---,0.00,VWS V14.01,2013-03-18 20:54:00,
2013-03-18 15:55:00,69.4,48.9,29.87,NE,53,0.0,11.0,48,0.00,,---,0.00,VWS V14.01,2013-03-18 20:55:00,
2013-03-18 15:56:00,69.5,48.4,29.86,NE,53,1.0,12.0,47,0.00,,---,0.00,VWS V14.01,2013-03-18 20:56:00,
2013-03-18 15:57:00,69.4,48.9,29.86,NE,53,0.0,12.0,48,0.00,,---,0.00,VWS V14.01,2013-03-18 20:57:00,
2013-03-18 15:58:00,69.4,48.9,29.86,NE,49,9.0,9.0,48,0.00,,---,0.00,VWS V14.01,2013-03-18 20:58:00,
2013-03-18 15:59:00,69.4,48.9,29.86,NE,46,10.0,10.0,48,0.00,,---,0.00,VWS V14.01,2013-03-18 20:59:00,
2013-03-18 16:00:00,69.7,48.6,29.87,NE,55,3.0,12.0,47,0.00,,---,0.00,VWS V14.01,2013-03-18 21:00:00,
2013-03-18 16:01:00,69.5,49.0,29.87,NE,44,1.0,11.0,48,0.00,,---,0.00,VWS V14.01,2013-03-18 21:01:00,
2013-03-18 16:02:00,69.5,48.4,29.87,NE,39,10.0,11.0,47,0.00,,---,0.00,VWS V14.01,2013-03-18 21:02:00,
2013-03-18 16:03:00,69.6,48.5,29.87,NE,38,7.0,12.0,47,0.00,,---,0.00,VWS V14.01,2013-03-18 21:03:00,
2013-03-18 16:04:00,69.7,48.6,29.87,ENE,57,0.0,12.0,47,0.00,,---,0.00,VWS V14.01,2013-03-18 21:04:00,
2013-03-18 16:05:00,69.9,48.8,29.87,NE,41,4.0,12.0,47,0.00,,---,0.00,VWS V14.01,2013-03-18 21:05:00,
2013-03-18 16:06:00,69.8,48.7,29.87,NE,44,12.0,12.0,47,0.00,,---,0.00,VWS V14.01,2013-03-18 21:06:00,
2013-03-18 16:07:00,69.8,48.7,29.87,ENE,63,0.0,12.0,47,0.00,,---,0.00,VWS V14.01,2013-03-18 21:07:00,
2013-03-18 16:08:00,69.8,48.7,29.87,ENE,60,1.0,12.0,47,0.00,,---,0.00,VWS V14.01,2013-03-18 21:08:00,
2013-03-18 16:09:00,69.9,48.8,29.87,NE,44,1.0,12.0,47,0.00,,---,0.00,VWS V14.01,2013-03-18 21:09:00,
2013-03-18 16:10:00,69.9,48.8,29.87,NE,56,3.0,9.0,47,0.00,,---,0.00,VWS V14.01,2013-03-18 21:10:00,
2013-03-18 16:11:00,70.0,49.4,29.87,NE,55,2.0,10.0,48,0.00,,---,0.00,VWS V14.01,2013-03-18 21:11:00,
2013-03-18 16:12:00,70.0,48.9,29.87,NE,56,1.0,9.0,47,0.00,,---,0.00,VWS V14.01,2013-03-18 21:12:00,
2013-03-18 16:13:00,70.0,48.9,29.87,ENE,58,2.0,9.0,47,0.00,,---,0.00,VWS V14.01,2013-03-18 21:13:00,
2013-03-18 16:14:00,69.9,48.8,29.87,NE,52,6.0,9.0,47,0.00,,---,0.00,VWS V14.01,2013-03-18 21:14:00,
2013-03-18 16:15:00,70.2,49.0,29.87,NE,42,2.0,13.0,47,0.00,,---,0.00,VWS V14.01,2013-03-18 21:15:00,
2013-03-18 16:16:00,69.9,49.3,29.87,NE,46,0.0,9.0,48,0.00,,---,0.00,VWS V14.01,2013-03-18 21:16:00,
2013-03-18 16:17:00,69.9,49.3,29.87,NE,53,3.0,6.0,48,0.00,,---,0.00,VWS V14.01,2013-03-18 21:17:00,
2013-03-18 16:18:00,70.0,49.4,29.87,NNE,24,1.0,10.0,48,0.00,,---,0.00,VWS V14.01,2013-03-18 21:18:00,
2013-03-18 16:19:00,70.1,49.0,29.88,NE,51,5.0,13.0,47,0.00,,---,0.00,VWS V14.01,2013-03-18 21:19:00,
2013-03-18 16:20:00,70.3,48.6,29.88,NNE,17,4.0,8.0,46,0.00,,---,0.00,VWS V14.01,2013-03-18 21:20:00,
2013-03-18 16:21:00,70.4,48.7,29.87,NE,56,1.0,13.0,46,0.00,,---,0.00,VWS V14.01,2013-03-18 21:21:00,
2013-03-18 16:22:00,70.4,48.7,29.87,NNW,344,2.0,13.0,46,0.00,,---,0.00,VWS V14.01,2013-03-18 21:22:00,
2013-03-18 16:23:00,70.4,48.7,29.87,ENE,63,3.0,13.0,46,0.00,,---,0.00,VWS V14.01,2013-03-18 21:23:00,
2013-03-18 16:24:00,70.4,48.7,29.87,NE,50,2.0,8.0,46,0.00,,---,0.00,VWS V14.01,2013-03-18 21:24:00,
2013-03-18 16:25:00,70.3,49.1,29.88,NE,44,8.0,8.0,47,0.00,,---,0.00,VWS V14.01,2013-03-18 21:25:00,
2013-03-18 16:26:00,70.3,48.6,29.88,NNE,33,0.0,8.0,46,0.00,,---,0.00,VWS V14.01,2013-03-18 21:26:00,
2013-03-18 16:27:00,70.3,49.1,29.88,NE,42,0.0,8.0,47,0.00,,---,0.00,VWS V14.01,2013-03-18 21:27:00,
2013-03-18 16:28:00,70.3,48.6,29.88,NE,55,0.0,8.0,46,0.00,,---,0.00,VWS V14.01,2013-03-18 21:28:00,
2013-03-18 16:29:00,70.3,48.6,29.88,NE,55,2.0,6.0,46,0.00,,---,0.00,VWS V14.01,2013-03-18 21:29:00,
2013-03-18 16:30:00,70.4,48.7,29.88,NE,46,4.0,11.0,46,0.00,,---,0.00,VWS V14.01,2013-03-18 21:30:00,
2013-03-18 16:31:00,70.3,48.6,29.88,NNE,17,3.0,8.0,46,0.00,,---,0.00,VWS V14.01,2013-03-18 21:31:00,
2013-03-18 16:32:00,70.4,48.7,29.88,NE,55,3.0,9.0,46,0.00,,---,0.00,VWS V14.01,2013-03-18 21:32:00,
2013-03-18 16:33:00,70.4,48.7,29.87,NE,38,5.0,9.0,46,0.00,,---,0.00,VWS V14.01,2013-03-18 21:33:00,
2013-03-18 16:34:00,70.4,48.7,29.88,ENE,71,1.0,9.0,46,0.00,,---,0.00,VWS V14.01,2013-03-18 21:34:00,
2013-03-18 16:35:00,70.3,48.6,29.88,NE,34,4.0,11.0,46,0.00,,---,0.00,VWS V14.01,2013-03-18 21:35:00,
2013-03-18 16:36:00,70.4,48.7,29.88,NE,55,1.0,11.0,46,0.00,,---,0.00,VWS V14.01,2013-03-18 21:36:00,
2013-03-18 16:37:00,70.4,48.1,29.88,ENE,57,1.0,11.0,45,0.00,,---,0.00,VWS V14.01,2013-03-18 21:37:00,
2013-03-18 16:38:00,70.3,48.6,29.88,NNE,22,5.0,11.0,46,0.00,,---,0.00,VWS V14.01,2013-03-18 21:38:00,
2013-03-18 16:39:00,70.3,48.6,29.88,NNE,20,7.0,11.0,46,0.00,,---,0.00,VWS V14.01,2013-03-18 21:39:00,
2013-03-18 16:40:00,70.5,48.8,29.88,NE,44,0.0,12.0,46,0.00,,---,0.00,VWS V14.01,2013-03-18 21:40:00,
2013-03-18 16:41:00,70.4,48.7,29.88,NE,44,12.0,12.0,46,0.00,,---,0.00,VWS V14.01,2013-03-18 21:41:00,
2013-03-18 16:42:00,70.5,48.8,29.87,NE,42,0.0,12.0,46,0.00,,---,0.00,VWS V14.01,2013-03-18 21:42:00,
2013-03-18 16:43:00,70.5,48.8,29.88,NE,42,5.0,12.0,46,0.00,,---,0.00,VWS V14.01,2013-03-18 21:43:00,
2013-03-18 16:44:00,70.5,48.8,29.88,NE,43,1.0,12.0,46,0.00,,---,0.00,VWS V14.01,2013-03-18 21:44:00,
2013-03-18 16:45:00,70.7,48.9,29.88,NE,42,10.0,10.0,46,0.00,,---,0.00,VWS V14.01,2013-03-18 21:45:00,
2013-03-18 16:46:00,70.5,48.8,29.88,NE,38,4.0,12.0,46,0.00,,---,0.00,VWS V14.01,2013-03-18 21:46:00,
2013-03-18 16:47:00,70.5,48.8,29.88,NE,41,6.0,7.0,46,0.00,,---,0.00,VWS V14.01,2013-03-18 21:47:00,
2013-03-18 16:48:00,70.6,48.8,29.87,ENE,59,0.0,9.0,46,0.00,,---,0.00,VWS V14.01,2013-03-18 21:48:00,
2013-03-18 16:49:00,70.7,48.9,29.88,NE,41,2.0,9.0,46,0.00,,---,0.00,VWS V14.01,2013-03-18 21:49:00,
2013-03-18 16:50:00,71.1,48.7,29.88,NNE,32,6.0,13.0,45,0.00,,---,0.00,VWS V14.01,2013-03-18 21:50:00,
2013-03-18 16:51:00,70.8,48.4,29.88,NNE,13,5.0,13.0,45,0.00,,---,0.00,VWS V14.01,2013-03-18 21:51:00,
2013-03-18 16:52:00,70.9,48.5,29.88,NNE,13,0.0,13.0,45,0.00,,---,0.00,VWS V14.01,2013-03-18 21:52:00,
2013-03-18 16:53:00,71.0,48.6,29.88,NNE,28,0.0,13.0,45,0.00,,---,0.00,VWS V14.01,2013-03-18 21:53:00,
2013-03-18 16:54:00,71.0,48.6,29.88,NE,38,3.0,13.0,45,0.00,,---,0.00,VWS V14.01,2013-03-18 21:54:00,
2013-03-18 16:55:00,71.4,48.4,29.89,NE,54,3.0,11.0,44,0.00,,---,0.00,VWS V14.01,2013-03-18 21:55:00,
2013-03-18 16:56:00,71.2,48.8,29.88,ENE,58,0.0,12.0,45,0.00,,---,0.00,VWS V14.01,2013-03-18 21:56:00,
2013-03-18 16:57:00,71.3,48.9,29.88,NNW,344,7.0,8.0,45,0.00,,---,0.00,VWS V14.01,2013-03-18 21:57:00,
2013-03-18 16:58:00,71.3,48.9,29.88,NNW,344,2.0,11.0,45,0.00,,---,0.00,VWS V14.01,2013-03-18 21:58:00,
2013-03-18 16:59:00,71.4,48.4,29.88,North,360,3.0,11.0,44,0.00,,---,0.00,VWS V14.01,2013-03-18 21:59:00,
2013-03-18 17:00:00,71.7,48.0,29.88,NNE,26,1.0,12.0,43,0.00,,---,0.00,VWS V14.01,2013-03-18 22:00:00,
2013-03-18 17:01:00,71.5,47.8,29.88,NE,44,3.0,11.0,43,0.00,,---,0.00,VWS V14.01,2013-03-18 22:01:00,
2013-03-18 17:02:00,71.5,48.5,29.88,NE,46,1.0,11.0,44,0.00,,---,0.00,VWS V14.01,2013-03-18 22:02:00,
2013-03-18 17:03:00,71.6,47.9,29.88,NE,53,3.0,10.0,43,0.00,,---,0.00,VWS V14.01,2013-03-18 22:03:00,
2013-03-18 17:04:00,71.7,48.0,29.88,NNE,22,7.0,11.0,43,0.00,,---,0.00,VWS V14.01,2013-03-18 22:04:00,
2013-03-18 17:05:00,71.7,48.7,29.88,NNE,25,6.0,11.0,44,0.00,,---,0.00,VWS V14.01,2013-03-18 22:05:00,
2013-03-18 17:06:00,71.7,48.0,29.88,North,5,4.0,12.0,43,0.00,,---,0.00,VWS V14.01,2013-03-18 22:06:00,
2013-03-18 17:07:00,71.7,48.0,29.88,NE,45,1.0,12.0,43,0.00,,---,0.00,VWS V14.01,2013-03-18 22:07:00,
2013-03-18 17:08:00,71.7,48.0,29.88,NE,53,0.0,12.0,43,0.00,,---,0.00,VWS V14.01,2013-03-18 22:08:00,
2013-03-18 17:09:00,71.8,48.1,29.88,NE,44,7.0,12.0,43,0.00,,---,0.00,VWS V14.01,2013-03-18 22:09:00,
2013-03-18 17:10:00,71.8,48.1,29.88,NNE,31,4.0,10.0,43,0.00,,---,0.00,VWS V14.01,2013-03-18 22:10:00,
2013-03-18 17:11:00,71.7,48.0,29.88,NNW,340,2.0,11.0,43,0.00,,---,0.00,VWS V14.01,2013-03-18 22:11:00,
2013-03-18 17:12:00,71.8,48.1,29.88,NE,37,4.0,11.0,43,0.00,,---,0.00,VWS V14.01,2013-03-18 22:12:00,
2013-03-18 17:13:00,71.8,48.1,29.88,NE,41,6.0,11.0,43,0.00,,---,0.00,VWS V14.01,2013-03-18 22:13:00,
2013-03-18 17:14:00,71.8,48.1,29.88,NNE,26,5.0,11.0,43,0.00,,---,0.00,VWS V14.01,2013-03-18 22:14:00,
2013-03-18 17:15:00,71.7,48.0,29.88,NNE,26,0.0,14.0,43,0.00,,---,0.00,VWS V14.01,2013-03-18 22:15:00,
2013-03-18 17:16:00,71.8,48.1,29.88,ENE,59,6.0,14.0,43,0.00,,---,0.00,VWS V14.01,2013-03-18 22:16:00,
2013-03-18 17:17:00,71.7,47.4,29.88,NE,53,12.0,14.0,42,0.00,,---,0.00,VWS V14.01,2013-03-18 22:17:00,
2013-03-18 17:18:00,71.7,47.4,29.88,NE,40,7.0,14.0,42,0.00,,---,0.00,VWS V14.01,2013-03-18 22:18:00,
2013-03-18 17:19:00,71.7,47.4,29.88,NNE,21,1.0,14.0,42,0.00,,---,0.00,VWS V14.01,2013-03-18 22:19:00,
2013-03-18 17:20:00,71.5,47.8,29.88,NNE,23,4.0,11.0,43,0.00,,---,0.00,VWS V14.01,2013-03-18 22:20:00,
2013-03-18 17:21:00,71.6,47.9,29.88,NNE,32,4.0,12.0,43,0.00,,---,0.00,VWS V14.01,2013-03-18 22:21:00,
2013-03-18 17:22:00,71.6,47.9,29.88,North,355,3.0,12.0,43,0.00,,---,0.00,VWS V14.01,2013-03-18 22:22:00,
2013-03-18 17:23:00,71.6,47.9,29.87,NNE,25,2.0,11.0,43,0.00,,---,0.00,VWS V14.01,2013-03-18 22:23:00,
2013-03-18 17:24:00,71.5,47.8,29.88,NNE,24,1.0,11.0,43,0.00,,---,0.00,VWS V14.01,2013-03-18 22:24:00,
2013-03-18 17:25:00,71.3,47.7,29.88,NE,36,5.0,11.0,43,0.00,,---,0.00,VWS V14.01,2013-03-18 22:25:00,
2013-03-18 17:26:00,71.4,47.8,29.88,NE,38,6.0,11.0,43,0.00,,---,0.00,VWS V14.01,2013-03-18 22:26:00,
2013-03-18 17:27:00,71.4,47.8,29.88,North,355,1.0,11.0,43,0.00,,---,0.00,VWS V14.01,2013-03-18 22:27:00,
2013-03-18 17:28:00,71.3,47.7,29.88,NNE,19,3.0,9.0,43,0.00,,---,0.00,VWS V14.01,2013-03-18 22:28:00,
2013-03-18 17:29:00,71.3,47.7,29.88,ENE,58,3.0,9.0,43,0.00,,---,0.00,VWS V14.01,2013-03-18 22:29:00,
2013-03-18 17:30:00,70.9,47.9,29.88,NE,50,9.0,12.0,44,0.00,,---,0.00,VWS V14.01,2013-03-18 22:30:00,
2013-03-18 17:31:00,71.3,47.7,29.88,NE,52,0.0,12.0,43,0.00,,---,0.00,VWS V14.01,2013-03-18 22:31:00,
2013-03-18 17:32:00,71.3,47.7,29.87,NE,51,4.0,12.0,43,0.00,,---,0.00,VWS V14.01,2013-03-18 22:32:00,
2013-03-18 17:33:00,71.2,48.2,29.87,NE,50,1.0,12.0,44,0.00,,---,0.00,VWS V14.01,2013-03-18 22:33:00,
2013-03-18 17:34:00,71.1,48.1,29.88,NE,56,3.0,12.0,44,0.00,,---,0.00,VWS V14.01,2013-03-18 22:34:00,
2013-03-18 17:35:00,70.6,47.7,29.88,NE,53,11.0,12.0,44,0.00,,---,0.00,VWS V14.01,2013-03-18 22:35:00,
2013-03-18 17:36:00,70.8,47.8,29.88,NE,45,4.0,12.0,44,0.00,,---,0.00,VWS V14.01,2013-03-18 22:36:00,
2013-03-18 17:37:00,70.7,47.7,29.88,NE,40,7.0,12.0,44,0.00,,---,0.00,VWS V14.01,2013-03-18 22:37:00,
2013-03-18 17:38:00,70.6,47.7,29.88,NE,46,8.0,12.0,44,0.00,,---,0.00,VWS V14.01,2013-03-18 22:38:00,
2013-03-18 17:39:00,70.6,47.7,29.89,NE,42,8.0,12.0,44,0.00,,---,0.00,VWS V14.01,2013-03-18 22:39:00,
2013-03-18 17:40:00,70.6,48.2,29.88,NE,47,6.0,11.0,45,0.00,,---,0.00,VWS V14.01,2013-03-18 22:40:00,
2013-03-18 17:41:00,70.6,47.7,29.88,NE,45,9.0,12.0,44,0.00,,---,0.00,VWS V14.01,2013-03-18 22:41:00,
2013-03-18 17:43:00,70.6,48.2,29.88,NE,42,1.0,12.0,45,0.00,,---,0.00,VWS V14.01,2013-03-18 22:43:00,
2013-03-18 17:44:00,70.6,48.2,29.88,NE,44,1.0,12.0,45,0.00,,---,0.00,VWS V14.01,2013-03-18 22:44:00,
2013-03-18 17:45:00,70.4,48.1,29.89,North,11,1.0,10.0,45,0.00,,---,0.00,VWS V14.01,2013-03-18 22:45:00,
2013-03-18 17:46:00,70.6,48.2,29.88,NNE,28,10.0,10.0,45,0.00,,---,0.00,VWS V14.01,2013-03-18 22:46:00,
2013-03-18 17:47:00,70.6,47.7,29.89,NE,56,5.0,10.0,44,0.00,,---,0.00,VWS V14.01,2013-03-18 22:47:00,
2013-03-18 17:48:00,70.5,48.2,29.88,NE,54,3.0,10.0,45,0.00,,---,0.00,VWS V14.01,2013-03-18 22:48:00,
2013-03-18 17:49:00,70.4,48.1,29.89,North,11,1.0,10.0,45,0.00,,---,0.00,VWS V14.01,2013-03-18 22:49:00,
2013-03-18 17:50:00,70.2,47.3,29.89,NNE,24,6.0,11.0,44,0.00,,---,0.00,VWS V14.01,2013-03-18 22:50:00,
2013-03-18 17:51:00,70.4,48.1,29.89,NE,51,0.0,9.0,45,0.00,,---,0.00,VWS V14.01,2013-03-18 22:51:00,
2013-03-18 17:52:00,70.4,48.1,29.88,ENE,64,0.0,11.0,45,0.00,,---,0.00,VWS V14.01,2013-03-18 22:52:00,
2013-03-18 17:53:00,70.3,47.4,29.89,NNE,12,0.0,11.0,44,0.00,,---,0.00,VWS V14.01,2013-03-18 22:53:00,
2013-03-18 17:54:00,70.3,47.4,29.89,North,360,4.0,11.0,44,0.00,,---,0.00,VWS V14.01,2013-03-18 22:54:00,
2013-03-18 17:55:00,69.9,47.6,29.89,ENE,57,0.0,11.0,45,0.00,,---,0.00,VWS V14.01,2013-03-18 22:55:00,
2013-03-18 17:56:00,70.2,47.3,29.89,NE,34,0.0,11.0,44,0.00,,---,0.00,VWS V14.01,2013-03-18 22:56:00,
2013-03-18 17:58:00,70.1,47.2,29.89,NE,45,0.0,8.0,44,0.00,,---,0.00,VWS V14.01,2013-03-18 22:58:00,
2013-03-18 17:59:00,70.0,47.7,29.89,NE,50,4.0,8.0,45,0.00,,---,0.00,VWS V14.01,2013-03-18 22:59:00,
2013-03-18 18:00:00,69.2,47.6,29.89,NE,53,1.0,10.0,46,0.00,,---,0.00,VWS V14.01,2013-03-18 23:00:00,
2013-03-18 18:01:00,69.8,47.5,29.89,NE,55,4.0,11.0,45,0.00,,---,0.00,VWS V14.01,2013-03-18 23:01:00,
2013-03-18 18:02:00,69.7,47.4,29.89,NE,56,1.0,11.0,45,0.00,,---,0.00,VWS V14.01,2013-03-18 23:02:00,
2013-03-18 18:03:00,69.5,47.2,29.89,NE,48,2.0,11.0,45,0.00,,---,0.00,VWS V14.01,2013-03-18 23:03:00,
2013-03-18 18:04:00,69.4,47.7,29.89,ENE,57,0.0,11.0,46,0.00,,---,0.00,VWS V14.01,2013-03-18 23:04:00,
2013-03-18 18:05:00,68.6,47.6,29.89,NE,41,11.0,13.0,47,0.00,,---,0.00,VWS V14.01,2013-03-18 23:05:00,
2013-03-18 18:06:00,69.1,47.5,29.89,NE,56,1.0,10.0,46,0.00,,---,0.00,VWS V14.01,2013-03-18 23:06:00,
2013-03-18 18:07:00,68.9,47.3,29.89,NE,51,2.0,10.0,46,0.00,,---,0.00,VWS V14.01,2013-03-18 23:07:00,
2013-03-18 18:09:00,68.6,47.6,29.89,ENE,64,2.0,13.0,47,0.00,,---,0.00,VWS V14.01,2013-03-18 23:09:00,
2013-03-18 18:10:00,68.4,47.4,29.89,NE,42,9.0,15.0,47,0.00,,---,0.00,VWS V14.01,2013-03-18 23:10:00,
2013-03-18 18:11:00,68.5,47.5,29.89,NE,56,2.0,15.0,47,0.00,,---,0.00,VWS V14.01,2013-03-18 23:11:00,
2013-03-18 18:12:00,68.5,47.5,29.89,ENE,65,0.0,15.0,47,0.00,,---,0.00,VWS V14.01,2013-03-18 23:12:00,
2013-03-18 18:14:00,68.4,47.4,29.89,ENE,60,1.0,15.0,47,0.00,,---,0.00,VWS V14.01,2013-03-18 23:14:00,
2013-03-18 18:15:00,68.3,47.3,29.89,NE,51,1.0,9.0,47,0.00,,---,0.00,VWS V14.01,2013-03-18 23:15:00,
2013-03-18 18:16:00,68.3,46.7,29.89,NE,45,5.0,11.0,46,0.00,,---,0.00,VWS V14.01,2013-03-18 23:16:00,
2013-03-18 18:17:00,68.3,46.7,29.89,ENE,59,2.0,11.0,46,0.00,,---,0.00,VWS V14.01,2013-03-18 23:17:00,
2013-03-18 18:18:00,68.3,46.7,29.89,NE,55,0.0,11.0,46,0.00,,---,0.00,VWS V14.01,2013-03-18 23:18:00,
2013-03-18 18:19:00,68.3,46.7,29.89,NE,38,4.0,11.0,46,0.00,,---,0.00,VWS V14.01,2013-03-18 23:19:00,
2013-03-18 18:20:00,68.1,47.1,29.89,NE,49,3.0,6.0,47,0.00,,---,0.00,VWS V14.01,2013-03-18 23:20:00,
2013-03-18 18:21:00,68.3,47.3,29.89,NE,50,0.0,9.0,47,0.00,,---,0.00,VWS V14.01,2013-03-18 23:21:00,
2013-03-18 18:22:00,68.2,47.2,29.89,ENE,66,0.0,8.0,47,0.00,,---,0.00,VWS V14.01,2013-03-18 23:22:00,
2013-03-18 18:23:00,68.2,47.2,29.88,NE,47,3.0,8.0,47,0.00,,---,0.00,VWS V14.01,2013-03-18 23:23:00,
2013-03-18 18:24:00,68.2,47.2,29.89,NE,47,0.0,6.0,47,0.00,,---,0.00,VWS V14.01,2013-03-18 23:24:00,
2013-03-18 18:25:00,68.1,47.1,29.89,NE,44,4.0,10.0,47,0.00,,---,0.00,VWS V14.01,2013-03-18 23:25:00,
2013-03-18 18:26:00,68.1,47.1,29.89,NE,42,2.0,6.0,47,0.00,,---,0.00,VWS V14.01,2013-03-18 23:26:00,
2013-03-18 18:27:00,68.1,46.6,29.89,NE,40,6.0,6.0,46,0.00,,---,0.00,VWS V14.01,2013-03-18 23:27:00,
2013-03-18 18:28:00,68.1,46.6,29.89,NE,40,0.0,6.0,46,0.00,,---,0.00,VWS V14.01,2013-03-18 23:28:00,
2013-03-18 18:29:00,68.1,46.6,29.89,NE,38,7.0,10.0,46,0.00,,---,0.00,VWS V14.01,2013-03-18 23:29:00,
2013-03-18 18:30:00,68.0,47.0,29.88,NE,49,3.0,13.0,47,0.00,,---,0.00,VWS V14.01,2013-03-18 23:30:00,
2013-03-18 18:32:00,68.0,46.5,29.89,NE,37,4.0,13.0,46,0.00,,---,0.00,VWS V14.01,2013-03-18 23:32:00,
2013-03-18 18:35:00,68.0,47.0,29.89,NE,45,2.0,13.0,47,0.00,,---,0.00,VWS V14.01,2013-03-18 23:35:00,
2013-03-18 18:36:00,67.7,46.8,29.89,NE,51,5.0,12.0,47,0.00,,---,0.00,VWS V14.01,2013-03-18 23:36:00,
2013-03-18 18:37:00,67.9,46.4,29.89,NE,43,9.0,12.0,46,0.00,,---,0.00,VWS V14.01,2013-03-18 23:37:00,
2013-03-18 18:38:00,67.9,47.0,29.89,NE,47,1.0,12.0,47,0.00,,---,0.00,VWS V14.01,2013-03-18 23:38:00,
2013-03-18 18:39:00,67.8,46.9,29.89,NNE,27,6.0,12.0,47,0.00,,---,0.00,VWS V14.01,2013-03-18 23:39:00,
2013-03-18 18:41:00,67.6,46.1,29.89,NE,47,8.0,13.0,46,0.00,,---,0.00,VWS V14.01,2013-03-18 23:41:00,
2013-03-18 18:42:00,67.7,46.8,29.89,NE,51,10.0,12.0,47,0.00,,---,0.00,VWS V14.01,2013-03-18 23:42:00,
2013-03-18 18:43:00,67.7,46.8,29.89,NE,44,10.0,13.0,47,0.00,,---,0.00,VWS V14.01,2013-03-18 23:43:00,
2013-03-18 18:45:00,67.6,46.7,29.89,NNE,31,8.0,13.0,47,0.00,,---,0.00,VWS V14.01,2013-03-18 23:45:00,
2013-03-18 18:46:00,67.2,46.3,29.90,NE,47,2.0,12.0,47,0.00,,---,0.00,VWS V14.01,2013-03-18 23:46:00,
2013-03-18 18:48:00,67.4,46.5,29.89,NE,53,0.0,13.0,47,0.00,,---,0.00,VWS V14.01,2013-03-18 23:48:00,
2013-03-18 18:49:00,67.3,46.4,29.89,NE,48,1.0,13.0,47,0.00,,---,0.00,VWS V14.01,2013-03-18 23:49:00,
2013-03-18 18:50:00,67.2,46.3,29.89,NE,47,1.0,13.0,47,0.00,,---,0.00,VWS V14.01,2013-03-18 23:50:00,
2013-03-18 18:51:00,67.0,46.1,29.90,NE,55,1.0,7.0,47,0.00,,---,0.00,VWS V14.01,2013-03-18 23:51:00,
2013-03-18 18:53:00,67.1,46.2,29.90,NE,49,4.0,7.0,47,0.00,,---,0.00,VWS V14.01,2013-03-18 23:53:00,
2013-03-18 18:54:00,67.1,46.2,29.90,NE,52,0.0,7.0,47,0.00,,---,0.00,VWS V14.01,2013-03-18 23:54:00,
2013-03-18 18:55:00,67.0,46.1,29.90,NE,53,1.0,7.0,47,0.00,,---,0.00,VWS V14.01,2013-03-18 23:55:00,
2013-03-18 18:56:00,66.7,45.8,29.90,NNE,26,2.0,10.0,47,0.00,,---,0.00,VWS V14.01,2013-03-18 23:56:00,
2013-03-18 18:57:00,66.9,46.0,29.90,NE,45,4.0,10.0,47,0.00,,---,0.00,VWS V14.01,2013-03-18 23:57:00,
2013-03-18 18:58:00,66.8,45.9,29.90,NE,44,0.0,10.0,47,0.00,,---,0.00,VWS V14.01,2013-03-18 23:58:00,
2013-03-18 18:59:00,66.8,45.9,29.90,NNE,32,7.0,10.0,47,0.00,,---,0.00,VWS V14.01,2013-03-18 23:59:00,
2013-03-18 19:00:00,66.8,45.9,29.90,NNE,26,1.0,10.0,47,0.00,,---,0.00,VWS V14.01,2013-03-19 00:00:00,
2013-03-18 19:01:00,66.6,46.3,29.91,ENE,61,1.0,9.0,48,0.00,,---,0.00,VWS V14.01,2013-03-19 00:01:00,
2013-03-18 19:04:00,66.7,46.4,29.91,NE,41,0.0,9.0,48,0.00,,---,0.00,VWS V14.01,2013-03-19 00:04:00,
2013-03-18 19:06:00,66.4,46.1,29.91,NE,51,4.0,12.0,48,0.00,,---,0.00,VWS V14.01,2013-03-19 00:06:00,
2013-03-18 19:08:00,66.5,45.7,29.91,NE,48,0.0,12.0,47,0.00,,---,0.00,VWS V14.01,2013-03-19 00:08:00,
2013-03-18 19:09:00,66.5,45.7,29.91,NE,50,0.0,12.0,47,0.00,,---,0.00,VWS V14.01,2013-03-19 00:09:00,
2013-03-18 19:11:00,66.1,45.9,29.91,NE,40,0.0,11.0,48,0.00,,---,0.00,VWS V14.01,2013-03-19 00:11:00,
2013-03-18 19:12:00,66.3,46.0,29.91,NE,44,7.0,11.0,48,0.00,,---,0.00,VWS V14.01,2013-03-19 00:12:00,
2013-03-18 19:14:00,66.2,46.0,29.91,NE,38,5.0,11.0,48,0.00,,---,0.00,VWS V14.01,2013-03-19 00:14:00,
2013-03-18 19:16:00,65.9,45.7,29.91,NE,43,0.0,7.0,48,0.00,,---,0.00,VWS V14.01,2013-03-19 00:16:00,
2013-03-18 19:17:00,66.1,45.9,29.91,NE,38,2.0,10.0,48,0.00,,---,0.00,VWS V14.01,2013-03-19 00:17:00,
2013-03-18 19:19:00,66.0,45.8,29.92,NE,39,5.0,7.0,48,0.00,,---,0.00,VWS V14.01,2013-03-19 00:19:00,
2013-03-18 19:20:00,65.9,45.7,29.92,NE,43,2.0,7.0,48,0.00,,---,0.00,VWS V14.01,2013-03-19 00:20:00,
2013-03-18 19:21:00,65.6,45.4,29.92,NNE,23,0.0,7.0,48,0.00,,---,0.00,VWS V14.01,2013-03-19 00:21:00,
2013-03-18 19:23:00,65.8,45.6,29.91,NNE,28,2.0,7.0,48,0.00,,---,0.00,VWS V14.01,2013-03-19 00:23:00,
2013-03-18 19:26:00,65.5,45.3,29.92,NE,38,2.0,9.0,48,0.00,,---,0.00,VWS V14.01,2013-03-19 00:26:00,
2013-03-18 19:27:00,65.6,45.4,29.92,NE,45,4.0,9.0,48,0.00,,---,0.00,VWS V14.01,2013-03-19 00:27:00,
2013-03-18 19:28:00,65.6,45.4,29.92,NE,46,1.0,9.0,48,0.00,,---,0.00,VWS V14.01,2013-03-19 00:28:00,
2013-03-18 19:29:00,65.6,45.4,29.93,NE,37,1.0,9.0,48,0.00,,---,0.00,VWS V14.01,2013-03-19 00:29:00,
2013-03-18 19:30:00,65.5,45.3,29.92,NE,37,1.0,9.0,48,0.00,,---,0.00,VWS V14.01,2013-03-19 00:30:00,
2013-03-18 19:31:00,65.5,45.3,29.93,NE,34,3.0,9.0,48,0.00,,---,0.00,VWS V14.01,2013-03-19 00:31:00,
2013-03-18 19:32:00,65.3,45.1,29.93,North,11,3.0,6.0,48,0.00,,---,0.00,VWS V14.01,2013-03-19 00:32:00,
2013-03-18 19:33:00,65.5,45.3,29.93,NE,44,4.0,6.0,48,0.00,,---,0.00,VWS V14.01,2013-03-19 00:33:00,
2013-03-18 19:34:00,65.4,45.2,29.93,North,5,3.0,6.0,48,0.00,,---,0.00,VWS V14.01,2013-03-19 00:34:00,
2013-03-18 19:35:00,65.4,45.2,29.92,North,10,0.0,6.0,48,0.00,,---,0.00,VWS V14.01,2013-03-19 00:35:00,
2013-03-18 19:37:00,65.0,44.8,29.93,North,5,3.0,6.0,48,0.00,,---,0.00,VWS V14.01,2013-03-19 00:37:00,
2013-03-18 19:40:00,65.1,44.9,29.93,NNE,30,0.0,6.0,48,0.00,,---,0.00,VWS V14.01,2013-03-19 00:40:00,
2013-03-18 19:42:00,64.8,45.7,29.93,NE,44,2.0,7.0,50,0.00,,---,0.00,VWS V14.01,2013-03-19 00:42:00,
2013-03-18 19:43:00,64.9,45.3,29.93,NNE,28,2.0,7.0,49,0.00,,---,0.00,VWS V14.01,2013-03-19 00:43:00,
2013-03-18 19:44:00,64.9,45.3,29.93,NE,37,0.0,7.0,49,0.00,,---,0.00,VWS V14.01,2013-03-19 00:44:00,
2013-03-18 19:46:00,64.8,45.7,29.93,NE,48,3.0,7.0,50,0.00,,---,0.00,VWS V14.01,2013-03-19 00:46:00,
2013-03-18 19:47:00,64.5,45.5,29.94,NNE,31,4.0,10.0,50,0.00,,---,0.00,VWS V14.01,2013-03-19 00:47:00,
2013-03-18 19:48:00,64.7,45.7,29.94,NNE,31,10.0,10.0,50,0.00,,---,0.00,VWS V14.01,2013-03-19 00:48:00,
2013-03-18 19:49:00,64.6,45.6,29.93,NNE,32,1.0,10.0,50,0.00,,---,0.00,VWS V14.01,2013-03-19 00:49:00,
2013-03-18 19:50:00,64.5,45.5,29.94,NE,34,3.0,10.0,50,0.00,,---,0.00,VWS V14.01,2013-03-19 00:50:00,
2013-03-18 19:51:00,64.5,45.5,29.94,NNE,28,3.0,10.0,50,0.00,,---,0.00,VWS V14.01,2013-03-19 00:51:00,
2013-03-18 19:52:00,64.1,45.1,29.94,NE,45,5.0,9.0,50,0.00,,---,0.00,VWS V14.01,2013-03-19 00:52:00,
2013-03-18 19:54:00,64.3,45.3,29.94,NE,38,1.0,7.0,50,0.00,,---,0.00,VWS V14.01,2013-03-19 00:54:00,
2013-03-18 19:55:00,64.2,45.2,29.94,NNE,24,4.0,7.0,50,0.00,,---,0.00,VWS V14.01,2013-03-19 00:55:00,
2013-03-18 19:57:00,63.8,44.3,29.95,NE,40,0.0,10.0,49,0.00,,---,0.00,VWS V14.01,2013-03-19 00:57:00,
2013-03-18 19:58:00,64.0,44.5,29.95,NNE,27,4.0,9.0,49,0.00,,---,0.00,VWS V14.01,2013-03-19 00:58:00,
2013-03-18 19:59:00,64.0,44.5,29.94,NNE,15,4.0,9.0,49,0.00,,---,0.00,VWS V14.01,2013-03-19 00:59:00,
2013-03-18 20:00:00,63.9,44.4,29.94,NE,37,2.0,9.0,49,0.00,,---,0.00,VWS V14.01,2013-03-19 01:00:00,
2013-03-18 20:01:00,63.9,44.4,29.95,NE,38,1.0,9.0,49,0.00,,---,0.00,VWS V14.01,2013-03-19 01:01:00,
2013-03-18 20:02:00,63.5,43.5,29.95,NNE,21,1.0,10.0,48,0.00,,---,0.00,VWS V14.01,2013-03-19 01:02:00,
2013-03-18 20:03:00,63.7,44.2,29.95,NNE,32,6.0,10.0,49,0.00,,---,0.00,VWS V14.01,2013-03-19 01:03:00,
2013-03-18 20:04:00,63.7,43.7,29.95,NNE,32,4.0,10.0,48,0.00,,---,0.00,VWS V14.01,2013-03-19 01:04:00,
2013-03-18 20:06:00,63.6,43.6,29.95,NNE,18,1.0,10.0,48,0.00,,---,0.00,VWS V14.01,2013-03-19 01:06:00,
2013-03-18 20:07:00,63.3,42.8,29.95,NNE,32,6.0,10.0,47,0.00,,---,0.00,VWS V14.01,2013-03-19 01:07:00,
2013-03-18 20:08:00,63.5,43.5,29.95,NE,44,5.0,9.0,48,0.00,,---,0.00,VWS V14.01,2013-03-19 01:08:00,
2013-03-18 20:09:00,63.4,42.8,29.95,NE,36,9.0,10.0,47,0.00,,---,0.00,VWS V14.01,2013-03-19 01:09:00,
2013-03-18 20:10:00,63.4,42.8,29.95,NE,44,6.0,10.0,47,0.00,,---,0.00,VWS V14.01,2013-03-19 01:10:00,
2013-03-18 20:11:00,63.4,42.8,29.95,NNE,30,3.0,10.0,47,0.00,,---,0.00,VWS V14.01,2013-03-19 01:11:00,
2013-03-18 20:12:00,63.1,42.6,29.95,NNE,19,0.0,10.0,47,0.00,,---,0.00,VWS V14.01,2013-03-19 01:12:00,
2013-03-18 20:13:00,63.3,42.8,29.95,NE,42,4.0,10.0,47,0.00,,---,0.00,VWS V14.01,2013-03-19 01:13:00,
2013-03-18 20:14:00,63.2,42.7,29.95,NE,34,7.0,10.0,47,0.00,,---,0.00,VWS V14.01,2013-03-19 01:14:00,
2013-03-18 20:15:00,63.2,42.1,29.95,NNE,28,7.0,10.0,46,0.00,,---,0.00,VWS V14.01,2013-03-19 01:15:00,
2013-03-18 20:16:00,63.1,42.0,29.95,NNE,32,3.0,10.0,46,0.00,,---,0.00,VWS V14.01,2013-03-19 01:16:00,
2013-03-18 20:17:00,62.9,41.8,29.95,NE,46,0.0,9.0,46,0.00,,---,0.00,VWS V14.01,2013-03-19 01:17:00,
2013-03-18 20:18:00,63.0,42.5,29.95,North,11,2.0,10.0,47,0.00,,---,0.00,VWS V14.01,2013-03-19 01:18:00,
2013-03-18 20:19:00,63.0,42.5,29.95,NNE,13,1.0,10.0,47,0.00,,---,0.00,VWS V14.01,2013-03-19 01:19:00,
2013-03-18 20:20:00,62.9,42.4,29.95,NNE,14,1.0,10.0,47,0.00,,---,0.00,VWS V14.01,2013-03-19 01:20:00,
2013-03-18 20:21:00,62.9,42.4,29.95,NE,46,2.0,9.0,47,0.00,,---,0.00,VWS V14.01,2013-03-19 01:21:00,
2013-03-18 20:22:00,62.6,41.0,29.95,NE,43,2.0,10.0,45,0.00,,---,0.00,VWS V14.01,2013-03-19 01:22:00,
2013-03-18 20:23:00,62.8,41.7,29.95,NE,42,0.0,10.0,46,0.00,,---,0.00,VWS V14.01,2013-03-19 01:23:00,
2013-03-18 20:24:00,62.7,41.6,29.95,NE,46,0.0,10.0,46,0.00,,---,0.00,VWS V14.01,2013-03-19 01:24:00,
2013-03-18 20:25:00,62.7,41.6,29.95,NE,42,2.0,10.0,46,0.00,,---,0.00,VWS V14.01,2013-03-19 01:25:00,
2013-03-18 20:26:00,62.6,41.0,29.95,NE,40,0.0,10.0,45,0.00,,---,0.00,VWS V14.01,2013-03-19 01:26:00,
2013-03-18 20:27:00,62.4,41.4,29.96,NNE,22,3.0,11.0,46,0.00,,---,0.00,VWS V14.01,2013-03-19 01:27:00,
2013-03-18 20:28:00,62.6,41.0,29.95,NE,51,4.0,11.0,45,0.00,,---,0.00,VWS V14.01,2013-03-19 01:28:00,
2013-03-18 20:29:00,62.5,40.9,29.95,NE,53,2.0,11.0,45,0.00,,---,0.00,VWS V14.01,2013-03-19 01:29:00,
2013-03-18 20:30:00,62.5,40.9,29.95,NE,38,2.0,11.0,45,0.00,,---,0.00,VWS V14.01,2013-03-19 01:30:00,
2013-03-18 20:31:00,62.4,40.8,29.95,NE,44,4.0,11.0,45,0.00,,---,0.00,VWS V14.01,2013-03-19 01:31:00,
2013-03-18 20:32:00,62.2,41.2,29.96,NE,37,5.0,9.0,46,0.00,,---,0.00,VWS V14.01,2013-03-19 01:32:00,
2013-03-18 20:34:00,62.3,41.3,29.96,NNE,31,2.0,10.0,46,0.00,,---,0.00,VWS V14.01,2013-03-19 01:34:00,
2013-03-18 20:35:00,62.3,41.3,29.96,NNE,31,0.0,10.0,46,0.00,,---,0.00,VWS V14.01,2013-03-19 01:35:00,
2013-03-18 20:36:00,62.2,41.2,29.96,NE,41,1.0,10.0,46,0.00,,---,0.00,VWS V14.01,2013-03-19 01:36:00,
2013-03-18 20:37:00,62.2,41.2,29.96,NE,36,6.0,9.0,46,0.00,,---,0.00,VWS V14.01,2013-03-19 01:37:00,
2013-03-18 20:38:00,62.0,41.0,29.96,NE,34,9.0,10.0,46,0.00,,---,0.00,VWS V14.01,2013-03-19 01:38:00,
2013-03-18 20:39:00,62.1,41.1,29.96,NE,44,0.0,10.0,46,0.00,,---,0.00,VWS V14.01,2013-03-19 01:39:00,
2013-03-18 20:40:00,62.1,41.1,29.96,NE,42,3.0,10.0,46,0.00,,---,0.00,VWS V14.01,2013-03-19 01:40:00,
2013-03-18 20:41:00,62.1,41.1,29.96,NE,43,0.0,10.0,46,0.00,,---,0.00,VWS V14.01,2013-03-19 01:41:00,
2013-03-18 20:42:00,62.0,41.6,29.96,NNE,32,7.0,10.0,47,0.00,,---,0.00,VWS V14.01,2013-03-19 01:42:00,
2013-03-18 20:43:00,61.8,40.8,29.96,NE,40,2.0,10.0,46,0.00,,---,0.00,VWS V14.01,2013-03-19 01:43:00,
2013-03-18 20:44:00,61.9,41.5,29.96,NE,37,1.0,10.0,47,0.00,,---,0.00,VWS V14.01,2013-03-19 01:44:00,
2013-03-18 20:45:00,61.9,41.5,29.96,NE,37,4.0,10.0,47,0.00,,---,0.00,VWS V14.01,2013-03-19 01:45:00,
2013-03-18 20:46:00,61.9,40.9,29.96,NNE,24,3.0,10.0,46,0.00,,---,0.00,VWS V14.01,2013-03-19 01:46:00,
2013-03-18 20:47:00,61.8,40.8,29.96,NE,45,4.0,10.0,46,0.00,,---,0.00,VWS V14.01,2013-03-19 01:47:00,
2013-03-18 20:48:00,61.6,40.6,29.96,NE,42,5.0,11.0,46,0.00,,---,0.00,VWS V14.01,2013-03-19 01:48:00,
2013-03-18 20:49:00,61.7,40.7,29.96,NNE,33,4.0,10.0,46,0.00,,---,0.00,VWS V14.01,2013-03-19 01:49:00,
2013-03-18 20:50:00,61.7,40.7,29.96,NE,36,4.0,10.0,46,0.00,,---,0.00,VWS V14.01,2013-03-19 01:50:00,
2013-03-18 20:52:00,61.6,40.6,29.96,NE,40,0.0,11.0,46,0.00,,---,0.00,VWS V14.01,2013-03-19 01:52:00,
2013-03-18 20:53:00,61.4,40.5,29.96,NE,44,4.0,12.0,46,0.00,,---,0.00,VWS V14.01,2013-03-19 01:53:00,
2013-03-18 20:54:00,61.6,40.6,29.96,NE,36,5.0,11.0,46,0.00,,---,0.00,VWS V14.01,2013-03-19 01:54:00,
2013-03-18 20:55:00,61.5,40.5,29.97,NNE,15,3.0,11.0,46,0.00,,---,0.00,VWS V14.01,2013-03-19 01:55:00,
2013-03-18 20:58:00,61.3,39.8,29.97,NE,38,6.0,6.0,45,0.00,,---,0.00,VWS V14.01,2013-03-19 01:58:00,
2013-03-18 20:59:00,61.4,39.9,29.97,NE,40,6.0,12.0,45,0.00,,---,0.00,VWS V14.01,2013-03-19 01:59:00,
2013-03-18 21:00:00,61.4,39.9,29.96,NE,37,4.0,12.0,45,0.00,,---,0.00,VWS V14.01,2013-03-19 02:00:00,
2013-03-18 21:01:00,61.3,39.8,29.97,NE,49,5.0,12.0,45,0.00,,---,0.00,VWS V14.01,2013-03-19 02:01:00,
2013-03-18 21:03:00,61.1,39.0,29.97,NE,44,6.0,10.0,44,0.00,,---,0.00,VWS V14.01,2013-03-19 02:03:00,
2013-03-18 21:05:00,61.2,39.1,29.97,NE,36,6.0,10.0,44,0.00,,---,0.00,VWS V14.01,2013-03-19 02:05:00,
2013-03-18 21:06:00,61.2,39.1,29.97,NE,38,5.0,10.0,44,0.00,,---,0.00,VWS V14.01,2013-03-19 02:06:00,
2013-03-18 21:07:00,61.1,39.0,29.97,NE,45,0.0,10.0,44,0.00,,---,0.00,VWS V14.01,2013-03-19 02:07:00,
2013-03-18 21:08:00,61.0,39.5,29.97,NE,39,0.0,7.0,45,0.00,,---,0.00,VWS V14.01,2013-03-19 02:08:00,
2013-03-18 21:11:00,61.0,39.5,29.97,NE,34,3.0,7.0,45,0.00,,---,0.00,VWS V14.01,2013-03-19 02:11:00,
2013-03-18 21:12:00,61.0,39.5,29.97,NE,39,0.0,7.0,45,0.00,,---,0.00,VWS V14.01,2013-03-19 02:12:00,
2013-03-18 21:13:00,60.7,39.8,29.97,ENE,59,1.0,9.0,46,0.00,,---,0.00,VWS V14.01,2013-03-19 02:13:00,
2013-03-18 21:14:00,60.9,39.4,29.97,NE,43,2.0,7.0,45,0.00,,---,0.00,VWS V14.01,2013-03-19 02:14:00,
2013-03-18 21:18:00,60.5,40.2,29.97,NE,43,0.0,8.0,47,0.00,,---,0.00,VWS V14.01,2013-03-19 02:18:00,
2013-03-18 21:19:00,60.7,39.8,29.97,ENE,58,0.0,9.0,46,0.00,,---,0.00,VWS V14.01,2013-03-19 02:19:00,
2013-03-18 21:20:00,60.6,39.7,29.97,NE,46,5.0,9.0,46,0.00,,---,0.00,VWS V14.01,2013-03-19 02:20:00,
2013-03-18 21:21:00,60.6,39.7,29.97,NE,35,2.0,6.0,46,0.00,,---,0.00,VWS V14.01,2013-03-19 02:21:00,
2013-03-18 21:22:00,60.5,39.6,29.97,NE,39,8.0,8.0,46,0.00,,---,0.00,VWS V14.01,2013-03-19 02:22:00,
2013-03-18 21:23:00,60.3,40.5,29.96,NE,50,0.0,10.0,48,0.00,,---,0.00,VWS V14.01,2013-03-19 02:23:00,
2013-03-18 21:24:00,60.4,40.1,29.96,NE,46,0.0,8.0,47,0.00,,---,0.00,VWS V14.01,2013-03-19 02:24:00,
2013-03-18 21:25:00,60.4,40.1,29.97,NE,47,0.0,8.0,47,0.00,,---,0.00,VWS V14.01,2013-03-19 02:25:00,
2013-03-18 21:26:00,60.4,40.1,29.97,NE,39,0.0,9.0,47,0.00,,---,0.00,VWS V14.01,2013-03-19 02:26:00,
2013-03-18 21:27:00,60.3,40.0,29.97,NE,51,0.0,10.0,47,0.00,,---,0.00,VWS V14.01,2013-03-19 02:27:00,
2013-03-18 21:28:00,60.1,40.4,29.97,NE,40,0.0,9.0,48,0.00,,---,0.00,VWS V14.01,2013-03-19 02:28:00,
2013-03-18 21:29:00,60.3,40.5,29.96,NE,44,8.0,10.0,48,0.00,,---,0.00,VWS V14.01,2013-03-19 02:29:00,
2013-03-18 21:30:00,60.2,40.5,29.96,NE,46,1.0,10.0,48,0.00,,---,0.00,VWS V14.01,2013-03-19 02:30:00,
2013-03-18 21:31:00,60.2,40.5,29.97,NE,45,4.0,10.0,48,0.00,,---,0.00,VWS V14.01,2013-03-19 02:31:00,
2013-03-18 21:32:00,60.1,40.4,29.97,NE,40,1.0,9.0,48,0.00,,---,0.00,VWS V14.01,2013-03-19 02:32:00,
2013-03-18 21:33:00,60.0,40.3,29.96,ENE,57,2.0,11.0,48,0.00,,---,0.00,VWS V14.01,2013-03-19 02:33:00,
2013-03-18 21:34:00,60.1,40.4,29.97,NE,49,8.0,11.0,48,0.00,,---,0.00,VWS V14.01,2013-03-19 02:34:00,
2013-03-18 21:35:00,60.0,40.3,29.96,ENE,62,0.0,11.0,48,0.00,,---,0.00,VWS V14.01,2013-03-19 02:35:00,
2013-03-18 21:36:00,60.0,40.3,29.97,ENE,58,0.0,11.0,48,0.00,,---,0.00,VWS V14.01,2013-03-19 02:36:00,
2013-03-18 21:37:00,60.0,40.3,29.97,ENE,58,0.0,11.0,48,0.00,,---,0.00,VWS V14.01,2013-03-19 02:37:00,
2013-03-18 21:38:00,59.9,40.2,29.97,NE,53,1.0,7.0,48,0.00,,---,0.00,VWS V14.01,2013-03-19 02:38:00,
2013-03-18 21:39:00,60.0,40.3,29.97,NE,49,0.0,8.0,48,0.00,,---,0.00,VWS V14.01,2013-03-19 02:39:00,
2013-03-18 21:40:00,59.9,40.2,29.97,NE,51,0.0,7.0,48,0.00,,---,0.00,VWS V14.01,2013-03-19 02:40:00,
2013-03-18 21:41:00,59.9,40.2,29.97,NE,49,4.0,7.0,48,0.00,,---,0.00,VWS V14.01,2013-03-19 02:41:00,
2013-03-18 21:42:00,59.9,40.2,29.97,NE,48,4.0,7.0,48,0.00,,---,0.00,VWS V14.01,2013-03-19 02:42:00,
2013-03-18 21:43:00,59.8,40.6,29.97,ENE,59,1.0,13.0,49,0.00,,---,0.00,VWS V14.01,2013-03-19 02:43:00,
2013-03-18 21:44:00,59.8,40.1,29.97,NE,40,1.0,13.0,48,0.00,,---,0.00,VWS V14.01,2013-03-19 02:44:00,
2013-03-18 21:45:00,59.8,40.1,29.97,NE,38,0.0,13.0,48,0.00,,---,0.00,VWS V14.01,2013-03-19 02:45:00,
2013-03-18 21:47:00,59.8,40.6,29.97,NE,42,6.0,13.0,49,0.00,,---,0.00,VWS V14.01,2013-03-19 02:47:00,
2013-03-18 21:48:00,59.7,40.5,29.97,NE,50,0.0,9.0,49,0.00,,---,0.00,VWS V14.01,2013-03-19 02:48:00,
2013-03-18 21:49:00,59.7,40.5,29.97,NE,51,1.0,11.0,49,0.00,,---,0.00,VWS V14.01,2013-03-19 02:49:00,
2013-03-18 21:50:00,59.7,40.5,29.97,NE,46,6.0,11.0,49,0.00,,---,0.00,VWS V14.01,2013-03-19 02:50:00,
2013-03-18 21:51:00,59.7,40.5,29.97,NE,49,1.0,11.0,49,0.00,,---,0.00,VWS V14.01,2013-03-19 02:51:00,
2013-03-18 21:52:00,59.7,40.5,29.97,NE,50,0.0,11.0,49,0.00,,---,0.00,VWS V14.01,2013-03-19 02:52:00,
2013-03-18 21:53:00,59.5,40.9,29.97,NE,36,2.0,7.0,50,0.00,,---,0.00,VWS V14.01,2013-03-19 02:53:00,
2013-03-18 21:54:00,59.6,40.4,29.97,NE,49,0.0,9.0,49,0.00,,---,0.00,VWS V14.01,2013-03-19 02:54:00,
2013-03-18 21:55:00,59.6,41.0,29.97,NE,53,0.0,9.0,50,0.00,,---,0.00,VWS V14.01,2013-03-19 02:55:00,
2013-03-18 21:56:00,59.6,41.0,29.97,NE,53,3.0,9.0,50,0.00,,---,0.00,VWS V14.01,2013-03-19 02:56:00,
2013-03-18 21:57:00,59.5,40.9,29.97,NE,53,0.0,4.0,50,0.00,,---,0.00,VWS V14.01,2013-03-19 02:57:00,
2013-03-18 21:58:00,59.4,40.8,29.97,NE,44,3.0,5.0,50,0.00,,---,0.00,VWS V14.01,2013-03-19 02:58:00,
2013-03-18 21:59:00,59.5,40.9,29.97,NNE,33,4.0,7.0,50,0.00,,---,0.00,VWS V14.01,2013-03-19 02:59:00,
2013-03-18 22:00:00,59.5,40.9,29.97,NE,41,1.0,7.0,50,0.00,,---,0.00,VWS V14.01,2013-03-19 03:00:00,
2013-03-18 22:02:00,59.4,40.8,29.97,NE,44,0.0,7.0,50,0.00,,---,0.00,VWS V14.01,2013-03-19 03:02:00,
2013-03-18 22:03:00,59.2,41.1,29.97,NE,46,0.0,7.0,51,0.00,,---,0.00,VWS V14.01,2013-03-19 03:03:00,
2013-03-18 22:04:00,59.3,40.7,29.97,NE,41,7.0,7.0,50,0.00,,---,0.00,VWS V14.01,2013-03-19 03:04:00,
2013-03-18 22:05:00,59.3,40.7,29.97,NE,44,0.0,7.0,50,0.00,,---,0.00,VWS V14.01,2013-03-19 03:05:00,
2013-03-18 22:06:00,59.3,40.7,29.97,NE,40,6.0,7.0,50,0.00,,---,0.00,VWS V14.01,2013-03-19 03:06:00,
2013-03-18 22:07:00,59.3,40.7,29.97,NE,53,1.0,7.0,50,0.00,,---,0.00,VWS V14.01,2013-03-19 03:07:00,
2013-03-18 22:08:00,59.2,41.1,29.98,NE,39,1.0,11.0,51,0.00,,---,0.00,VWS V14.01,2013-03-19 03:08:00,
2013-03-18 22:09:00,59.2,41.1,29.97,NE,50,0.0,7.0,51,0.00,,---,0.00,VWS V14.01,2013-03-19 03:09:00,
2013-03-18 22:10:00,59.2,41.1,29.98,NE,49,0.0,7.0,51,0.00,,---,0.00,VWS V14.01,2013-03-19 03:10:00,
2013-03-18 22:11:00,59.2,41.1,29.97,NE,49,0.0,7.0,51,0.00,,---,0.00,VWS V14.01,2013-03-19 03:11:00,
2013-03-18 22:12:00,59.2,41.1,29.98,NE,47,10.0,11.0,51,0.00,,---,0.00,VWS V14.01,2013-03-19 03:12:00,
2013-03-18 22:13:00,59.1,41.0,29.98,NE,46,0.0,5.0,51,0.00,,---,0.00,VWS V14.01,2013-03-19 03:13:00,
2013-03-18 22:14:00,59.1,41.0,29.98,NE,39,0.0,11.0,51,0.00,,---,0.00,VWS V14.01,2013-03-19 03:14:00,
2013-03-18 22:15:00,59.1,41.0,29.98,NE,43,1.0,11.0,51,0.00,,---,0.00,VWS V14.01,2013-03-19 03:15:00,
2013-03-18 22:16:00,59.1,41.0,29.98,NE,42,0.0,11.0,51,0.00,,---,0.00,VWS V14.01,2013-03-19 03:16:00,
2013-03-18 22:17:00,59.1,41.0,29.98,NE,44,0.0,10.0,51,0.00,,---,0.00,VWS V14.01,2013-03-19 03:17:00,
2013-03-18 22:18:00,59.0,40.4,29.98,ENE,59,3.0,5.0,50,0.00,,---,0.00,VWS V14.01,2013-03-19 03:18:00,
2013-03-18 22:19:00,59.0,40.9,29.98,NE,45,0.0,5.0,51,0.00,,---,0.00,VWS V14.01,2013-03-19 03:19:00,
2013-03-18 22:20:00,59.0,40.9,29.98,NE,46,3.0,5.0,51,0.00,,---,0.00,VWS V14.01,2013-03-19 03:20:00,
2013-03-18 22:21:00,59.0,40.9,29.98,ENE,63,0.0,5.0,51,0.00,,---,0.00,VWS V14.01,2013-03-19 03:21:00,
2013-03-18 22:22:00,59.0,40.4,29.98,ENE,60,0.0,5.0,50,0.00,,---,0.00,VWS V14.01,2013-03-19 03:22:00,
2013-03-18 22:23:00,58.9,40.3,29.98,NE,46,0.0,5.0,50,0.00,,---,0.00,VWS V14.01,2013-03-19 03:23:00,
2013-03-18 22:24:00,59.0,40.9,29.98,ENE,57,0.0,5.0,51,0.00,,---,0.00,VWS V14.01,2013-03-19 03:24:00,
2013-03-18 22:26:00,59.0,40.4,29.98,ENE,57,3.0,5.0,50,0.00,,---,0.00,VWS V14.01,2013-03-19 03:26:00,
2013-03-18 22:27:00,58.9,40.3,29.98,NE,47,0.0,5.0,50,0.00,,---,0.00,VWS V14.01,2013-03-19 03:27:00,
2013-03-18 22:28:00,58.9,40.3,29.98,NE,49,0.0,7.0,50,0.00,,---,0.00,VWS V14.01,2013-03-19 03:28:00,
2013-03-18 22:29:00,58.9,40.3,29.98,NE,46,0.0,5.0,50,0.00,,---,0.00,VWS V14.01,2013-03-19 03:29:00,
2013-03-18 22:30:00,58.9,40.3,29.98,NE,46,7.0,7.0,50,0.00,,---,0.00,VWS V14.01,2013-03-19 03:30:00,
2013-03-18 22:31:00,58.9,40.3,29.98,NE,49,0.0,7.0,50,0.00,,---,0.00,VWS V14.01,2013-03-19 03:31:00,
2013-03-18 22:32:00,58.9,40.3,29.98,NE,49,1.0,7.0,50,0.00,,---,0.00,VWS V14.01,2013-03-19 03:32:00,
2013-03-18 22:33:00,58.7,40.1,29.98,NE,52,0.0,7.0,50,0.00,,---,0.00,VWS V14.01,2013-03-19 03:33:00,
2013-03-18 22:34:00,58.8,40.2,29.98,NE,49,1.0,7.0,50,0.00,,---,0.00,VWS V14.01,2013-03-19 03:34:00,
2013-03-18 22:35:00,58.8,40.2,29.98,NE,51,0.0,7.0,50,0.00,,---,0.00,VWS V14.01,2013-03-19 03:35:00,
2013-03-18 22:36:00,58.8,40.2,29.98,NE,51,0.0,7.0,50,0.00,,---,0.00,VWS V14.01,2013-03-19 03:36:00,
2013-03-18 22:37:00,58.8,40.2,29.98,NE,41,0.0,7.0,50,0.00,,---,0.00,VWS V14.01,2013-03-19 03:37:00,
2013-03-18 22:38:00,58.6,39.5,29.98,NE,54,3.0,5.0,49,0.00,,---,0.00,VWS V14.01,2013-03-19 03:38:00,
2013-03-18 22:39:00,58.7,40.1,29.98,NE,52,1.0,7.0,50,0.00,,---,0.00,VWS V14.01,2013-03-19 03:39:00,
2013-03-18 22:40:00,58.7,40.1,29.98,NE,53,0.0,7.0,50,0.00,,---,0.00,VWS V14.01,2013-03-19 03:40:00,
2013-03-18 22:41:00,58.7,40.1,29.98,NE,52,1.0,7.0,50,0.00,,---,0.00,VWS V14.01,2013-03-19 03:41:00,
2013-03-18 22:42:00,58.6,39.5,29.98,NE,54,0.0,7.0,49,0.00,,---,0.00,VWS V14.01,2013-03-19 03:42:00,
2013-03-18 22:43:00,58.5,39.9,29.98,NE,46,3.0,7.0,50,0.00,,---,0.00,VWS V14.01,2013-03-19 03:43:00,
2013-03-18 22:44:00,58.6,39.5,29.98,NE,54,0.0,5.0,49,0.00,,---,0.00,VWS V14.01,2013-03-19 03:44:00,
2013-03-18 22:45:00,58.6,39.5,29.98,NE,54,1.0,5.0,49,0.00,,---,0.00,VWS V14.01,2013-03-19 03:45:00,
2013-03-18 22:46:00,58.5,39.9,29.98,NE,53,2.0,5.0,50,0.00,,---,0.00,VWS V14.01,2013-03-19 03:46:00,
2013-03-18 22:47:00,58.5,39.9,29.98,NE,46,0.0,7.0,50,0.00,,---,0.00,VWS V14.01,2013-03-19 03:47:00,
2013-03-18 22:48:00,58.2,39.7,29.99,NE,49,0.0,5.0,50,0.00,,---,0.00,VWS V14.01,2013-03-19 03:48:00,
2013-03-18 22:49:00,58.4,39.8,29.98,NE,49,0.0,7.0,50,0.00,,---,0.00,VWS V14.01,2013-03-19 03:49:00,
2013-03-18 22:50:00,58.4,39.8,29.98,NE,47,2.0,7.0,50,0.00,,---,0.00,VWS V14.01,2013-03-19 03:50:00,
2013-03-18 22:51:00,58.4,39.8,29.99,NE,48,0.0,7.0,50,0.00,,---,0.00,VWS V14.01,2013-03-19 03:51:00,
2013-03-18 22:52:00,58.3,39.8,29.98,NE,48,3.0,5.0,50,0.00,,---,0.00,VWS V14.01,2013-03-19 03:52:00,
2013-03-18 22:53:00,58.1,39.6,29.99,NE,47,2.0,5.0,50,0.00,,---,0.00,VWS V14.01,2013-03-19 03:53:00,
2013-03-18 22:54:00,58.2,39.7,29.99,NE,49,0.0,5.0,50,0.00,,---,0.00,VWS V14.01,2013-03-19 03:54:00,
2013-03-18 22:55:00,58.2,39.7,29.99,NE,49,0.0,5.0,50,0.00,,---,0.00,VWS V14.01,2013-03-19 03:55:00,
2013-03-18 22:56:00,58.1,39.6,29.99,NE,49,0.0,5.0,50,0.00,,---,0.00,VWS V14.01,2013-03-19 03:56:00,
2013-03-18 22:57:00,58.1,39.6,29.99,NE,49,2.0,5.0,50,0.00,,---,0.00,VWS V14.01,2013-03-19 03:57:00,
2013-03-18 22:58:00,57.8,39.8,29.99,NE,47,0.0,2.0,51,0.00,,---,0.00,VWS V14.01,2013-03-19 03:58:00,
2013-03-18 22:59:00,58.0,40.0,29.99,NE,47,0.0,5.0,51,0.00,,---,0.00,VWS V14.01,2013-03-19 03:59:00,
2013-03-18 23:00:00,57.8,39.8,29.99,NE,48,0.0,5.0,51,0.00,,---,0.00,VWS V14.01,2013-03-19 04:00:00,
2013-03-18 23:01:00,57.9,39.9,29.99,NE,47,0.0,5.0,51,0.00,,---,0.00,VWS V14.01,2013-03-19 04:01:00,
2013-03-18 23:02:00,57.9,39.9,29.99,NE,47,0.0,5.0,51,0.00,,---,0.00,VWS V14.01,2013-03-19 04:02:00,
2013-03-18 23:03:00,57.8,39.8,29.99,NE,47,0.0,2.0,51,0.00,,---,0.00,VWS V14.01,2013-03-19 04:03:00,
2013-03-18 23:04:00,57.8,39.8,29.99,NE,48,4.0,5.0,51,0.00,,---,0.00,VWS V14.01,2013-03-19 04:04:00,
2013-03-18 23:05:00,57.6,40.1,29.99,NE,48,0.0,5.0,52,0.00,,---,0.00,VWS V14.01,2013-03-19 04:05:00,
2013-03-18 23:06:00,57.7,39.7,29.99,NE,48,0.0,5.0,51,0.00,,---,0.00,VWS V14.01,2013-03-19 04:06:00,
2013-03-18 23:07:00,57.7,39.7,29.99,NE,48,2.0,5.0,51,0.00,,---,0.00,VWS V14.01,2013-03-19 04:07:00,
2013-03-18 23:08:00,57.7,39.7,29.99,NE,48,0.0,5.0,51,0.00,,---,0.00,VWS V14.01,2013-03-19 04:08:00,
2013-03-18 23:09:00,57.7,40.2,29.99,NE,48,0.0,5.0,52,0.00,,---,0.00,VWS V14.01,2013-03-19 04:09:00,
2013-03-18 23:10:00,57.4,39.9,29.99,NE,48,0.0,3.0,52,0.00,,---,0.00,VWS V14.01,2013-03-19 04:10:00,
2013-03-18 23:11:00,57.6,40.1,29.99,NE,48,0.0,5.0,52,0.00,,---,0.00,VWS V14.01,2013-03-19 04:11:00,
2013-03-18 23:12:00,57.5,40.0,29.99,NE,48,0.0,5.0,52,0.00,,---,0.00,VWS V14.01,2013-03-19 04:12:00,
2013-03-18 23:13:00,57.5,40.0,29.99,NE,48,0.0,2.0,52,0.00,,---,0.00,VWS V14.01,2013-03-19 04:13:00,
2013-03-18 23:14:00,57.5,40.0,29.99,NE,48,0.0,2.0,52,0.00,,---,0.00,VWS V14.01,2013-03-19 04:14:00,
2013-03-18 23:15:00,57.2,39.8,29.99,NE,49,4.0,9.0,52,0.00,,---,0.00,VWS V14.01,2013-03-19 04:15:00,
2013-03-18 23:16:00,57.4,39.9,29.99,NE,48,1.0,3.0,52,0.00,,---,0.00,VWS V14.01,2013-03-19 04:16:00,
2013-03-18 23:17:00,57.3,39.8,29.99,NE,50,0.0,3.0,52,0.00,,---,0.00,VWS V14.01,2013-03-19 04:17:00,
2013-03-18 23:18:00,57.3,39.8,29.99,NE,48,0.0,9.0,52,0.00,,---,0.00,VWS V14.01,2013-03-19 04:18:00,
2013-03-18 23:19:00,57.3,39.8,29.99,NE,49,2.0,9.0,52,0.00,,---,0.00,VWS V14.01,2013-03-19 04:19:00,
2013-03-18 23:20:00,57.1,40.2,29.99,NE,49,4.0,4.0,53,0.00,,---,0.00,VWS V14.01,2013-03-19 04:20:00,
2013-03-18 23:21:00,57.2,39.8,29.99,NE,49,0.0,9.0,52,0.00,,---,0.00,VWS V14.01,2013-03-19 04:21:00,
2013-03-18 23:22:00,57.2,40.2,29.99,NE,49,0.0,9.0,53,0.00,,---,0.00,VWS V14.01,2013-03-19 04:22:00,
2013-03-18 23:23:00,57.2,40.2,29.99,NE,49,0.0,6.0,53,0.00,,---,0.00,VWS V14.01,2013-03-19 04:23:00,
2013-03-18 23:24:00,57.2,40.2,29.99,NE,49,0.0,4.0,53,0.00,,---,0.00,VWS V14.01,2013-03-19 04:24:00,
2013-03-18 23:26:00,57.0,40.1,29.99,NE,49,4.0,4.0,53,0.00,,---,0.00,VWS V14.01,2013-03-19 04:26:00,
2013-03-18 23:27:00,57.1,40.2,29.99,NE,49,0.0,4.0,53,0.00,,---,0.00,VWS V14.01,2013-03-19 04:27:00,
2013-03-18 23:28:00,57.0,40.1,29.99,NE,51,0.0,4.0,53,0.00,,---,0.00,VWS V14.01,2013-03-19 04:28:00,
2013-03-18 23:30:00,57.0,40.1,29.99,NE,51,0.0,4.0,53,0.00,,---,0.00,VWS V14.01,2013-03-19 04:30:00,
2013-03-18 23:31:00,56.8,40.3,30.00,NE,49,0.0,4.0,54,0.00,,---,0.00,VWS V14.01,2013-03-19 04:31:00,
2013-03-18 23:32:00,56.9,40.0,29.99,NE,49,1.0,4.0,53,0.00,,---,0.00,VWS V14.01,2013-03-19 04:32:00,
2013-03-18 23:33:00,56.8,40.3,29.99,NE,49,0.0,4.0,54,0.00,,---,0.00,VWS V14.01,2013-03-19 04:33:00,
2013-03-18 23:34:00,56.8,40.3,29.99,NE,49,0.0,4.0,54,0.00,,---,0.00,VWS V14.01,2013-03-19 04:34:00,
2013-03-18 23:35:00,56.8,40.3,29.99,NE,49,0.0,4.0,54,0.00,,---,0.00,VWS V14.01,2013-03-19 04:35:00,
2013-03-18 23:36:00,56.6,40.2,30.00,NE,49,2.0,6.0,54,0.00,,---,0.00,VWS V14.01,2013-03-19 04:36:00,
2013-03-18 23:37:00,56.7,40.3,30.00,NE,49,2.0,2.0,54,0.00,,---,0.00,VWS V14.01,2013-03-19 04:37:00,
2013-03-18 23:38:00,56.7,40.3,30.00,NE,49,0.0,2.0,54,0.00,,---,0.00,VWS V14.01,2013-03-19 04:38:00,
2013-03-18 23:39:00,56.6,40.2,30.00,NE,50,0.0,3.0,54,0.00,,---,0.00,VWS V14.01,2013-03-19 04:39:00,
2013-03-18 23:40:00,56.6,40.2,29.99,NE,49,4.0,4.0,54,0.00,,---,0.00,VWS V14.01,2013-03-19 04:40:00,
2013-03-18 23:41:00,56.4,40.0,30.00,NE,46,1.0,5.0,54,0.00,,---,0.00,VWS V14.01,2013-03-19 04:41:00,
2013-03-18 23:42:00,56.6,40.2,30.00,NE,49,0.0,6.0,54,0.00,,---,0.00,VWS V14.01,2013-03-19 04:42:00,
2013-03-18 23:43:00,56.5,40.1,30.00,NE,49,0.0,6.0,54,0.00,,---,0.00,VWS V14.01,2013-03-19 04:43:00,
2013-03-18 23:44:00,56.5,40.1,30.00,NE,49,0.0,6.0,54,0.00,,---,0.00,VWS V14.01,2013-03-19 04:44:00,
2013-03-18 23:45:00,56.4,40.0,30.00,NE,49,2.0,6.0,54,0.00,,---,0.00,VWS V14.01,2013-03-19 04:45:00,
2013-03-18 23:46:00,56.2,39.8,30.00,NE,46,0.0,3.0,54,0.00,,---,0.00,VWS V14.01,2013-03-19 04:46:00,
2013-03-18 23:47:00,56.4,40.0,30.00,NE,46,0.0,5.0,54,0.00,,---,0.00,VWS V14.01,2013-03-19 04:47:00,
2013-03-18 23:48:00,56.3,39.9,30.00,NE,46,0.0,5.0,54,0.00,,---,0.00,VWS V14.01,2013-03-19 04:48:00,
2013-03-18 23:49:00,56.3,39.9,30.00,NE,46,0.0,5.0,54,0.00,,---,0.00,VWS V14.01,2013-03-19 04:49:00,
2013-03-18 23:50:00,56.3,39.9,30.00,NE,46,3.0,5.0,54,0.00,,---,0.00,VWS V14.01,2013-03-19 04:50:00,
2013-03-18 23:51:00,56.0,40.1,30.00,NE,47,0.0,3.0,55,0.00,,---,0.00,VWS V14.01,2013-03-19 04:51:00,
2013-03-18 23:52:00,56.2,40.3,30.00,NE,46,0.0,3.0,55,0.00,,---,0.00,VWS V14.01,2013-03-19 04:52:00,
2013-03-18 23:53:00,56.1,40.2,30.00,NE,46,0.0,3.0,55,0.00,,---,0.00,VWS V14.01,2013-03-19 04:53:00,
2013-03-18 23:54:00,56.1,40.2,30.00,NE,46,0.0,3.0,55,0.00,,---,0.00,VWS V14.01,2013-03-19 04:54:00,
2013-03-18 23:55:00,56.1,40.2,29.99,NE,46,0.0,3.0,55,0.00,,---,0.00,VWS V14.01,2013-03-19 04:55:00,
2013-03-18 23:56:00,55.9,40.0,29.99,NE,47,0.0,2.0,55,0.00,,---,0.00,VWS V14.01,2013-03-19 04:56:00,
2013-03-18 23:57:00,56.0,40.1,30.00,NE,47,0.0,2.0,55,0.00,,---,0.00,VWS V14.01,2013-03-19 04:57:00,
2013-03-18 23:58:00,56.0,40.1,30.00,NE,47,0.0,2.0,55,0.00,,---,0.00,VWS V14.01,2013-03-19 04:58:00,
2013-03-18 23:59:00,55.9,40.0,29.99,NE,47,0.0,1.0,55,0.00,,---,0.00,VWS V14.01,2013-03-19 04:59:00,